<?xml version="1.0" encoding="UTF-8" standalone="no" ?>
<gpx xmlns="http://www.topografix.com/GPX/1/1" xmlns:xsi="http://www.w3.org/2001/XMLSchema-instance" xsi:schemaLocation="http://www.topografix.com/GPX/1/1 http://www.topografix.com/GPX/1/1/gpx.xsd" version="1.1" creator="VisuGPX - https://www.visugpx.com">
  <metadata>
    <name>13-D-Trets</name>
    <desc><![CDATA[13-D-Trets : au pied du mont Aurélien ]]></desc>
  </metadata>
  <trk>
    <name><![CDATA[2016-05-01-D-trets]]></name>
    <trkseg>
      <trkpt lat="43.46718" lon="5.74534">
        <ele>307.6</ele>
        <time>2016-05-01T06:58:41Z</time>
      </trkpt>
      <trkpt lat="43.46711" lon="5.74529">
        <ele>305</ele>
        <time>2016-05-01T07:01:47Z</time>
      </trkpt>
      <trkpt lat="43.4671" lon="5.74529">
        <ele>305.1</ele>
        <time>2016-05-01T07:01:48Z</time>
      </trkpt>
      <trkpt lat="43.46701" lon="5.74548">
        <ele>306.1</ele>
        <time>2016-05-01T07:02:06Z</time>
      </trkpt>
      <trkpt lat="43.46699" lon="5.7456">
        <ele>305.7</ele>
        <time>2016-05-01T07:02:14Z</time>
      </trkpt>
      <trkpt lat="43.46699" lon="5.74571">
        <ele>307.3</ele>
        <time>2016-05-01T07:02:28Z</time>
      </trkpt>
      <trkpt lat="43.46698" lon="5.74582">
        <ele>307.9</ele>
        <time>2016-05-01T07:02:33Z</time>
      </trkpt>
      <trkpt lat="43.46696" lon="5.74593">
        <ele>308.1</ele>
        <time>2016-05-01T07:02:40Z</time>
      </trkpt>
      <trkpt lat="43.46688" lon="5.74593">
        <ele>308.1</ele>
        <time>2016-05-01T07:02:49Z</time>
      </trkpt>
      <trkpt lat="43.46687" lon="5.74593">
        <ele>308.1</ele>
        <time>2016-05-01T07:02:50Z</time>
      </trkpt>
      <trkpt lat="43.46672" lon="5.74587">
        <ele>308.6</ele>
        <time>2016-05-01T07:03:01Z</time>
      </trkpt>
      <trkpt lat="43.46664" lon="5.74584">
        <ele>309.6</ele>
        <time>2016-05-01T07:03:09Z</time>
      </trkpt>
      <trkpt lat="43.46655" lon="5.74583">
        <ele>310.3</ele>
        <time>2016-05-01T07:03:17Z</time>
      </trkpt>
      <trkpt lat="43.46646" lon="5.74582">
        <ele>310.4</ele>
        <time>2016-05-01T07:03:26Z</time>
      </trkpt>
      <trkpt lat="43.46639" lon="5.74583">
        <ele>311.7</ele>
        <time>2016-05-01T07:03:41Z</time>
      </trkpt>
      <trkpt lat="43.4663" lon="5.74585">
        <ele>311.9</ele>
        <time>2016-05-01T07:03:48Z</time>
      </trkpt>
      <trkpt lat="43.46622" lon="5.74587">
        <ele>312.1</ele>
        <time>2016-05-01T07:03:59Z</time>
      </trkpt>
      <trkpt lat="43.46621" lon="5.74588">
        <ele>312.3</ele>
        <time>2016-05-01T07:04:00Z</time>
      </trkpt>
      <trkpt lat="43.46607" lon="5.74595">
        <ele>313.1</ele>
        <time>2016-05-01T07:04:15Z</time>
      </trkpt>
      <trkpt lat="43.46599" lon="5.74599">
        <ele>314.4</ele>
        <time>2016-05-01T07:04:23Z</time>
      </trkpt>
      <trkpt lat="43.46592" lon="5.74603">
        <ele>314.7</ele>
        <time>2016-05-01T07:04:31Z</time>
      </trkpt>
      <trkpt lat="43.46584" lon="5.74608">
        <ele>314.6</ele>
        <time>2016-05-01T07:04:39Z</time>
      </trkpt>
      <trkpt lat="43.46576" lon="5.74612">
        <ele>314.9</ele>
        <time>2016-05-01T07:04:46Z</time>
      </trkpt>
      <trkpt lat="43.46568" lon="5.74615">
        <ele>315.4</ele>
        <time>2016-05-01T07:04:53Z</time>
      </trkpt>
      <trkpt lat="43.4656" lon="5.74619">
        <ele>315.9</ele>
        <time>2016-05-01T07:05:00Z</time>
      </trkpt>
      <trkpt lat="43.46558" lon="5.74619">
        <ele>316</ele>
        <time>2016-05-01T07:05:01Z</time>
      </trkpt>
      <trkpt lat="43.46543" lon="5.74624">
        <ele>316.4</ele>
        <time>2016-05-01T07:05:15Z</time>
      </trkpt>
      <trkpt lat="43.46536" lon="5.74628">
        <ele>317</ele>
        <time>2016-05-01T07:05:22Z</time>
      </trkpt>
      <trkpt lat="43.46528" lon="5.74631">
        <ele>317.4</ele>
        <time>2016-05-01T07:05:29Z</time>
      </trkpt>
      <trkpt lat="43.4652" lon="5.74635">
        <ele>318.1</ele>
        <time>2016-05-01T07:05:37Z</time>
      </trkpt>
      <trkpt lat="43.46512" lon="5.74642">
        <ele>318.8</ele>
        <time>2016-05-01T07:05:45Z</time>
      </trkpt>
      <trkpt lat="43.46505" lon="5.74647">
        <ele>320</ele>
        <time>2016-05-01T07:05:54Z</time>
      </trkpt>
      <trkpt lat="43.46496" lon="5.7465">
        <ele>320.7</ele>
        <time>2016-05-01T07:06:03Z</time>
      </trkpt>
      <trkpt lat="43.46495" lon="5.7465">
        <ele>320.8</ele>
        <time>2016-05-01T07:06:04Z</time>
      </trkpt>
      <trkpt lat="43.4648" lon="5.74655">
        <ele>321.1</ele>
        <time>2016-05-01T07:06:20Z</time>
      </trkpt>
      <trkpt lat="43.46472" lon="5.74657">
        <ele>322.3</ele>
        <time>2016-05-01T07:06:29Z</time>
      </trkpt>
      <trkpt lat="43.46463" lon="5.74658">
        <ele>322.5</ele>
        <time>2016-05-01T07:06:37Z</time>
      </trkpt>
      <trkpt lat="43.46455" lon="5.74663">
        <ele>322.8</ele>
        <time>2016-05-01T07:06:45Z</time>
      </trkpt>
      <trkpt lat="43.46448" lon="5.74666">
        <ele>323.8</ele>
        <time>2016-05-01T07:06:52Z</time>
      </trkpt>
      <trkpt lat="43.4644" lon="5.7467">
        <ele>324.2</ele>
        <time>2016-05-01T07:06:59Z</time>
      </trkpt>
      <trkpt lat="43.46432" lon="5.74673">
        <ele>325.2</ele>
        <time>2016-05-01T07:07:07Z</time>
      </trkpt>
      <trkpt lat="43.46431" lon="5.74674">
        <ele>325.3</ele>
        <time>2016-05-01T07:07:08Z</time>
      </trkpt>
      <trkpt lat="43.46417" lon="5.74682">
        <ele>326.9</ele>
        <time>2016-05-01T07:07:23Z</time>
      </trkpt>
      <trkpt lat="43.46409" lon="5.74686">
        <ele>327</ele>
        <time>2016-05-01T07:07:31Z</time>
      </trkpt>
      <trkpt lat="43.46401" lon="5.7469">
        <ele>327.8</ele>
        <time>2016-05-01T07:07:39Z</time>
      </trkpt>
      <trkpt lat="43.46393" lon="5.74694">
        <ele>327.7</ele>
        <time>2016-05-01T07:07:47Z</time>
      </trkpt>
      <trkpt lat="43.46385" lon="5.74696">
        <ele>328</ele>
        <time>2016-05-01T07:07:55Z</time>
      </trkpt>
      <trkpt lat="43.46377" lon="5.74699">
        <ele>328.6</ele>
        <time>2016-05-01T07:08:03Z</time>
      </trkpt>
      <trkpt lat="43.46369" lon="5.74703">
        <ele>328.7</ele>
        <time>2016-05-01T07:08:12Z</time>
      </trkpt>
      <trkpt lat="43.46368" lon="5.74703">
        <ele>328.5</ele>
        <time>2016-05-01T07:08:13Z</time>
      </trkpt>
      <trkpt lat="43.46353" lon="5.74709">
        <ele>329.9</ele>
        <time>2016-05-01T07:08:28Z</time>
      </trkpt>
      <trkpt lat="43.46345" lon="5.7471">
        <ele>329.7</ele>
        <time>2016-05-01T07:08:36Z</time>
      </trkpt>
      <trkpt lat="43.46336" lon="5.74712">
        <ele>330.4</ele>
        <time>2016-05-01T07:08:44Z</time>
      </trkpt>
      <trkpt lat="43.46328" lon="5.74715">
        <ele>331</ele>
        <time>2016-05-01T07:08:52Z</time>
      </trkpt>
      <trkpt lat="43.4632" lon="5.74717">
        <ele>331</ele>
        <time>2016-05-01T07:09:00Z</time>
      </trkpt>
      <trkpt lat="43.46312" lon="5.74719">
        <ele>331</ele>
        <time>2016-05-01T07:09:07Z</time>
      </trkpt>
      <trkpt lat="43.46305" lon="5.74722">
        <ele>333</ele>
        <time>2016-05-01T07:09:32Z</time>
      </trkpt>
      <trkpt lat="43.46304" lon="5.74723">
        <ele>333.1</ele>
        <time>2016-05-01T07:09:33Z</time>
      </trkpt>
      <trkpt lat="43.46289" lon="5.74729">
        <ele>334</ele>
        <time>2016-05-01T07:09:46Z</time>
      </trkpt>
      <trkpt lat="43.4628" lon="5.7473">
        <ele>334.1</ele>
        <time>2016-05-01T07:09:54Z</time>
      </trkpt>
      <trkpt lat="43.46272" lon="5.74734">
        <ele>334.7</ele>
        <time>2016-05-01T07:10:00Z</time>
      </trkpt>
      <trkpt lat="43.46264" lon="5.74736">
        <ele>335.3</ele>
        <time>2016-05-01T07:10:07Z</time>
      </trkpt>
      <trkpt lat="43.46256" lon="5.74738">
        <ele>335.7</ele>
        <time>2016-05-01T07:10:14Z</time>
      </trkpt>
      <trkpt lat="43.46248" lon="5.74741">
        <ele>336.9</ele>
        <time>2016-05-01T07:10:21Z</time>
      </trkpt>
      <trkpt lat="43.4624" lon="5.74745">
        <ele>336.6</ele>
        <time>2016-05-01T07:10:28Z</time>
      </trkpt>
      <trkpt lat="43.46231" lon="5.74748">
        <ele>337.2</ele>
        <time>2016-05-01T07:10:36Z</time>
      </trkpt>
      <trkpt lat="43.4623" lon="5.74749">
        <ele>337.3</ele>
        <time>2016-05-01T07:10:37Z</time>
      </trkpt>
      <trkpt lat="43.46216" lon="5.74758">
        <ele>338.2</ele>
        <time>2016-05-01T07:10:52Z</time>
      </trkpt>
      <trkpt lat="43.46207" lon="5.74762">
        <ele>338.5</ele>
        <time>2016-05-01T07:11:00Z</time>
      </trkpt>
      <trkpt lat="43.462" lon="5.74767">
        <ele>338.3</ele>
        <time>2016-05-01T07:11:07Z</time>
      </trkpt>
      <trkpt lat="43.46193" lon="5.74772">
        <ele>338.7</ele>
        <time>2016-05-01T07:11:14Z</time>
      </trkpt>
      <trkpt lat="43.46185" lon="5.74777">
        <ele>339</ele>
        <time>2016-05-01T07:11:21Z</time>
      </trkpt>
      <trkpt lat="43.46178" lon="5.74782">
        <ele>340.2</ele>
        <time>2016-05-01T07:11:30Z</time>
      </trkpt>
      <trkpt lat="43.4617" lon="5.74786">
        <ele>341.8</ele>
        <time>2016-05-01T07:11:40Z</time>
      </trkpt>
      <trkpt lat="43.46169" lon="5.74786">
        <ele>341.4</ele>
        <time>2016-05-01T07:11:41Z</time>
      </trkpt>
      <trkpt lat="43.46153" lon="5.74785">
        <ele>342.7</ele>
        <time>2016-05-01T07:11:57Z</time>
      </trkpt>
      <trkpt lat="43.46145" lon="5.74788">
        <ele>343</ele>
        <time>2016-05-01T07:12:14Z</time>
      </trkpt>
      <trkpt lat="43.46137" lon="5.74793">
        <ele>342.3</ele>
        <time>2016-05-01T07:15:09Z</time>
      </trkpt>
      <trkpt lat="43.46136" lon="5.74793">
        <ele>342.1</ele>
        <time>2016-05-01T07:15:10Z</time>
      </trkpt>
      <trkpt lat="43.46121" lon="5.74798">
        <ele>343.1</ele>
        <time>2016-05-01T07:15:35Z</time>
      </trkpt>
      <trkpt lat="43.46115" lon="5.74807">
        <ele>344.2</ele>
        <time>2016-05-01T07:15:44Z</time>
      </trkpt>
      <trkpt lat="43.46107" lon="5.74811">
        <ele>345.4</ele>
        <time>2016-05-01T07:15:52Z</time>
      </trkpt>
      <trkpt lat="43.461" lon="5.74817">
        <ele>345.7</ele>
        <time>2016-05-01T07:16:04Z</time>
      </trkpt>
      <trkpt lat="43.46093" lon="5.74821">
        <ele>348</ele>
        <time>2016-05-01T07:16:16Z</time>
      </trkpt>
      <trkpt lat="43.46092" lon="5.74822">
        <ele>348</ele>
        <time>2016-05-01T07:16:17Z</time>
      </trkpt>
      <trkpt lat="43.46082" lon="5.74838">
        <ele>348.4</ele>
        <time>2016-05-01T07:16:33Z</time>
      </trkpt>
      <trkpt lat="43.46079" lon="5.74849">
        <ele>350.8</ele>
        <time>2016-05-01T07:16:46Z</time>
      </trkpt>
      <trkpt lat="43.46075" lon="5.7486">
        <ele>351.4</ele>
        <time>2016-05-01T07:16:56Z</time>
      </trkpt>
      <trkpt lat="43.4607" lon="5.7487">
        <ele>352.8</ele>
        <time>2016-05-01T07:17:05Z</time>
      </trkpt>
      <trkpt lat="43.46062" lon="5.74873">
        <ele>353.3</ele>
        <time>2016-05-01T07:17:14Z</time>
      </trkpt>
      <trkpt lat="43.46056" lon="5.74881">
        <ele>352.8</ele>
        <time>2016-05-01T07:17:24Z</time>
      </trkpt>
      <trkpt lat="43.46055" lon="5.74882">
        <ele>353.3</ele>
        <time>2016-05-01T07:17:25Z</time>
      </trkpt>
      <trkpt lat="43.46042" lon="5.74896">
        <ele>355.4</ele>
        <time>2016-05-01T07:17:43Z</time>
      </trkpt>
      <trkpt lat="43.46038" lon="5.74905">
        <ele>356.2</ele>
        <time>2016-05-01T07:17:52Z</time>
      </trkpt>
      <trkpt lat="43.46034" lon="5.74916">
        <ele>356.5</ele>
        <time>2016-05-01T07:18:01Z</time>
      </trkpt>
      <trkpt lat="43.46027" lon="5.74923">
        <ele>357.3</ele>
        <time>2016-05-01T07:18:11Z</time>
      </trkpt>
      <trkpt lat="43.46021" lon="5.74931">
        <ele>358.2</ele>
        <time>2016-05-01T07:18:19Z</time>
      </trkpt>
      <trkpt lat="43.46016" lon="5.74941">
        <ele>359</ele>
        <time>2016-05-01T07:18:31Z</time>
      </trkpt>
      <trkpt lat="43.46016" lon="5.74942">
        <ele>359.1</ele>
        <time>2016-05-01T07:18:32Z</time>
      </trkpt>
      <trkpt lat="43.46003" lon="5.74955">
        <ele>361.6</ele>
        <time>2016-05-01T07:18:48Z</time>
      </trkpt>
      <trkpt lat="43.45997" lon="5.74963">
        <ele>362.6</ele>
        <time>2016-05-01T07:18:57Z</time>
      </trkpt>
      <trkpt lat="43.45991" lon="5.74971">
        <ele>363.2</ele>
        <time>2016-05-01T07:19:03Z</time>
      </trkpt>
      <trkpt lat="43.45983" lon="5.74977">
        <ele>364.6</ele>
        <time>2016-05-01T07:19:15Z</time>
      </trkpt>
      <trkpt lat="43.45976" lon="5.74982">
        <ele>366.3</ele>
        <time>2016-05-01T07:19:26Z</time>
      </trkpt>
      <trkpt lat="43.45968" lon="5.74988">
        <ele>367.7</ele>
        <time>2016-05-01T07:19:34Z</time>
      </trkpt>
      <trkpt lat="43.45967" lon="5.74989">
        <ele>367.8</ele>
        <time>2016-05-01T07:19:35Z</time>
      </trkpt>
      <trkpt lat="43.45953" lon="5.74996">
        <ele>369.5</ele>
        <time>2016-05-01T07:19:50Z</time>
      </trkpt>
      <trkpt lat="43.45945" lon="5.75001">
        <ele>370.5</ele>
        <time>2016-05-01T07:19:59Z</time>
      </trkpt>
      <trkpt lat="43.45937" lon="5.75006">
        <ele>370.6</ele>
        <time>2016-05-01T07:20:09Z</time>
      </trkpt>
      <trkpt lat="43.4593" lon="5.75012">
        <ele>371.3</ele>
        <time>2016-05-01T07:20:23Z</time>
      </trkpt>
      <trkpt lat="43.45922" lon="5.75017">
        <ele>373.4</ele>
        <time>2016-05-01T07:20:32Z</time>
      </trkpt>
      <trkpt lat="43.45915" lon="5.75025">
        <ele>373.6</ele>
        <time>2016-05-01T07:20:41Z</time>
      </trkpt>
      <trkpt lat="43.45915" lon="5.75025">
        <ele>373.8</ele>
        <time>2016-05-01T07:20:42Z</time>
      </trkpt>
      <trkpt lat="43.459" lon="5.75038">
        <ele>374.2</ele>
        <time>2016-05-01T07:20:58Z</time>
      </trkpt>
      <trkpt lat="43.45893" lon="5.75045">
        <ele>374.3</ele>
        <time>2016-05-01T07:22:00Z</time>
      </trkpt>
      <trkpt lat="43.45892" lon="5.75046">
        <ele>374.2</ele>
        <time>2016-05-01T07:22:01Z</time>
      </trkpt>
      <trkpt lat="43.45894" lon="5.75058">
        <ele>375.2</ele>
        <time>2016-05-01T07:24:05Z</time>
      </trkpt>
      <trkpt lat="43.45877" lon="5.75054">
        <ele>375.2</ele>
        <time>2016-05-01T07:24:51Z</time>
      </trkpt>
      <trkpt lat="43.4587" lon="5.75056">
        <ele>375.5</ele>
        <time>2016-05-01T07:24:58Z</time>
      </trkpt>
      <trkpt lat="43.45861" lon="5.75055">
        <ele>376.1</ele>
        <time>2016-05-01T07:25:05Z</time>
      </trkpt>
      <trkpt lat="43.4586" lon="5.75055">
        <ele>376.1</ele>
        <time>2016-05-01T07:25:06Z</time>
      </trkpt>
      <trkpt lat="43.45845" lon="5.7506">
        <ele>377.7</ele>
        <time>2016-05-01T07:25:22Z</time>
      </trkpt>
      <trkpt lat="43.45838" lon="5.75066">
        <ele>378.3</ele>
        <time>2016-05-01T07:25:32Z</time>
      </trkpt>
      <trkpt lat="43.45834" lon="5.75076">
        <ele>379.1</ele>
        <time>2016-05-01T07:25:39Z</time>
      </trkpt>
      <trkpt lat="43.4583" lon="5.75085">
        <ele>379.3</ele>
        <time>2016-05-01T07:25:46Z</time>
      </trkpt>
      <trkpt lat="43.45824" lon="5.75092">
        <ele>379.3</ele>
        <time>2016-05-01T07:25:52Z</time>
      </trkpt>
      <trkpt lat="43.45818" lon="5.751">
        <ele>380</ele>
        <time>2016-05-01T07:25:59Z</time>
      </trkpt>
      <trkpt lat="43.45812" lon="5.75108">
        <ele>380.3</ele>
        <time>2016-05-01T07:26:06Z</time>
      </trkpt>
      <trkpt lat="43.45811" lon="5.75109">
        <ele>380.3</ele>
        <time>2016-05-01T07:26:07Z</time>
      </trkpt>
      <trkpt lat="43.45796" lon="5.75115">
        <ele>381.4</ele>
        <time>2016-05-01T07:26:20Z</time>
      </trkpt>
      <trkpt lat="43.45788" lon="5.75121">
        <ele>381.4</ele>
        <time>2016-05-01T07:26:30Z</time>
      </trkpt>
      <trkpt lat="43.4578" lon="5.75125">
        <ele>382.6</ele>
        <time>2016-05-01T07:26:40Z</time>
      </trkpt>
      <trkpt lat="43.45774" lon="5.75134">
        <ele>383.6</ele>
        <time>2016-05-01T07:26:54Z</time>
      </trkpt>
      <trkpt lat="43.45768" lon="5.75139">
        <ele>383.6</ele>
        <time>2016-05-01T07:26:59Z</time>
      </trkpt>
      <trkpt lat="43.45761" lon="5.75145">
        <ele>384.3</ele>
        <time>2016-05-01T07:27:08Z</time>
      </trkpt>
      <trkpt lat="43.4576" lon="5.75146">
        <ele>384.2</ele>
        <time>2016-05-01T07:27:09Z</time>
      </trkpt>
      <trkpt lat="43.45747" lon="5.75156">
        <ele>384.8</ele>
        <time>2016-05-01T07:27:20Z</time>
      </trkpt>
      <trkpt lat="43.45741" lon="5.75164">
        <ele>385</ele>
        <time>2016-05-01T07:27:28Z</time>
      </trkpt>
      <trkpt lat="43.45737" lon="5.75174">
        <ele>385.6</ele>
        <time>2016-05-01T07:27:35Z</time>
      </trkpt>
      <trkpt lat="43.45732" lon="5.75184">
        <ele>386.9</ele>
        <time>2016-05-01T07:27:43Z</time>
      </trkpt>
      <trkpt lat="43.45732" lon="5.75196">
        <ele>387.3</ele>
        <time>2016-05-01T07:27:51Z</time>
      </trkpt>
      <trkpt lat="43.45732" lon="5.75207">
        <ele>388.1</ele>
        <time>2016-05-01T07:27:57Z</time>
      </trkpt>
      <trkpt lat="43.45731" lon="5.75217">
        <ele>388.3</ele>
        <time>2016-05-01T07:28:02Z</time>
      </trkpt>
      <trkpt lat="43.45731" lon="5.75229">
        <ele>388.6</ele>
        <time>2016-05-01T07:28:09Z</time>
      </trkpt>
      <trkpt lat="43.45731" lon="5.7523">
        <ele>388.8</ele>
        <time>2016-05-01T07:28:10Z</time>
      </trkpt>
      <trkpt lat="43.45726" lon="5.75251">
        <ele>391.1</ele>
        <time>2016-05-01T07:28:28Z</time>
      </trkpt>
      <trkpt lat="43.45722" lon="5.75261">
        <ele>391.8</ele>
        <time>2016-05-01T07:28:36Z</time>
      </trkpt>
      <trkpt lat="43.45718" lon="5.75272">
        <ele>391.7</ele>
        <time>2016-05-01T07:28:44Z</time>
      </trkpt>
      <trkpt lat="43.45714" lon="5.75282">
        <ele>393.1</ele>
        <time>2016-05-01T07:28:54Z</time>
      </trkpt>
      <trkpt lat="43.45709" lon="5.75292">
        <ele>394.2</ele>
        <time>2016-05-01T07:29:04Z</time>
      </trkpt>
      <trkpt lat="43.45705" lon="5.75304">
        <ele>393.9</ele>
        <time>2016-05-01T07:29:12Z</time>
      </trkpt>
      <trkpt lat="43.45705" lon="5.75304">
        <ele>394.1</ele>
        <time>2016-05-01T07:29:13Z</time>
      </trkpt>
      <trkpt lat="43.45692" lon="5.75315">
        <ele>396.1</ele>
        <time>2016-05-01T07:29:36Z</time>
      </trkpt>
      <trkpt lat="43.45687" lon="5.75306">
        <ele>396.9</ele>
        <time>2016-05-01T07:29:48Z</time>
      </trkpt>
      <trkpt lat="43.45684" lon="5.75295">
        <ele>396.8</ele>
        <time>2016-05-01T07:29:58Z</time>
      </trkpt>
      <trkpt lat="43.45684" lon="5.75283">
        <ele>396.5</ele>
        <time>2016-05-01T07:30:08Z</time>
      </trkpt>
      <trkpt lat="43.45686" lon="5.75271">
        <ele>395.4</ele>
        <time>2016-05-01T07:30:17Z</time>
      </trkpt>
      <trkpt lat="43.45686" lon="5.7527">
        <ele>395.1</ele>
        <time>2016-05-01T07:30:18Z</time>
      </trkpt>
      <trkpt lat="43.45686" lon="5.75247">
        <ele>391.2</ele>
        <time>2016-05-01T07:30:38Z</time>
      </trkpt>
      <trkpt lat="43.45689" lon="5.75236">
        <ele>390.3</ele>
        <time>2016-05-01T07:30:46Z</time>
      </trkpt>
      <trkpt lat="43.45691" lon="5.75225">
        <ele>388.9</ele>
        <time>2016-05-01T07:30:54Z</time>
      </trkpt>
      <trkpt lat="43.45693" lon="5.75213">
        <ele>387.3</ele>
        <time>2016-05-01T07:31:05Z</time>
      </trkpt>
      <trkpt lat="43.45694" lon="5.75201">
        <ele>385.3</ele>
        <time>2016-05-01T07:31:14Z</time>
      </trkpt>
      <trkpt lat="43.45696" lon="5.7519">
        <ele>384.4</ele>
        <time>2016-05-01T07:31:20Z</time>
      </trkpt>
      <trkpt lat="43.45697" lon="5.75189">
        <ele>384.3</ele>
        <time>2016-05-01T07:31:21Z</time>
      </trkpt>
      <trkpt lat="43.45699" lon="5.75168">
        <ele>384.2</ele>
        <time>2016-05-01T07:31:34Z</time>
      </trkpt>
      <trkpt lat="43.457" lon="5.75157">
        <ele>383.1</ele>
        <time>2016-05-01T07:31:41Z</time>
      </trkpt>
      <trkpt lat="43.45702" lon="5.75145">
        <ele>383</ele>
        <time>2016-05-01T07:31:48Z</time>
      </trkpt>
      <trkpt lat="43.45705" lon="5.75135">
        <ele>381.5</ele>
        <time>2016-05-01T07:31:55Z</time>
      </trkpt>
      <trkpt lat="43.45703" lon="5.75123">
        <ele>380.5</ele>
        <time>2016-05-01T07:32:03Z</time>
      </trkpt>
      <trkpt lat="43.45701" lon="5.75112">
        <ele>378.4</ele>
        <time>2016-05-01T07:32:10Z</time>
      </trkpt>
      <trkpt lat="43.45704" lon="5.75101">
        <ele>377.4</ele>
        <time>2016-05-01T07:32:16Z</time>
      </trkpt>
      <trkpt lat="43.45704" lon="5.75089">
        <ele>376.7</ele>
        <time>2016-05-01T07:32:25Z</time>
      </trkpt>
      <trkpt lat="43.45704" lon="5.75087">
        <ele>376.4</ele>
        <time>2016-05-01T07:32:26Z</time>
      </trkpt>
      <trkpt lat="43.45702" lon="5.75066">
        <ele>376</ele>
        <time>2016-05-01T07:32:40Z</time>
      </trkpt>
      <trkpt lat="43.45699" lon="5.75055">
        <ele>375.4</ele>
        <time>2016-05-01T07:32:46Z</time>
      </trkpt>
      <trkpt lat="43.45697" lon="5.75044">
        <ele>375.1</ele>
        <time>2016-05-01T07:32:53Z</time>
      </trkpt>
      <trkpt lat="43.45695" lon="5.75033">
        <ele>375.6</ele>
        <time>2016-05-01T07:33:01Z</time>
      </trkpt>
      <trkpt lat="43.4569" lon="5.75022">
        <ele>375</ele>
        <time>2016-05-01T07:33:06Z</time>
      </trkpt>
      <trkpt lat="43.45686" lon="5.75012">
        <ele>374.3</ele>
        <time>2016-05-01T07:33:15Z</time>
      </trkpt>
      <trkpt lat="43.45681" lon="5.75004">
        <ele>374.5</ele>
        <time>2016-05-01T07:33:21Z</time>
      </trkpt>
      <trkpt lat="43.45675" lon="5.74995">
        <ele>374.5</ele>
        <time>2016-05-01T07:33:27Z</time>
      </trkpt>
      <trkpt lat="43.45675" lon="5.74993">
        <ele>374.2</ele>
        <time>2016-05-01T07:33:28Z</time>
      </trkpt>
      <trkpt lat="43.45662" lon="5.74984">
        <ele>374.3</ele>
        <time>2016-05-01T07:33:38Z</time>
      </trkpt>
      <trkpt lat="43.45655" lon="5.74979">
        <ele>374.4</ele>
        <time>2016-05-01T07:33:44Z</time>
      </trkpt>
      <trkpt lat="43.45647" lon="5.74973">
        <ele>374.2</ele>
        <time>2016-05-01T07:33:51Z</time>
      </trkpt>
      <trkpt lat="43.4564" lon="5.74966">
        <ele>374.3</ele>
        <time>2016-05-01T07:33:59Z</time>
      </trkpt>
      <trkpt lat="43.45635" lon="5.74957">
        <ele>374.7</ele>
        <time>2016-05-01T07:34:07Z</time>
      </trkpt>
      <trkpt lat="43.45629" lon="5.74951">
        <ele>374.5</ele>
        <time>2016-05-01T07:34:15Z</time>
      </trkpt>
      <trkpt lat="43.45621" lon="5.74944">
        <ele>373.9</ele>
        <time>2016-05-01T07:34:23Z</time>
      </trkpt>
      <trkpt lat="43.45614" lon="5.74938">
        <ele>373.3</ele>
        <time>2016-05-01T07:34:30Z</time>
      </trkpt>
      <trkpt lat="43.45613" lon="5.74937">
        <ele>373.2</ele>
        <time>2016-05-01T07:34:31Z</time>
      </trkpt>
      <trkpt lat="43.456" lon="5.74925">
        <ele>372.9</ele>
        <time>2016-05-01T07:34:45Z</time>
      </trkpt>
      <trkpt lat="43.45595" lon="5.74917">
        <ele>372.6</ele>
        <time>2016-05-01T07:34:52Z</time>
      </trkpt>
      <trkpt lat="43.4559" lon="5.74907">
        <ele>372</ele>
        <time>2016-05-01T07:35:01Z</time>
      </trkpt>
      <trkpt lat="43.45586" lon="5.74898">
        <ele>372.3</ele>
        <time>2016-05-01T07:35:08Z</time>
      </trkpt>
      <trkpt lat="43.45582" lon="5.74889">
        <ele>371.6</ele>
        <time>2016-05-01T07:35:15Z</time>
      </trkpt>
      <trkpt lat="43.45579" lon="5.74879">
        <ele>371</ele>
        <time>2016-05-01T07:35:23Z</time>
      </trkpt>
      <trkpt lat="43.45572" lon="5.74873">
        <ele>370.4</ele>
        <time>2016-05-01T07:35:29Z</time>
      </trkpt>
      <trkpt lat="43.45566" lon="5.74864">
        <ele>370.4</ele>
        <time>2016-05-01T07:35:34Z</time>
      </trkpt>
      <trkpt lat="43.45565" lon="5.74863">
        <ele>370.4</ele>
        <time>2016-05-01T07:35:35Z</time>
      </trkpt>
      <trkpt lat="43.45556" lon="5.74847">
        <ele>370.3</ele>
        <time>2016-05-01T07:35:47Z</time>
      </trkpt>
      <trkpt lat="43.45552" lon="5.74836">
        <ele>369.9</ele>
        <time>2016-05-01T07:35:54Z</time>
      </trkpt>
      <trkpt lat="43.45546" lon="5.74828">
        <ele>369.7</ele>
        <time>2016-05-01T07:36:02Z</time>
      </trkpt>
      <trkpt lat="43.45539" lon="5.74822">
        <ele>369.4</ele>
        <time>2016-05-01T07:36:10Z</time>
      </trkpt>
      <trkpt lat="43.45534" lon="5.74813">
        <ele>369.5</ele>
        <time>2016-05-01T07:36:18Z</time>
      </trkpt>
      <trkpt lat="43.45532" lon="5.74803">
        <ele>369.2</ele>
        <time>2016-05-01T07:36:26Z</time>
      </trkpt>
      <trkpt lat="43.4553" lon="5.74792">
        <ele>368.8</ele>
        <time>2016-05-01T07:36:33Z</time>
      </trkpt>
      <trkpt lat="43.4553" lon="5.74781">
        <ele>368.6</ele>
        <time>2016-05-01T07:36:40Z</time>
      </trkpt>
      <trkpt lat="43.45531" lon="5.74779">
        <ele>368.3</ele>
        <time>2016-05-01T07:36:41Z</time>
      </trkpt>
      <trkpt lat="43.45529" lon="5.74758">
        <ele>367.9</ele>
        <time>2016-05-01T07:36:55Z</time>
      </trkpt>
      <trkpt lat="43.45533" lon="5.74748">
        <ele>366.8</ele>
        <time>2016-05-01T07:37:03Z</time>
      </trkpt>
      <trkpt lat="43.45534" lon="5.74737">
        <ele>367</ele>
        <time>2016-05-01T07:37:11Z</time>
      </trkpt>
      <trkpt lat="43.45533" lon="5.74725">
        <ele>366.6</ele>
        <time>2016-05-01T07:37:20Z</time>
      </trkpt>
      <trkpt lat="43.4553" lon="5.74714">
        <ele>366</ele>
        <time>2016-05-01T07:37:27Z</time>
      </trkpt>
      <trkpt lat="43.45526" lon="5.74703">
        <ele>365.3</ele>
        <time>2016-05-01T07:37:35Z</time>
      </trkpt>
      <trkpt lat="43.4552" lon="5.74694">
        <ele>365.3</ele>
        <time>2016-05-01T07:37:42Z</time>
      </trkpt>
      <trkpt lat="43.4552" lon="5.74693">
        <ele>365.4</ele>
        <time>2016-05-01T07:37:43Z</time>
      </trkpt>
      <trkpt lat="43.45511" lon="5.74677">
        <ele>366.2</ele>
        <time>2016-05-01T07:37:56Z</time>
      </trkpt>
      <trkpt lat="43.45505" lon="5.74669">
        <ele>366.2</ele>
        <time>2016-05-01T07:38:02Z</time>
      </trkpt>
      <trkpt lat="43.455" lon="5.74661">
        <ele>365.7</ele>
        <time>2016-05-01T07:38:08Z</time>
      </trkpt>
      <trkpt lat="43.45495" lon="5.74652">
        <ele>366.3</ele>
        <time>2016-05-01T07:38:16Z</time>
      </trkpt>
      <trkpt lat="43.45486" lon="5.74648">
        <ele>367</ele>
        <time>2016-05-01T07:38:23Z</time>
      </trkpt>
      <trkpt lat="43.4548" lon="5.7464">
        <ele>367.2</ele>
        <time>2016-05-01T07:38:29Z</time>
      </trkpt>
      <trkpt lat="43.45472" lon="5.74634">
        <ele>366.4</ele>
        <time>2016-05-01T07:38:36Z</time>
      </trkpt>
      <trkpt lat="43.45466" lon="5.74626">
        <ele>365.3</ele>
        <time>2016-05-01T07:38:45Z</time>
      </trkpt>
      <trkpt lat="43.45464" lon="5.74625">
        <ele>365.4</ele>
        <time>2016-05-01T07:38:46Z</time>
      </trkpt>
      <trkpt lat="43.45452" lon="5.74613">
        <ele>364.7</ele>
        <time>2016-05-01T07:38:57Z</time>
      </trkpt>
      <trkpt lat="43.45445" lon="5.74606">
        <ele>364.3</ele>
        <time>2016-05-01T07:39:04Z</time>
      </trkpt>
      <trkpt lat="43.45438" lon="5.74599">
        <ele>364</ele>
        <time>2016-05-01T07:39:10Z</time>
      </trkpt>
      <trkpt lat="43.45431" lon="5.74596">
        <ele>363.6</ele>
        <time>2016-05-01T07:39:16Z</time>
      </trkpt>
      <trkpt lat="43.45425" lon="5.74588">
        <ele>363.8</ele>
        <time>2016-05-01T07:39:22Z</time>
      </trkpt>
      <trkpt lat="43.4542" lon="5.7458">
        <ele>363.3</ele>
        <time>2016-05-01T07:39:29Z</time>
      </trkpt>
      <trkpt lat="43.45414" lon="5.74573">
        <ele>362.5</ele>
        <time>2016-05-01T07:39:37Z</time>
      </trkpt>
      <trkpt lat="43.45406" lon="5.74567">
        <ele>361.8</ele>
        <time>2016-05-01T07:39:46Z</time>
      </trkpt>
      <trkpt lat="43.45405" lon="5.74566">
        <ele>362</ele>
        <time>2016-05-01T07:39:47Z</time>
      </trkpt>
      <trkpt lat="43.45391" lon="5.74557">
        <ele>362</ele>
        <time>2016-05-01T07:39:58Z</time>
      </trkpt>
      <trkpt lat="43.45382" lon="5.74556">
        <ele>361.7</ele>
        <time>2016-05-01T07:40:06Z</time>
      </trkpt>
      <trkpt lat="43.45374" lon="5.74551">
        <ele>361.9</ele>
        <time>2016-05-01T07:40:15Z</time>
      </trkpt>
      <trkpt lat="43.45367" lon="5.74545">
        <ele>361.5</ele>
        <time>2016-05-01T07:40:23Z</time>
      </trkpt>
      <trkpt lat="43.45361" lon="5.74538">
        <ele>361.9</ele>
        <time>2016-05-01T07:40:30Z</time>
      </trkpt>
      <trkpt lat="43.45357" lon="5.74528">
        <ele>361.5</ele>
        <time>2016-05-01T07:40:38Z</time>
      </trkpt>
      <trkpt lat="43.45353" lon="5.74518">
        <ele>361.4</ele>
        <time>2016-05-01T07:40:46Z</time>
      </trkpt>
      <trkpt lat="43.45348" lon="5.74509">
        <ele>362</ele>
        <time>2016-05-01T07:40:53Z</time>
      </trkpt>
      <trkpt lat="43.45347" lon="5.74508">
        <ele>361.9</ele>
        <time>2016-05-01T07:40:54Z</time>
      </trkpt>
      <trkpt lat="43.45337" lon="5.74493">
        <ele>363.1</ele>
        <time>2016-05-01T07:41:08Z</time>
      </trkpt>
      <trkpt lat="43.45331" lon="5.74485">
        <ele>363.1</ele>
        <time>2016-05-01T07:41:15Z</time>
      </trkpt>
      <trkpt lat="43.45323" lon="5.74482">
        <ele>363.3</ele>
        <time>2016-05-01T07:41:20Z</time>
      </trkpt>
      <trkpt lat="43.45315" lon="5.74479">
        <ele>363.5</ele>
        <time>2016-05-01T07:41:29Z</time>
      </trkpt>
      <trkpt lat="43.45309" lon="5.7447">
        <ele>364.7</ele>
        <time>2016-05-01T07:41:38Z</time>
      </trkpt>
      <trkpt lat="43.45302" lon="5.74463">
        <ele>363.9</ele>
        <time>2016-05-01T07:41:47Z</time>
      </trkpt>
      <trkpt lat="43.45295" lon="5.74456">
        <ele>364.2</ele>
        <time>2016-05-01T07:41:54Z</time>
      </trkpt>
      <trkpt lat="43.45294" lon="5.74454">
        <ele>363.9</ele>
        <time>2016-05-01T07:41:55Z</time>
      </trkpt>
      <trkpt lat="43.45283" lon="5.74441">
        <ele>364.3</ele>
        <time>2016-05-01T07:42:09Z</time>
      </trkpt>
      <trkpt lat="43.45276" lon="5.74433">
        <ele>363</ele>
        <time>2016-05-01T07:42:16Z</time>
      </trkpt>
      <trkpt lat="43.45273" lon="5.74422">
        <ele>362.9</ele>
        <time>2016-05-01T07:42:23Z</time>
      </trkpt>
      <trkpt lat="43.4527" lon="5.74412">
        <ele>362.3</ele>
        <time>2016-05-01T07:42:30Z</time>
      </trkpt>
      <trkpt lat="43.45267" lon="5.744">
        <ele>361</ele>
        <time>2016-05-01T07:42:39Z</time>
      </trkpt>
      <trkpt lat="43.45267" lon="5.74388">
        <ele>360.8</ele>
        <time>2016-05-01T07:42:48Z</time>
      </trkpt>
      <trkpt lat="43.45264" lon="5.74378">
        <ele>360.3</ele>
        <time>2016-05-01T07:42:55Z</time>
      </trkpt>
      <trkpt lat="43.45264" lon="5.74376">
        <ele>360.1</ele>
        <time>2016-05-01T07:42:56Z</time>
      </trkpt>
      <trkpt lat="43.45258" lon="5.74356">
        <ele>359.9</ele>
        <time>2016-05-01T07:43:09Z</time>
      </trkpt>
      <trkpt lat="43.45261" lon="5.74345">
        <ele>360.5</ele>
        <time>2016-05-01T07:43:16Z</time>
      </trkpt>
      <trkpt lat="43.45261" lon="5.74333">
        <ele>360</ele>
        <time>2016-05-01T07:43:23Z</time>
      </trkpt>
      <trkpt lat="43.4526" lon="5.74323">
        <ele>360.8</ele>
        <time>2016-05-01T07:43:29Z</time>
      </trkpt>
      <trkpt lat="43.45258" lon="5.74311">
        <ele>359.9</ele>
        <time>2016-05-01T07:43:36Z</time>
      </trkpt>
      <trkpt lat="43.45255" lon="5.74302">
        <ele>360.4</ele>
        <time>2016-05-01T07:43:42Z</time>
      </trkpt>
      <trkpt lat="43.45252" lon="5.7429">
        <ele>360.3</ele>
        <time>2016-05-01T07:43:49Z</time>
      </trkpt>
      <trkpt lat="43.4525" lon="5.74279">
        <ele>359.9</ele>
        <time>2016-05-01T07:43:56Z</time>
      </trkpt>
      <trkpt lat="43.45251" lon="5.74277">
        <ele>359.7</ele>
        <time>2016-05-01T07:43:57Z</time>
      </trkpt>
      <trkpt lat="43.45254" lon="5.74258">
        <ele>359.9</ele>
        <time>2016-05-01T07:44:09Z</time>
      </trkpt>
      <trkpt lat="43.45254" lon="5.74246">
        <ele>360.1</ele>
        <time>2016-05-01T07:44:17Z</time>
      </trkpt>
      <trkpt lat="43.45252" lon="5.74235">
        <ele>359.8</ele>
        <time>2016-05-01T07:44:24Z</time>
      </trkpt>
      <trkpt lat="43.45247" lon="5.74225">
        <ele>359.7</ele>
        <time>2016-05-01T07:44:31Z</time>
      </trkpt>
      <trkpt lat="43.45242" lon="5.74216">
        <ele>359</ele>
        <time>2016-05-01T07:44:55Z</time>
      </trkpt>
      <trkpt lat="43.45242" lon="5.74204">
        <ele>359.2</ele>
        <time>2016-05-01T07:49:20Z</time>
      </trkpt>
      <trkpt lat="43.45242" lon="5.74203">
        <ele>359</ele>
        <time>2016-05-01T07:49:21Z</time>
      </trkpt>
      <trkpt lat="43.45234" lon="5.74198">
        <ele>360.1</ele>
        <time>2016-05-01T07:50:50Z</time>
      </trkpt>
      <trkpt lat="43.45218" lon="5.74195">
        <ele>360.3</ele>
        <time>2016-05-01T07:51:07Z</time>
      </trkpt>
      <trkpt lat="43.45211" lon="5.74189">
        <ele>360.9</ele>
        <time>2016-05-01T07:51:16Z</time>
      </trkpt>
      <trkpt lat="43.45204" lon="5.74182">
        <ele>361.8</ele>
        <time>2016-05-01T07:51:24Z</time>
      </trkpt>
      <trkpt lat="43.45196" lon="5.74178">
        <ele>362.1</ele>
        <time>2016-05-01T07:51:31Z</time>
      </trkpt>
      <trkpt lat="43.45188" lon="5.74175">
        <ele>362.5</ele>
        <time>2016-05-01T07:51:43Z</time>
      </trkpt>
      <trkpt lat="43.4518" lon="5.74174">
        <ele>362.5</ele>
        <time>2016-05-01T07:51:49Z</time>
      </trkpt>
      <trkpt lat="43.45171" lon="5.74172">
        <ele>362.2</ele>
        <time>2016-05-01T07:51:56Z</time>
      </trkpt>
      <trkpt lat="43.4517" lon="5.74171">
        <ele>362.1</ele>
        <time>2016-05-01T07:51:57Z</time>
      </trkpt>
      <trkpt lat="43.45155" lon="5.74162">
        <ele>362.7</ele>
        <time>2016-05-01T07:52:12Z</time>
      </trkpt>
      <trkpt lat="43.4515" lon="5.74154">
        <ele>363</ele>
        <time>2016-05-01T07:52:20Z</time>
      </trkpt>
      <trkpt lat="43.45144" lon="5.74146">
        <ele>364.5</ele>
        <time>2016-05-01T07:52:29Z</time>
      </trkpt>
      <trkpt lat="43.45137" lon="5.74138">
        <ele>365.3</ele>
        <time>2016-05-01T07:52:37Z</time>
      </trkpt>
      <trkpt lat="43.45129" lon="5.74134">
        <ele>365.8</ele>
        <time>2016-05-01T07:52:44Z</time>
      </trkpt>
      <trkpt lat="43.45122" lon="5.74129">
        <ele>365.8</ele>
        <time>2016-05-01T07:52:51Z</time>
      </trkpt>
      <trkpt lat="43.45114" lon="5.74122">
        <ele>366.7</ele>
        <time>2016-05-01T07:53:01Z</time>
      </trkpt>
      <trkpt lat="43.45113" lon="5.74122">
        <ele>366.6</ele>
        <time>2016-05-01T07:53:02Z</time>
      </trkpt>
      <trkpt lat="43.45097" lon="5.74115">
        <ele>368.7</ele>
        <time>2016-05-01T07:53:22Z</time>
      </trkpt>
      <trkpt lat="43.45089" lon="5.74116">
        <ele>369.3</ele>
        <time>2016-05-01T07:53:28Z</time>
      </trkpt>
      <trkpt lat="43.4508" lon="5.74117">
        <ele>370.2</ele>
        <time>2016-05-01T07:53:37Z</time>
      </trkpt>
      <trkpt lat="43.45073" lon="5.74117">
        <ele>371</ele>
        <time>2016-05-01T07:53:43Z</time>
      </trkpt>
      <trkpt lat="43.45065" lon="5.7412">
        <ele>371.7</ele>
        <time>2016-05-01T07:53:49Z</time>
      </trkpt>
      <trkpt lat="43.45057" lon="5.74117">
        <ele>371.9</ele>
        <time>2016-05-01T07:54:06Z</time>
      </trkpt>
      <trkpt lat="43.45056" lon="5.74117">
        <ele>371.8</ele>
        <time>2016-05-01T07:54:07Z</time>
      </trkpt>
      <trkpt lat="43.45041" lon="5.74107">
        <ele>374.2</ele>
        <time>2016-05-01T07:54:34Z</time>
      </trkpt>
      <trkpt lat="43.45034" lon="5.741">
        <ele>374.3</ele>
        <time>2016-05-01T07:54:43Z</time>
      </trkpt>
      <trkpt lat="43.45026" lon="5.741">
        <ele>375.1</ele>
        <time>2016-05-01T07:54:51Z</time>
      </trkpt>
      <trkpt lat="43.45018" lon="5.74101">
        <ele>375.2</ele>
        <time>2016-05-01T07:54:57Z</time>
      </trkpt>
      <trkpt lat="43.4501" lon="5.74105">
        <ele>376.2</ele>
        <time>2016-05-01T07:55:03Z</time>
      </trkpt>
      <trkpt lat="43.45002" lon="5.7411">
        <ele>376.5</ele>
        <time>2016-05-01T07:55:14Z</time>
      </trkpt>
      <trkpt lat="43.45001" lon="5.74111">
        <ele>376.5</ele>
        <time>2016-05-01T07:55:15Z</time>
      </trkpt>
      <trkpt lat="43.44986" lon="5.74117">
        <ele>376.7</ele>
        <time>2016-05-01T07:55:32Z</time>
      </trkpt>
      <trkpt lat="43.44978" lon="5.74123">
        <ele>378.2</ele>
        <time>2016-05-01T07:55:45Z</time>
      </trkpt>
      <trkpt lat="43.44969" lon="5.74124">
        <ele>378.4</ele>
        <time>2016-05-01T07:56:00Z</time>
      </trkpt>
      <trkpt lat="43.44962" lon="5.74129">
        <ele>380.2</ele>
        <time>2016-05-01T07:56:45Z</time>
      </trkpt>
      <trkpt lat="43.4496" lon="5.74129">
        <ele>380.4</ele>
        <time>2016-05-01T07:56:46Z</time>
      </trkpt>
      <trkpt lat="43.44945" lon="5.74134">
        <ele>382.5</ele>
        <time>2016-05-01T07:57:13Z</time>
      </trkpt>
      <trkpt lat="43.44937" lon="5.74137">
        <ele>383.4</ele>
        <time>2016-05-01T07:57:20Z</time>
      </trkpt>
      <trkpt lat="43.44929" lon="5.74142">
        <ele>384.7</ele>
        <time>2016-05-01T07:57:34Z</time>
      </trkpt>
      <trkpt lat="43.44922" lon="5.7415">
        <ele>387.2</ele>
        <time>2016-05-01T07:58:06Z</time>
      </trkpt>
      <trkpt lat="43.44921" lon="5.7415">
        <ele>387.4</ele>
        <time>2016-05-01T07:58:07Z</time>
      </trkpt>
      <trkpt lat="43.44905" lon="5.74155">
        <ele>389</ele>
        <time>2016-05-01T07:58:27Z</time>
      </trkpt>
      <trkpt lat="43.44896" lon="5.74157">
        <ele>392.8</ele>
        <time>2016-05-01T07:58:42Z</time>
      </trkpt>
      <trkpt lat="43.44888" lon="5.74162">
        <ele>393.9</ele>
        <time>2016-05-01T07:58:59Z</time>
      </trkpt>
      <trkpt lat="43.44881" lon="5.74169">
        <ele>394.9</ele>
        <time>2016-05-01T07:59:09Z</time>
      </trkpt>
      <trkpt lat="43.44881" lon="5.74169">
        <ele>395</ele>
        <time>2016-05-01T07:59:10Z</time>
      </trkpt>
      <trkpt lat="43.44866" lon="5.74178">
        <ele>398.9</ele>
        <time>2016-05-01T07:59:41Z</time>
      </trkpt>
      <trkpt lat="43.44857" lon="5.74181">
        <ele>399.2</ele>
        <time>2016-05-01T07:59:50Z</time>
      </trkpt>
      <trkpt lat="43.4485" lon="5.74187">
        <ele>399.6</ele>
        <time>2016-05-01T07:59:58Z</time>
      </trkpt>
      <trkpt lat="43.44843" lon="5.74195">
        <ele>399.8</ele>
        <time>2016-05-01T08:00:07Z</time>
      </trkpt>
      <trkpt lat="43.44839" lon="5.74205">
        <ele>400.4</ele>
        <time>2016-05-01T08:00:18Z</time>
      </trkpt>
      <trkpt lat="43.44839" lon="5.74206">
        <ele>400.8</ele>
        <time>2016-05-01T08:00:19Z</time>
      </trkpt>
      <trkpt lat="43.44834" lon="5.74228">
        <ele>402</ele>
        <time>2016-05-01T08:00:35Z</time>
      </trkpt>
      <trkpt lat="43.44831" lon="5.74239">
        <ele>403.3</ele>
        <time>2016-05-01T08:00:43Z</time>
      </trkpt>
      <trkpt lat="43.44831" lon="5.74251">
        <ele>404.7</ele>
        <time>2016-05-01T08:01:00Z</time>
      </trkpt>
      <trkpt lat="43.44825" lon="5.74258">
        <ele>404.9</ele>
        <time>2016-05-01T08:01:33Z</time>
      </trkpt>
      <trkpt lat="43.44824" lon="5.74257">
        <ele>404.7</ele>
        <time>2016-05-01T08:01:34Z</time>
      </trkpt>
      <trkpt lat="43.44809" lon="5.74268">
        <ele>405.5</ele>
        <time>2016-05-01T08:01:55Z</time>
      </trkpt>
      <trkpt lat="43.44802" lon="5.74275">
        <ele>406.3</ele>
        <time>2016-05-01T08:02:04Z</time>
      </trkpt>
      <trkpt lat="43.44794" lon="5.74281">
        <ele>406.3</ele>
        <time>2016-05-01T08:02:11Z</time>
      </trkpt>
      <trkpt lat="43.44791" lon="5.74292">
        <ele>407.2</ele>
        <time>2016-05-01T08:02:24Z</time>
      </trkpt>
      <trkpt lat="43.44788" lon="5.74302">
        <ele>408.3</ele>
        <time>2016-05-01T08:02:48Z</time>
      </trkpt>
      <trkpt lat="43.44787" lon="5.74303">
        <ele>408.3</ele>
        <time>2016-05-01T08:02:49Z</time>
      </trkpt>
      <trkpt lat="43.44776" lon="5.74319">
        <ele>409.9</ele>
        <time>2016-05-01T08:03:05Z</time>
      </trkpt>
      <trkpt lat="43.44769" lon="5.74326">
        <ele>411.3</ele>
        <time>2016-05-01T08:03:17Z</time>
      </trkpt>
      <trkpt lat="43.44766" lon="5.74337">
        <ele>411.9</ele>
        <time>2016-05-01T08:03:26Z</time>
      </trkpt>
      <trkpt lat="43.44765" lon="5.74348">
        <ele>413.2</ele>
        <time>2016-05-01T08:03:36Z</time>
      </trkpt>
      <trkpt lat="43.44761" lon="5.74359">
        <ele>415</ele>
        <time>2016-05-01T08:03:47Z</time>
      </trkpt>
      <trkpt lat="43.44756" lon="5.74368">
        <ele>416.5</ele>
        <time>2016-05-01T08:04:03Z</time>
      </trkpt>
      <trkpt lat="43.44756" lon="5.7437">
        <ele>416.6</ele>
        <time>2016-05-01T08:04:04Z</time>
      </trkpt>
      <trkpt lat="43.44751" lon="5.74391">
        <ele>419.2</ele>
        <time>2016-05-01T08:04:27Z</time>
      </trkpt>
      <trkpt lat="43.44752" lon="5.74403">
        <ele>419.7</ele>
        <time>2016-05-01T08:04:36Z</time>
      </trkpt>
      <trkpt lat="43.44751" lon="5.74414">
        <ele>420.1</ele>
        <time>2016-05-01T08:04:43Z</time>
      </trkpt>
      <trkpt lat="43.44746" lon="5.74422">
        <ele>420.7</ele>
        <time>2016-05-01T08:04:51Z</time>
      </trkpt>
      <trkpt lat="43.4474" lon="5.74429">
        <ele>420.8</ele>
        <time>2016-05-01T08:04:58Z</time>
      </trkpt>
      <trkpt lat="43.44741" lon="5.7444">
        <ele>423</ele>
        <time>2016-05-01T08:05:11Z</time>
      </trkpt>
      <trkpt lat="43.44741" lon="5.74442">
        <ele>423.2</ele>
        <time>2016-05-01T08:05:12Z</time>
      </trkpt>
      <trkpt lat="43.44736" lon="5.74459">
        <ele>425.3</ele>
        <time>2016-05-01T08:05:26Z</time>
      </trkpt>
      <trkpt lat="43.44741" lon="5.74469">
        <ele>424.4</ele>
        <time>2016-05-01T08:05:38Z</time>
      </trkpt>
      <trkpt lat="43.44748" lon="5.74475">
        <ele>424.1</ele>
        <time>2016-05-01T08:05:47Z</time>
      </trkpt>
      <trkpt lat="43.44739" lon="5.74476">
        <ele>425.4</ele>
        <time>2016-05-01T08:06:09Z</time>
      </trkpt>
      <trkpt lat="43.44732" lon="5.74483">
        <ele>425.7</ele>
        <time>2016-05-01T08:06:20Z</time>
      </trkpt>
      <trkpt lat="43.44731" lon="5.74483">
        <ele>425.7</ele>
        <time>2016-05-01T08:06:21Z</time>
      </trkpt>
      <trkpt lat="43.44718" lon="5.74491">
        <ele>425.5</ele>
        <time>2016-05-01T08:06:29Z</time>
      </trkpt>
      <trkpt lat="43.4471" lon="5.74497">
        <ele>426.4</ele>
        <time>2016-05-01T08:06:40Z</time>
      </trkpt>
      <trkpt lat="43.44702" lon="5.74501">
        <ele>427</ele>
        <time>2016-05-01T08:06:49Z</time>
      </trkpt>
      <trkpt lat="43.44696" lon="5.7451">
        <ele>428.1</ele>
        <time>2016-05-01T08:06:58Z</time>
      </trkpt>
      <trkpt lat="43.44688" lon="5.74513">
        <ele>431.7</ele>
        <time>2016-05-01T08:07:28Z</time>
      </trkpt>
      <trkpt lat="43.44687" lon="5.74513">
        <ele>431.9</ele>
        <time>2016-05-01T08:07:29Z</time>
      </trkpt>
      <trkpt lat="43.44675" lon="5.74526">
        <ele>432.7</ele>
        <time>2016-05-01T08:08:05Z</time>
      </trkpt>
      <trkpt lat="43.44668" lon="5.74533">
        <ele>433.1</ele>
        <time>2016-05-01T08:08:15Z</time>
      </trkpt>
      <trkpt lat="43.44661" lon="5.74539">
        <ele>433.8</ele>
        <time>2016-05-01T08:08:23Z</time>
      </trkpt>
      <trkpt lat="43.44653" lon="5.74546">
        <ele>435.2</ele>
        <time>2016-05-01T08:08:49Z</time>
      </trkpt>
      <trkpt lat="43.44652" lon="5.74546">
        <ele>435.4</ele>
        <time>2016-05-01T08:08:50Z</time>
      </trkpt>
      <trkpt lat="43.44636" lon="5.74549">
        <ele>434.4</ele>
        <time>2016-05-01T08:09:08Z</time>
      </trkpt>
      <trkpt lat="43.44628" lon="5.74553">
        <ele>434.5</ele>
        <time>2016-05-01T08:09:19Z</time>
      </trkpt>
      <trkpt lat="43.44621" lon="5.74549">
        <ele>434.2</ele>
        <time>2016-05-01T08:09:30Z</time>
      </trkpt>
      <trkpt lat="43.44616" lon="5.74559">
        <ele>434.7</ele>
        <time>2016-05-01T08:10:00Z</time>
      </trkpt>
      <trkpt lat="43.44615" lon="5.7456">
        <ele>434.8</ele>
        <time>2016-05-01T08:10:01Z</time>
      </trkpt>
      <trkpt lat="43.44616" lon="5.74575">
        <ele>436.1</ele>
        <time>2016-05-01T08:10:22Z</time>
      </trkpt>
      <trkpt lat="43.44607" lon="5.74578">
        <ele>435.9</ele>
        <time>2016-05-01T08:11:45Z</time>
      </trkpt>
      <trkpt lat="43.44606" lon="5.74577">
        <ele>435.9</ele>
        <time>2016-05-01T08:11:46Z</time>
      </trkpt>
      <trkpt lat="43.44606" lon="5.74566">
        <ele>436.5</ele>
        <time>2016-05-01T08:13:04Z</time>
      </trkpt>
      <trkpt lat="43.44605" lon="5.74565">
        <ele>436.6</ele>
        <time>2016-05-01T08:13:05Z</time>
      </trkpt>
      <trkpt lat="43.44594" lon="5.74581">
        <ele>437.1</ele>
        <time>2016-05-01T08:13:43Z</time>
      </trkpt>
      <trkpt lat="43.4459" lon="5.74591">
        <ele>438.1</ele>
        <time>2016-05-01T08:13:55Z</time>
      </trkpt>
      <trkpt lat="43.44586" lon="5.74601">
        <ele>439</ele>
        <time>2016-05-01T08:14:09Z</time>
      </trkpt>
      <trkpt lat="43.44585" lon="5.74602">
        <ele>439.2</ele>
        <time>2016-05-01T08:14:10Z</time>
      </trkpt>
      <trkpt lat="43.44572" lon="5.74614">
        <ele>440.6</ele>
        <time>2016-05-01T08:14:34Z</time>
      </trkpt>
      <trkpt lat="43.44565" lon="5.7462">
        <ele>441.5</ele>
        <time>2016-05-01T08:14:46Z</time>
      </trkpt>
      <trkpt lat="43.44559" lon="5.74629">
        <ele>442.8</ele>
        <time>2016-05-01T08:15:05Z</time>
      </trkpt>
      <trkpt lat="43.44554" lon="5.74637">
        <ele>444.4</ele>
        <time>2016-05-01T08:15:32Z</time>
      </trkpt>
      <trkpt lat="43.44553" lon="5.74638">
        <ele>444.8</ele>
        <time>2016-05-01T08:15:33Z</time>
      </trkpt>
      <trkpt lat="43.4454" lon="5.7465">
        <ele>446.9</ele>
        <time>2016-05-01T08:15:54Z</time>
      </trkpt>
      <trkpt lat="43.44533" lon="5.74656">
        <ele>448.9</ele>
        <time>2016-05-01T08:16:04Z</time>
      </trkpt>
      <trkpt lat="43.44525" lon="5.74662">
        <ele>451.4</ele>
        <time>2016-05-01T08:16:20Z</time>
      </trkpt>
      <trkpt lat="43.44522" lon="5.74673">
        <ele>452.8</ele>
        <time>2016-05-01T08:16:31Z</time>
      </trkpt>
      <trkpt lat="43.44518" lon="5.74683">
        <ele>455.1</ele>
        <time>2016-05-01T08:16:43Z</time>
      </trkpt>
      <trkpt lat="43.44517" lon="5.74684">
        <ele>455.2</ele>
        <time>2016-05-01T08:16:44Z</time>
      </trkpt>
      <trkpt lat="43.44504" lon="5.74698">
        <ele>457.8</ele>
        <time>2016-05-01T08:17:12Z</time>
      </trkpt>
      <trkpt lat="43.445" lon="5.74709">
        <ele>460.2</ele>
        <time>2016-05-01T08:17:30Z</time>
      </trkpt>
      <trkpt lat="43.44493" lon="5.74716">
        <ele>461.1</ele>
        <time>2016-05-01T08:17:44Z</time>
      </trkpt>
      <trkpt lat="43.44492" lon="5.74716">
        <ele>461</ele>
        <time>2016-05-01T08:17:45Z</time>
      </trkpt>
      <trkpt lat="43.44479" lon="5.7473">
        <ele>464.9</ele>
        <time>2016-05-01T08:18:09Z</time>
      </trkpt>
      <trkpt lat="43.44471" lon="5.74734">
        <ele>466.3</ele>
        <time>2016-05-01T08:18:22Z</time>
      </trkpt>
      <trkpt lat="43.44468" lon="5.74746">
        <ele>468.7</ele>
        <time>2016-05-01T08:18:34Z</time>
      </trkpt>
      <trkpt lat="43.44464" lon="5.74757">
        <ele>470.1</ele>
        <time>2016-05-01T08:19:04Z</time>
      </trkpt>
      <trkpt lat="43.44464" lon="5.74757">
        <ele>470</ele>
        <time>2016-05-01T08:19:05Z</time>
      </trkpt>
      <trkpt lat="43.44453" lon="5.74774">
        <ele>475.1</ele>
        <time>2016-05-01T08:19:44Z</time>
      </trkpt>
      <trkpt lat="43.4445" lon="5.74785">
        <ele>476.5</ele>
        <time>2016-05-01T08:19:56Z</time>
      </trkpt>
      <trkpt lat="43.44444" lon="5.74794">
        <ele>476.9</ele>
        <time>2016-05-01T08:20:05Z</time>
      </trkpt>
      <trkpt lat="43.44443" lon="5.74794">
        <ele>476.9</ele>
        <time>2016-05-01T08:20:06Z</time>
      </trkpt>
      <trkpt lat="43.44438" lon="5.74816">
        <ele>479.4</ele>
        <time>2016-05-01T08:20:29Z</time>
      </trkpt>
      <trkpt lat="43.44437" lon="5.74827">
        <ele>480.9</ele>
        <time>2016-05-01T08:20:45Z</time>
      </trkpt>
      <trkpt lat="43.44439" lon="5.74839">
        <ele>481.4</ele>
        <time>2016-05-01T08:20:55Z</time>
      </trkpt>
      <trkpt lat="43.44438" lon="5.74851">
        <ele>481.5</ele>
        <time>2016-05-01T08:21:11Z</time>
      </trkpt>
      <trkpt lat="43.44438" lon="5.74851">
        <ele>481.7</ele>
        <time>2016-05-01T08:21:12Z</time>
      </trkpt>
      <trkpt lat="43.44441" lon="5.7487">
        <ele>486.7</ele>
        <time>2016-05-01T08:21:57Z</time>
      </trkpt>
      <trkpt lat="43.44436" lon="5.7488">
        <ele>489.1</ele>
        <time>2016-05-01T08:22:19Z</time>
      </trkpt>
      <trkpt lat="43.44436" lon="5.74881">
        <ele>489.3</ele>
        <time>2016-05-01T08:22:20Z</time>
      </trkpt>
      <trkpt lat="43.44424" lon="5.74896">
        <ele>493</ele>
        <time>2016-05-01T08:23:01Z</time>
      </trkpt>
      <trkpt lat="43.4442" lon="5.74907">
        <ele>495.8</ele>
        <time>2016-05-01T08:23:17Z</time>
      </trkpt>
      <trkpt lat="43.44414" lon="5.74915">
        <ele>497</ele>
        <time>2016-05-01T08:23:30Z</time>
      </trkpt>
      <trkpt lat="43.44414" lon="5.74916">
        <ele>497</ele>
        <time>2016-05-01T08:23:31Z</time>
      </trkpt>
      <trkpt lat="43.44412" lon="5.74938">
        <ele>499.5</ele>
        <time>2016-05-01T08:23:50Z</time>
      </trkpt>
      <trkpt lat="43.44408" lon="5.74947">
        <ele>501.1</ele>
        <time>2016-05-01T08:24:10Z</time>
      </trkpt>
      <trkpt lat="43.44407" lon="5.74959">
        <ele>502.2</ele>
        <time>2016-05-01T08:24:23Z</time>
      </trkpt>
      <trkpt lat="43.44406" lon="5.74971">
        <ele>503.6</ele>
        <time>2016-05-01T08:24:35Z</time>
      </trkpt>
      <trkpt lat="43.44407" lon="5.74972">
        <ele>503.5</ele>
        <time>2016-05-01T08:24:36Z</time>
      </trkpt>
      <trkpt lat="43.44406" lon="5.74994">
        <ele>505.6</ele>
        <time>2016-05-01T08:24:57Z</time>
      </trkpt>
      <trkpt lat="43.44409" lon="5.75005">
        <ele>506.2</ele>
        <time>2016-05-01T08:25:11Z</time>
      </trkpt>
      <trkpt lat="43.44405" lon="5.75016">
        <ele>508</ele>
        <time>2016-05-01T08:25:27Z</time>
      </trkpt>
      <trkpt lat="43.44403" lon="5.75027">
        <ele>509.3</ele>
        <time>2016-05-01T08:25:41Z</time>
      </trkpt>
      <trkpt lat="43.44403" lon="5.75028">
        <ele>509.3</ele>
        <time>2016-05-01T08:25:42Z</time>
      </trkpt>
      <trkpt lat="43.444" lon="5.75049">
        <ele>512.3</ele>
        <time>2016-05-01T08:26:10Z</time>
      </trkpt>
      <trkpt lat="43.44402" lon="5.75061">
        <ele>514.2</ele>
        <time>2016-05-01T08:26:26Z</time>
      </trkpt>
      <trkpt lat="43.44403" lon="5.75073">
        <ele>515.6</ele>
        <time>2016-05-01T08:26:41Z</time>
      </trkpt>
      <trkpt lat="43.44404" lon="5.75085">
        <ele>515.9</ele>
        <time>2016-05-01T08:26:52Z</time>
      </trkpt>
      <trkpt lat="43.44404" lon="5.75086">
        <ele>516</ele>
        <time>2016-05-01T08:26:53Z</time>
      </trkpt>
      <trkpt lat="43.44409" lon="5.75107">
        <ele>516.5</ele>
        <time>2016-05-01T08:27:19Z</time>
      </trkpt>
      <trkpt lat="43.44412" lon="5.75117">
        <ele>517.3</ele>
        <time>2016-05-01T08:27:28Z</time>
      </trkpt>
      <trkpt lat="43.44412" lon="5.75129">
        <ele>518.4</ele>
        <time>2016-05-01T08:27:41Z</time>
      </trkpt>
      <trkpt lat="43.44408" lon="5.7514">
        <ele>520.4</ele>
        <time>2016-05-01T08:27:56Z</time>
      </trkpt>
      <trkpt lat="43.44408" lon="5.75141">
        <ele>520.5</ele>
        <time>2016-05-01T08:27:57Z</time>
      </trkpt>
      <trkpt lat="43.44404" lon="5.75163">
        <ele>523.8</ele>
        <time>2016-05-01T08:28:22Z</time>
      </trkpt>
      <trkpt lat="43.44397" lon="5.7517">
        <ele>526.5</ele>
        <time>2016-05-01T08:28:34Z</time>
      </trkpt>
      <trkpt lat="43.44393" lon="5.75181">
        <ele>529.4</ele>
        <time>2016-05-01T08:28:57Z</time>
      </trkpt>
      <trkpt lat="43.44392" lon="5.75182">
        <ele>529.3</ele>
        <time>2016-05-01T08:28:58Z</time>
      </trkpt>
      <trkpt lat="43.44377" lon="5.7519">
        <ele>533.4</ele>
        <time>2016-05-01T08:29:31Z</time>
      </trkpt>
      <trkpt lat="43.44368" lon="5.75193">
        <ele>534.2</ele>
        <time>2016-05-01T08:29:42Z</time>
      </trkpt>
      <trkpt lat="43.4436" lon="5.75197">
        <ele>536.7</ele>
        <time>2016-05-01T08:30:03Z</time>
      </trkpt>
      <trkpt lat="43.44359" lon="5.75196">
        <ele>536.8</ele>
        <time>2016-05-01T08:30:04Z</time>
      </trkpt>
      <trkpt lat="43.44345" lon="5.75207">
        <ele>539.4</ele>
        <time>2016-05-01T08:30:36Z</time>
      </trkpt>
      <trkpt lat="43.44337" lon="5.75211">
        <ele>540.8</ele>
        <time>2016-05-01T08:30:48Z</time>
      </trkpt>
      <trkpt lat="43.4433" lon="5.75218">
        <ele>542.1</ele>
        <time>2016-05-01T08:31:03Z</time>
      </trkpt>
      <trkpt lat="43.44325" lon="5.75228">
        <ele>543</ele>
        <time>2016-05-01T08:32:10Z</time>
      </trkpt>
      <trkpt lat="43.44324" lon="5.75228">
        <ele>542.9</ele>
        <time>2016-05-01T08:32:11Z</time>
      </trkpt>
      <trkpt lat="43.44315" lon="5.75248">
        <ele>546.7</ele>
        <time>2016-05-01T08:33:00Z</time>
      </trkpt>
      <trkpt lat="43.44308" lon="5.75255">
        <ele>546</ele>
        <time>2016-05-01T08:33:40Z</time>
      </trkpt>
      <trkpt lat="43.44308" lon="5.75257">
        <ele>546</ele>
        <time>2016-05-01T08:33:41Z</time>
      </trkpt>
      <trkpt lat="43.44302" lon="5.75275">
        <ele>552</ele>
        <time>2016-05-01T08:34:27Z</time>
      </trkpt>
      <trkpt lat="43.44297" lon="5.75286">
        <ele>554.6</ele>
        <time>2016-05-01T08:34:49Z</time>
      </trkpt>
      <trkpt lat="43.44297" lon="5.75286">
        <ele>554.7</ele>
        <time>2016-05-01T08:34:50Z</time>
      </trkpt>
      <trkpt lat="43.44288" lon="5.75303">
        <ele>558.4</ele>
        <time>2016-05-01T08:35:16Z</time>
      </trkpt>
      <trkpt lat="43.44291" lon="5.75314">
        <ele>559.2</ele>
        <time>2016-05-01T08:35:26Z</time>
      </trkpt>
      <trkpt lat="43.44292" lon="5.75326">
        <ele>560.4</ele>
        <time>2016-05-01T08:35:45Z</time>
      </trkpt>
      <trkpt lat="43.443" lon="5.75329">
        <ele>560.9</ele>
        <time>2016-05-01T08:36:02Z</time>
      </trkpt>
      <trkpt lat="43.44301" lon="5.75328">
        <ele>560.9</ele>
        <time>2016-05-01T08:36:03Z</time>
      </trkpt>
      <trkpt lat="43.44317" lon="5.75322">
        <ele>562.3</ele>
        <time>2016-05-01T08:36:25Z</time>
      </trkpt>
      <trkpt lat="43.44326" lon="5.75321">
        <ele>562.5</ele>
        <time>2016-05-01T08:36:50Z</time>
      </trkpt>
      <trkpt lat="43.44334" lon="5.75322">
        <ele>564.7</ele>
        <time>2016-05-01T08:37:07Z</time>
      </trkpt>
      <trkpt lat="43.44335" lon="5.75322">
        <ele>565.1</ele>
        <time>2016-05-01T08:37:08Z</time>
      </trkpt>
      <trkpt lat="43.44352" lon="5.75324">
        <ele>570.6</ele>
        <time>2016-05-01T08:37:45Z</time>
      </trkpt>
      <trkpt lat="43.4436" lon="5.75328">
        <ele>572.7</ele>
        <time>2016-05-01T08:38:00Z</time>
      </trkpt>
      <trkpt lat="43.44367" lon="5.75335">
        <ele>575.2</ele>
        <time>2016-05-01T08:38:19Z</time>
      </trkpt>
      <trkpt lat="43.44367" lon="5.75335">
        <ele>575.4</ele>
        <time>2016-05-01T08:38:20Z</time>
      </trkpt>
      <trkpt lat="43.4438" lon="5.7535">
        <ele>580.5</ele>
        <time>2016-05-01T08:39:02Z</time>
      </trkpt>
      <trkpt lat="43.44387" lon="5.75358">
        <ele>582.5</ele>
        <time>2016-05-01T08:39:17Z</time>
      </trkpt>
      <trkpt lat="43.44393" lon="5.75367">
        <ele>583.1</ele>
        <time>2016-05-01T08:39:31Z</time>
      </trkpt>
      <trkpt lat="43.44393" lon="5.75368">
        <ele>583</ele>
        <time>2016-05-01T08:39:32Z</time>
      </trkpt>
      <trkpt lat="43.44401" lon="5.75386">
        <ele>584.3</ele>
        <time>2016-05-01T08:40:07Z</time>
      </trkpt>
      <trkpt lat="43.44406" lon="5.75394">
        <ele>585.8</ele>
        <time>2016-05-01T08:40:21Z</time>
      </trkpt>
      <trkpt lat="43.44415" lon="5.75395">
        <ele>586.4</ele>
        <time>2016-05-01T08:40:29Z</time>
      </trkpt>
      <trkpt lat="43.44422" lon="5.75399">
        <ele>586.8</ele>
        <time>2016-05-01T08:40:38Z</time>
      </trkpt>
      <trkpt lat="43.44423" lon="5.754">
        <ele>587</ele>
        <time>2016-05-01T08:40:39Z</time>
      </trkpt>
      <trkpt lat="43.44438" lon="5.75403">
        <ele>590.2</ele>
        <time>2016-05-01T08:41:03Z</time>
      </trkpt>
      <trkpt lat="43.44446" lon="5.75404">
        <ele>593.3</ele>
        <time>2016-05-01T08:41:16Z</time>
      </trkpt>
      <trkpt lat="43.44454" lon="5.75406">
        <ele>595.4</ele>
        <time>2016-05-01T08:41:26Z</time>
      </trkpt>
      <trkpt lat="43.44463" lon="5.75407">
        <ele>596.6</ele>
        <time>2016-05-01T08:41:36Z</time>
      </trkpt>
      <trkpt lat="43.44471" lon="5.7541">
        <ele>598.3</ele>
        <time>2016-05-01T08:41:51Z</time>
      </trkpt>
      <trkpt lat="43.44472" lon="5.7541">
        <ele>598.2</ele>
        <time>2016-05-01T08:41:52Z</time>
      </trkpt>
      <trkpt lat="43.44485" lon="5.75421">
        <ele>599.4</ele>
        <time>2016-05-01T08:42:08Z</time>
      </trkpt>
      <trkpt lat="43.44492" lon="5.75429">
        <ele>600.5</ele>
        <time>2016-05-01T08:42:19Z</time>
      </trkpt>
      <trkpt lat="43.44495" lon="5.75439">
        <ele>601.1</ele>
        <time>2016-05-01T08:42:29Z</time>
      </trkpt>
      <trkpt lat="43.44499" lon="5.7545">
        <ele>599.9</ele>
        <time>2016-05-01T08:42:37Z</time>
      </trkpt>
      <trkpt lat="43.44503" lon="5.75459">
        <ele>599.7</ele>
        <time>2016-05-01T08:42:43Z</time>
      </trkpt>
      <trkpt lat="43.44506" lon="5.75471">
        <ele>600</ele>
        <time>2016-05-01T08:42:50Z</time>
      </trkpt>
      <trkpt lat="43.44509" lon="5.75482">
        <ele>600.7</ele>
        <time>2016-05-01T08:42:59Z</time>
      </trkpt>
      <trkpt lat="43.44509" lon="5.75483">
        <ele>600.7</ele>
        <time>2016-05-01T08:43:00Z</time>
      </trkpt>
      <trkpt lat="43.4452" lon="5.75498">
        <ele>602</ele>
        <time>2016-05-01T08:43:17Z</time>
      </trkpt>
      <trkpt lat="43.44525" lon="5.75507">
        <ele>603</ele>
        <time>2016-05-01T08:43:26Z</time>
      </trkpt>
      <trkpt lat="43.44532" lon="5.7551">
        <ele>603.6</ele>
        <time>2016-05-01T08:43:32Z</time>
      </trkpt>
      <trkpt lat="43.44539" lon="5.75518">
        <ele>604.1</ele>
        <time>2016-05-01T08:43:39Z</time>
      </trkpt>
      <trkpt lat="43.44546" lon="5.75525">
        <ele>605.9</ele>
        <time>2016-05-01T08:43:49Z</time>
      </trkpt>
      <trkpt lat="43.44552" lon="5.75534">
        <ele>609.3</ele>
        <time>2016-05-01T08:44:12Z</time>
      </trkpt>
      <trkpt lat="43.44552" lon="5.75534">
        <ele>609.5</ele>
        <time>2016-05-01T08:44:13Z</time>
      </trkpt>
      <trkpt lat="43.44569" lon="5.75535">
        <ele>611.6</ele>
        <time>2016-05-01T08:44:32Z</time>
      </trkpt>
      <trkpt lat="43.44578" lon="5.75531">
        <ele>612.7</ele>
        <time>2016-05-01T08:44:42Z</time>
      </trkpt>
      <trkpt lat="43.44586" lon="5.7553">
        <ele>613.3</ele>
        <time>2016-05-01T08:44:56Z</time>
      </trkpt>
      <trkpt lat="43.44592" lon="5.75539">
        <ele>615.5</ele>
        <time>2016-05-01T08:45:12Z</time>
      </trkpt>
      <trkpt lat="43.44601" lon="5.75538">
        <ele>617</ele>
        <time>2016-05-01T08:45:23Z</time>
      </trkpt>
      <trkpt lat="43.44602" lon="5.75538">
        <ele>617</ele>
        <time>2016-05-01T08:45:24Z</time>
      </trkpt>
      <trkpt lat="43.44617" lon="5.75536">
        <ele>620.1</ele>
        <time>2016-05-01T08:45:51Z</time>
      </trkpt>
      <trkpt lat="43.44626" lon="5.75534">
        <ele>622.7</ele>
        <time>2016-05-01T08:46:07Z</time>
      </trkpt>
      <trkpt lat="43.44634" lon="5.75537">
        <ele>623.5</ele>
        <time>2016-05-01T08:46:17Z</time>
      </trkpt>
      <trkpt lat="43.44642" lon="5.75538">
        <ele>624.2</ele>
        <time>2016-05-01T08:46:29Z</time>
      </trkpt>
      <trkpt lat="43.44643" lon="5.75538">
        <ele>624.5</ele>
        <time>2016-05-01T08:46:30Z</time>
      </trkpt>
      <trkpt lat="43.44658" lon="5.75532">
        <ele>626.8</ele>
        <time>2016-05-01T08:46:50Z</time>
      </trkpt>
      <trkpt lat="43.44666" lon="5.75533">
        <ele>627.8</ele>
        <time>2016-05-01T08:47:03Z</time>
      </trkpt>
      <trkpt lat="43.44675" lon="5.75533">
        <ele>628.5</ele>
        <time>2016-05-01T08:47:15Z</time>
      </trkpt>
      <trkpt lat="43.44683" lon="5.75535">
        <ele>628.3</ele>
        <time>2016-05-01T08:47:28Z</time>
      </trkpt>
      <trkpt lat="43.44691" lon="5.75532">
        <ele>629.1</ele>
        <time>2016-05-01T08:47:39Z</time>
      </trkpt>
      <trkpt lat="43.44692" lon="5.75531">
        <ele>629.1</ele>
        <time>2016-05-01T08:47:40Z</time>
      </trkpt>
      <trkpt lat="43.44708" lon="5.75532">
        <ele>632.2</ele>
        <time>2016-05-01T08:48:06Z</time>
      </trkpt>
      <trkpt lat="43.44716" lon="5.75532">
        <ele>632.8</ele>
        <time>2016-05-01T08:48:16Z</time>
      </trkpt>
      <trkpt lat="43.4472" lon="5.75542">
        <ele>634.2</ele>
        <time>2016-05-01T08:48:31Z</time>
      </trkpt>
      <trkpt lat="43.44729" lon="5.75547">
        <ele>637.1</ele>
        <time>2016-05-01T08:48:49Z</time>
      </trkpt>
      <trkpt lat="43.44729" lon="5.75548">
        <ele>636.9</ele>
        <time>2016-05-01T08:48:50Z</time>
      </trkpt>
      <trkpt lat="43.44723" lon="5.75566">
        <ele>640.8</ele>
        <time>2016-05-01T08:49:24Z</time>
      </trkpt>
      <trkpt lat="43.44721" lon="5.75578">
        <ele>643.6</ele>
        <time>2016-05-01T08:49:45Z</time>
      </trkpt>
      <trkpt lat="43.44727" lon="5.75587">
        <ele>644.1</ele>
        <time>2016-05-01T08:50:34Z</time>
      </trkpt>
      <trkpt lat="43.44727" lon="5.75587">
        <ele>644</ele>
        <time>2016-05-01T08:50:35Z</time>
      </trkpt>
      <trkpt lat="43.44735" lon="5.75592">
        <ele>644</ele>
        <time>2016-05-01T09:01:50Z</time>
      </trkpt>
      <trkpt lat="43.44752" lon="5.7559">
        <ele>644.4</ele>
        <time>2016-05-01T09:02:21Z</time>
      </trkpt>
      <trkpt lat="43.44761" lon="5.7559">
        <ele>644.3</ele>
        <time>2016-05-01T09:02:32Z</time>
      </trkpt>
      <trkpt lat="43.44769" lon="5.75588">
        <ele>644.5</ele>
        <time>2016-05-01T09:02:42Z</time>
      </trkpt>
      <trkpt lat="43.44778" lon="5.75588">
        <ele>644.9</ele>
        <time>2016-05-01T09:02:52Z</time>
      </trkpt>
      <trkpt lat="43.44778" lon="5.75588">
        <ele>645</ele>
        <time>2016-05-01T09:02:53Z</time>
      </trkpt>
      <trkpt lat="43.44793" lon="5.75587">
        <ele>645.8</ele>
        <time>2016-05-01T09:03:06Z</time>
      </trkpt>
      <trkpt lat="43.44802" lon="5.75586">
        <ele>646.4</ele>
        <time>2016-05-01T09:03:13Z</time>
      </trkpt>
      <trkpt lat="43.4481" lon="5.75582">
        <ele>646</ele>
        <time>2016-05-01T09:03:23Z</time>
      </trkpt>
      <trkpt lat="43.44818" lon="5.75578">
        <ele>645.5</ele>
        <time>2016-05-01T09:03:32Z</time>
      </trkpt>
      <trkpt lat="43.44826" lon="5.75573">
        <ele>644.6</ele>
        <time>2016-05-01T09:03:43Z</time>
      </trkpt>
      <trkpt lat="43.44835" lon="5.7557">
        <ele>643.7</ele>
        <time>2016-05-01T09:03:56Z</time>
      </trkpt>
      <trkpt lat="43.44835" lon="5.7557">
        <ele>643.5</ele>
        <time>2016-05-01T09:03:57Z</time>
      </trkpt>
      <trkpt lat="43.4485" lon="5.7558">
        <ele>639.9</ele>
        <time>2016-05-01T09:04:39Z</time>
      </trkpt>
      <trkpt lat="43.44859" lon="5.75581">
        <ele>638.7</ele>
        <time>2016-05-01T09:04:50Z</time>
      </trkpt>
      <trkpt lat="43.44867" lon="5.75583">
        <ele>637.1</ele>
        <time>2016-05-01T09:05:00Z</time>
      </trkpt>
      <trkpt lat="43.44868" lon="5.75583">
        <ele>637.3</ele>
        <time>2016-05-01T09:05:01Z</time>
      </trkpt>
      <trkpt lat="43.44883" lon="5.75592">
        <ele>635</ele>
        <time>2016-05-01T09:05:21Z</time>
      </trkpt>
      <trkpt lat="43.4489" lon="5.75598">
        <ele>634.5</ele>
        <time>2016-05-01T09:05:31Z</time>
      </trkpt>
      <trkpt lat="43.44898" lon="5.75603">
        <ele>633.7</ele>
        <time>2016-05-01T09:05:39Z</time>
      </trkpt>
      <trkpt lat="43.44905" lon="5.75609">
        <ele>633.7</ele>
        <time>2016-05-01T09:05:48Z</time>
      </trkpt>
      <trkpt lat="43.44912" lon="5.75616">
        <ele>633.5</ele>
        <time>2016-05-01T09:05:56Z</time>
      </trkpt>
      <trkpt lat="43.44918" lon="5.75624">
        <ele>633.9</ele>
        <time>2016-05-01T09:06:05Z</time>
      </trkpt>
      <trkpt lat="43.44919" lon="5.75626">
        <ele>633.6</ele>
        <time>2016-05-01T09:06:06Z</time>
      </trkpt>
      <trkpt lat="43.4493" lon="5.75643">
        <ele>631.3</ele>
        <time>2016-05-01T09:06:39Z</time>
      </trkpt>
      <trkpt lat="43.44936" lon="5.75651">
        <ele>630.5</ele>
        <time>2016-05-01T09:07:31Z</time>
      </trkpt>
      <trkpt lat="43.44936" lon="5.75652">
        <ele>630.5</ele>
        <time>2016-05-01T09:07:32Z</time>
      </trkpt>
      <trkpt lat="43.44948" lon="5.75668">
        <ele>628.9</ele>
        <time>2016-05-01T09:07:50Z</time>
      </trkpt>
      <trkpt lat="43.44954" lon="5.75676">
        <ele>628</ele>
        <time>2016-05-01T09:08:01Z</time>
      </trkpt>
      <trkpt lat="43.4496" lon="5.75685">
        <ele>629</ele>
        <time>2016-05-01T09:08:21Z</time>
      </trkpt>
      <trkpt lat="43.44963" lon="5.75695">
        <ele>629.2</ele>
        <time>2016-05-01T09:08:29Z</time>
      </trkpt>
      <trkpt lat="43.44965" lon="5.75707">
        <ele>628.7</ele>
        <time>2016-05-01T09:08:54Z</time>
      </trkpt>
      <trkpt lat="43.44966" lon="5.75708">
        <ele>628.5</ele>
        <time>2016-05-01T09:08:55Z</time>
      </trkpt>
      <trkpt lat="43.4497" lon="5.75729">
        <ele>627.1</ele>
        <time>2016-05-01T09:09:12Z</time>
      </trkpt>
      <trkpt lat="43.44974" lon="5.75739">
        <ele>626.7</ele>
        <time>2016-05-01T09:09:19Z</time>
      </trkpt>
      <trkpt lat="43.4498" lon="5.75748">
        <ele>625.7</ele>
        <time>2016-05-01T09:09:27Z</time>
      </trkpt>
      <trkpt lat="43.44984" lon="5.75758">
        <ele>625.9</ele>
        <time>2016-05-01T09:09:42Z</time>
      </trkpt>
      <trkpt lat="43.44992" lon="5.75762">
        <ele>624.6</ele>
        <time>2016-05-01T09:10:16Z</time>
      </trkpt>
      <trkpt lat="43.44993" lon="5.75763">
        <ele>624.4</ele>
        <time>2016-05-01T09:10:17Z</time>
      </trkpt>
      <trkpt lat="43.45004" lon="5.75778">
        <ele>625.9</ele>
        <time>2016-05-01T09:10:33Z</time>
      </trkpt>
      <trkpt lat="43.4501" lon="5.75786">
        <ele>626.2</ele>
        <time>2016-05-01T09:10:43Z</time>
      </trkpt>
      <trkpt lat="43.45016" lon="5.75795">
        <ele>627.9</ele>
        <time>2016-05-01T09:11:05Z</time>
      </trkpt>
      <trkpt lat="43.45022" lon="5.75802">
        <ele>626.9</ele>
        <time>2016-05-01T09:11:12Z</time>
      </trkpt>
      <trkpt lat="43.45027" lon="5.75811">
        <ele>627.2</ele>
        <time>2016-05-01T09:11:20Z</time>
      </trkpt>
      <trkpt lat="43.45028" lon="5.75813">
        <ele>627</ele>
        <time>2016-05-01T09:11:21Z</time>
      </trkpt>
      <trkpt lat="43.45033" lon="5.75833">
        <ele>626</ele>
        <time>2016-05-01T09:11:37Z</time>
      </trkpt>
      <trkpt lat="43.45033" lon="5.75845">
        <ele>625.7</ele>
        <time>2016-05-01T09:11:45Z</time>
      </trkpt>
      <trkpt lat="43.45031" lon="5.75856">
        <ele>625.4</ele>
        <time>2016-05-01T09:11:57Z</time>
      </trkpt>
      <trkpt lat="43.45031" lon="5.75868">
        <ele>624.1</ele>
        <time>2016-05-01T09:12:05Z</time>
      </trkpt>
      <trkpt lat="43.45033" lon="5.75879">
        <ele>623</ele>
        <time>2016-05-01T09:12:13Z</time>
      </trkpt>
      <trkpt lat="43.45034" lon="5.75891">
        <ele>622.5</ele>
        <time>2016-05-01T09:12:21Z</time>
      </trkpt>
      <trkpt lat="43.45035" lon="5.75892">
        <ele>622.5</ele>
        <time>2016-05-01T09:12:22Z</time>
      </trkpt>
      <trkpt lat="43.45041" lon="5.75909">
        <ele>622.9</ele>
        <time>2016-05-01T09:12:55Z</time>
      </trkpt>
      <trkpt lat="43.45048" lon="5.75914">
        <ele>621.4</ele>
        <time>2016-05-01T09:13:02Z</time>
      </trkpt>
      <trkpt lat="43.45056" lon="5.75919">
        <ele>621.5</ele>
        <time>2016-05-01T09:13:10Z</time>
      </trkpt>
      <trkpt lat="43.45064" lon="5.75922">
        <ele>620.8</ele>
        <time>2016-05-01T09:13:17Z</time>
      </trkpt>
      <trkpt lat="43.45072" lon="5.75923">
        <ele>621</ele>
        <time>2016-05-01T09:13:23Z</time>
      </trkpt>
      <trkpt lat="43.45073" lon="5.75923">
        <ele>620.9</ele>
        <time>2016-05-01T09:13:24Z</time>
      </trkpt>
      <trkpt lat="43.45088" lon="5.75925">
        <ele>622.1</ele>
        <time>2016-05-01T09:14:27Z</time>
      </trkpt>
      <trkpt lat="43.45089" lon="5.75925">
        <ele>621.9</ele>
        <time>2016-05-01T09:14:28Z</time>
      </trkpt>
      <trkpt lat="43.45103" lon="5.75933">
        <ele>622.8</ele>
        <time>2016-05-01T09:14:44Z</time>
      </trkpt>
      <trkpt lat="43.4511" lon="5.7594">
        <ele>624</ele>
        <time>2016-05-01T09:14:52Z</time>
      </trkpt>
      <trkpt lat="43.45115" lon="5.7595">
        <ele>625.1</ele>
        <time>2016-05-01T09:15:01Z</time>
      </trkpt>
      <trkpt lat="43.4512" lon="5.75958">
        <ele>625.4</ele>
        <time>2016-05-01T09:15:08Z</time>
      </trkpt>
      <trkpt lat="43.45126" lon="5.75966">
        <ele>624.1</ele>
        <time>2016-05-01T09:15:16Z</time>
      </trkpt>
      <trkpt lat="43.45133" lon="5.75971">
        <ele>624.8</ele>
        <time>2016-05-01T09:15:22Z</time>
      </trkpt>
      <trkpt lat="43.45142" lon="5.75973">
        <ele>626.1</ele>
        <time>2016-05-01T09:15:29Z</time>
      </trkpt>
      <trkpt lat="43.45143" lon="5.75973">
        <ele>626.4</ele>
        <time>2016-05-01T09:15:30Z</time>
      </trkpt>
      <trkpt lat="43.45158" lon="5.75975">
        <ele>626.4</ele>
        <time>2016-05-01T09:15:45Z</time>
      </trkpt>
      <trkpt lat="43.45165" lon="5.75969">
        <ele>626.3</ele>
        <time>2016-05-01T09:15:54Z</time>
      </trkpt>
      <trkpt lat="43.45173" lon="5.75965">
        <ele>628.1</ele>
        <time>2016-05-01T09:16:06Z</time>
      </trkpt>
      <trkpt lat="43.45179" lon="5.75956">
        <ele>631.4</ele>
        <time>2016-05-01T09:16:24Z</time>
      </trkpt>
      <trkpt lat="43.45187" lon="5.7595">
        <ele>633.3</ele>
        <time>2016-05-01T09:16:54Z</time>
      </trkpt>
      <trkpt lat="43.45188" lon="5.7595">
        <ele>633.5</ele>
        <time>2016-05-01T09:16:55Z</time>
      </trkpt>
      <trkpt lat="43.45187" lon="5.75951">
        <ele>632.4</ele>
        <time>2016-05-01T09:21:42Z</time>
      </trkpt>
      <trkpt lat="43.45186" lon="5.75951">
        <ele>632.2</ele>
        <time>2016-05-01T09:21:43Z</time>
      </trkpt>
      <trkpt lat="43.45171" lon="5.75961">
        <ele>629.1</ele>
        <time>2016-05-01T09:22:12Z</time>
      </trkpt>
      <trkpt lat="43.45165" lon="5.75968">
        <ele>626.4</ele>
        <time>2016-05-01T09:22:20Z</time>
      </trkpt>
      <trkpt lat="43.45162" lon="5.75979">
        <ele>626.9</ele>
        <time>2016-05-01T09:22:26Z</time>
      </trkpt>
      <trkpt lat="43.45164" lon="5.7599">
        <ele>626</ele>
        <time>2016-05-01T09:22:33Z</time>
      </trkpt>
      <trkpt lat="43.45166" lon="5.76001">
        <ele>625.1</ele>
        <time>2016-05-01T09:22:42Z</time>
      </trkpt>
      <trkpt lat="43.45167" lon="5.76012">
        <ele>623.9</ele>
        <time>2016-05-01T09:23:32Z</time>
      </trkpt>
      <trkpt lat="43.45167" lon="5.76014">
        <ele>623.8</ele>
        <time>2016-05-01T09:23:33Z</time>
      </trkpt>
      <trkpt lat="43.45166" lon="5.76034">
        <ele>623.9</ele>
        <time>2016-05-01T09:23:46Z</time>
      </trkpt>
      <trkpt lat="43.45169" lon="5.76046">
        <ele>620.3</ele>
        <time>2016-05-01T09:24:11Z</time>
      </trkpt>
      <trkpt lat="43.45168" lon="5.76057">
        <ele>618.3</ele>
        <time>2016-05-01T09:24:21Z</time>
      </trkpt>
      <trkpt lat="43.45168" lon="5.76069">
        <ele>616.3</ele>
        <time>2016-05-01T09:24:33Z</time>
      </trkpt>
      <trkpt lat="43.45168" lon="5.7607">
        <ele>616.4</ele>
        <time>2016-05-01T09:24:34Z</time>
      </trkpt>
      <trkpt lat="43.45173" lon="5.76091">
        <ele>615.9</ele>
        <time>2016-05-01T09:25:04Z</time>
      </trkpt>
      <trkpt lat="43.45179" lon="5.76099">
        <ele>614.8</ele>
        <time>2016-05-01T09:25:12Z</time>
      </trkpt>
      <trkpt lat="43.45185" lon="5.76108">
        <ele>615.4</ele>
        <time>2016-05-01T09:25:19Z</time>
      </trkpt>
      <trkpt lat="43.45191" lon="5.76117">
        <ele>615.3</ele>
        <time>2016-05-01T09:25:27Z</time>
      </trkpt>
      <trkpt lat="43.45194" lon="5.76127">
        <ele>615.5</ele>
        <time>2016-05-01T09:25:36Z</time>
      </trkpt>
      <trkpt lat="43.45195" lon="5.76129">
        <ele>615.1</ele>
        <time>2016-05-01T09:25:37Z</time>
      </trkpt>
      <trkpt lat="43.45204" lon="5.76147">
        <ele>617</ele>
        <time>2016-05-01T09:25:52Z</time>
      </trkpt>
      <trkpt lat="43.45208" lon="5.76158">
        <ele>618.2</ele>
        <time>2016-05-01T09:26:01Z</time>
      </trkpt>
      <trkpt lat="43.45212" lon="5.76169">
        <ele>618.7</ele>
        <time>2016-05-01T09:26:09Z</time>
      </trkpt>
      <trkpt lat="43.45218" lon="5.76178">
        <ele>618</ele>
        <time>2016-05-01T09:26:17Z</time>
      </trkpt>
      <trkpt lat="43.45224" lon="5.76186">
        <ele>619.1</ele>
        <time>2016-05-01T09:26:27Z</time>
      </trkpt>
      <trkpt lat="43.45231" lon="5.76193">
        <ele>620.1</ele>
        <time>2016-05-01T09:26:36Z</time>
      </trkpt>
      <trkpt lat="43.45238" lon="5.76201">
        <ele>621.2</ele>
        <time>2016-05-01T09:26:44Z</time>
      </trkpt>
      <trkpt lat="43.45239" lon="5.76202">
        <ele>621.5</ele>
        <time>2016-05-01T09:26:45Z</time>
      </trkpt>
      <trkpt lat="43.45251" lon="5.76214">
        <ele>623</ele>
        <time>2016-05-01T09:27:00Z</time>
      </trkpt>
      <trkpt lat="43.4526" lon="5.76216">
        <ele>623.7</ele>
        <time>2016-05-01T09:27:08Z</time>
      </trkpt>
      <trkpt lat="43.45268" lon="5.7622">
        <ele>622.2</ele>
        <time>2016-05-01T09:27:17Z</time>
      </trkpt>
      <trkpt lat="43.45274" lon="5.76229">
        <ele>621</ele>
        <time>2016-05-01T09:27:27Z</time>
      </trkpt>
      <trkpt lat="43.45277" lon="5.7624">
        <ele>618.8</ele>
        <time>2016-05-01T09:27:37Z</time>
      </trkpt>
      <trkpt lat="43.45278" lon="5.76251">
        <ele>617.9</ele>
        <time>2016-05-01T09:27:45Z</time>
      </trkpt>
      <trkpt lat="43.45279" lon="5.76253">
        <ele>617.5</ele>
        <time>2016-05-01T09:27:46Z</time>
      </trkpt>
      <trkpt lat="43.45286" lon="5.76271">
        <ele>616.7</ele>
        <time>2016-05-01T09:28:02Z</time>
      </trkpt>
      <trkpt lat="43.4529" lon="5.76281">
        <ele>615.5</ele>
        <time>2016-05-01T09:28:11Z</time>
      </trkpt>
      <trkpt lat="43.45296" lon="5.76291">
        <ele>615.3</ele>
        <time>2016-05-01T09:28:32Z</time>
      </trkpt>
      <trkpt lat="43.45299" lon="5.76302">
        <ele>612.8</ele>
        <time>2016-05-01T09:28:44Z</time>
      </trkpt>
      <trkpt lat="43.45305" lon="5.76311">
        <ele>612.8</ele>
        <time>2016-05-01T09:28:53Z</time>
      </trkpt>
      <trkpt lat="43.45306" lon="5.76313">
        <ele>612.6</ele>
        <time>2016-05-01T09:28:54Z</time>
      </trkpt>
      <trkpt lat="43.45315" lon="5.7633">
        <ele>611.6</ele>
        <time>2016-05-01T09:29:09Z</time>
      </trkpt>
      <trkpt lat="43.4532" lon="5.76339">
        <ele>611.9</ele>
        <time>2016-05-01T09:29:17Z</time>
      </trkpt>
      <trkpt lat="43.45324" lon="5.76349">
        <ele>612</ele>
        <time>2016-05-01T09:29:24Z</time>
      </trkpt>
      <trkpt lat="43.45327" lon="5.76358">
        <ele>611.5</ele>
        <time>2016-05-01T09:29:32Z</time>
      </trkpt>
      <trkpt lat="43.45332" lon="5.76369">
        <ele>610.7</ele>
        <time>2016-05-01T09:29:40Z</time>
      </trkpt>
      <trkpt lat="43.45339" lon="5.76376">
        <ele>609.1</ele>
        <time>2016-05-01T09:29:47Z</time>
      </trkpt>
      <trkpt lat="43.45343" lon="5.76385">
        <ele>608.7</ele>
        <time>2016-05-01T09:29:54Z</time>
      </trkpt>
      <trkpt lat="43.45343" lon="5.76387">
        <ele>608.5</ele>
        <time>2016-05-01T09:29:55Z</time>
      </trkpt>
      <trkpt lat="43.45353" lon="5.76404">
        <ele>606.4</ele>
        <time>2016-05-01T09:30:09Z</time>
      </trkpt>
      <trkpt lat="43.45357" lon="5.76414">
        <ele>605.8</ele>
        <time>2016-05-01T09:30:15Z</time>
      </trkpt>
      <trkpt lat="43.45363" lon="5.76422">
        <ele>604.9</ele>
        <time>2016-05-01T09:30:24Z</time>
      </trkpt>
      <trkpt lat="43.45371" lon="5.76429">
        <ele>604.8</ele>
        <time>2016-05-01T09:30:33Z</time>
      </trkpt>
      <trkpt lat="43.45378" lon="5.76434">
        <ele>603.7</ele>
        <time>2016-05-01T09:30:42Z</time>
      </trkpt>
      <trkpt lat="43.45387" lon="5.76432">
        <ele>603.5</ele>
        <time>2016-05-01T09:30:58Z</time>
      </trkpt>
      <trkpt lat="43.45387" lon="5.76432">
        <ele>603.3</ele>
        <time>2016-05-01T09:30:59Z</time>
      </trkpt>
      <trkpt lat="43.45395" lon="5.76425">
        <ele>606.3</ele>
        <time>2016-05-01T09:32:02Z</time>
      </trkpt>
      <trkpt lat="43.45403" lon="5.76421">
        <ele>613.8</ele>
        <time>2016-05-01T09:33:07Z</time>
      </trkpt>
      <trkpt lat="43.45415" lon="5.76407">
        <ele>616.4</ele>
        <time>2016-05-01T09:33:37Z</time>
      </trkpt>
      <trkpt lat="43.45417" lon="5.76395">
        <ele>617.7</ele>
        <time>2016-05-01T09:33:50Z</time>
      </trkpt>
      <trkpt lat="43.45415" lon="5.76383">
        <ele>618.3</ele>
        <time>2016-05-01T09:34:02Z</time>
      </trkpt>
      <trkpt lat="43.45424" lon="5.76385">
        <ele>617.7</ele>
        <time>2016-05-01T09:34:52Z</time>
      </trkpt>
      <trkpt lat="43.45424" lon="5.76385">
        <ele>617.7</ele>
        <time>2016-05-01T09:34:53Z</time>
      </trkpt>
      <trkpt lat="43.45436" lon="5.76369">
        <ele>621.4</ele>
        <time>2016-05-01T09:35:47Z</time>
      </trkpt>
      <trkpt lat="43.45445" lon="5.76371">
        <ele>622</ele>
        <time>2016-05-01T09:36:10Z</time>
      </trkpt>
      <trkpt lat="43.45446" lon="5.76372">
        <ele>622</ele>
        <time>2016-05-01T09:36:11Z</time>
      </trkpt>
      <trkpt lat="43.45453" lon="5.76378">
        <ele>619.1</ele>
        <time>2016-05-01T09:37:38Z</time>
      </trkpt>
      <trkpt lat="43.45445" lon="5.76369">
        <ele>614.2</ele>
        <time>2016-05-01T10:29:15Z</time>
      </trkpt>
      <trkpt lat="43.45432" lon="5.76373">
        <ele>612.2</ele>
        <time>2016-05-01T10:30:42Z</time>
      </trkpt>
      <trkpt lat="43.45432" lon="5.76373">
        <ele>612.2</ele>
        <time>2016-05-01T10:30:43Z</time>
      </trkpt>
      <trkpt lat="43.4542" lon="5.76388">
        <ele>610.1</ele>
        <time>2016-05-01T10:31:20Z</time>
      </trkpt>
      <trkpt lat="43.45418" lon="5.76399">
        <ele>607.9</ele>
        <time>2016-05-01T10:31:33Z</time>
      </trkpt>
      <trkpt lat="43.45412" lon="5.76408">
        <ele>607.3</ele>
        <time>2016-05-01T10:32:03Z</time>
      </trkpt>
      <trkpt lat="43.45411" lon="5.76408">
        <ele>607.1</ele>
        <time>2016-05-01T10:32:04Z</time>
      </trkpt>
      <trkpt lat="43.45396" lon="5.76414">
        <ele>598.5</ele>
        <time>2016-05-01T10:34:28Z</time>
      </trkpt>
      <trkpt lat="43.45394" lon="5.76416">
        <ele>598.6</ele>
        <time>2016-05-01T10:34:29Z</time>
      </trkpt>
      <trkpt lat="43.45387" lon="5.76433">
        <ele>594.4</ele>
        <time>2016-05-01T10:35:21Z</time>
      </trkpt>
      <trkpt lat="43.45386" lon="5.76444">
        <ele>592.8</ele>
        <time>2016-05-01T10:36:12Z</time>
      </trkpt>
      <trkpt lat="43.45385" lon="5.76445">
        <ele>592.5</ele>
        <time>2016-05-01T10:36:13Z</time>
      </trkpt>
      <trkpt lat="43.45377" lon="5.76461">
        <ele>591.2</ele>
        <time>2016-05-01T10:36:25Z</time>
      </trkpt>
      <trkpt lat="43.45375" lon="5.76472">
        <ele>590.3</ele>
        <time>2016-05-01T10:36:32Z</time>
      </trkpt>
      <trkpt lat="43.45378" lon="5.76482">
        <ele>589.3</ele>
        <time>2016-05-01T10:36:37Z</time>
      </trkpt>
      <trkpt lat="43.45379" lon="5.76494">
        <ele>589</ele>
        <time>2016-05-01T10:36:43Z</time>
      </trkpt>
      <trkpt lat="43.45381" lon="5.76504">
        <ele>588.3</ele>
        <time>2016-05-01T10:37:05Z</time>
      </trkpt>
      <trkpt lat="43.45383" lon="5.76516">
        <ele>586.7</ele>
        <time>2016-05-01T10:37:16Z</time>
      </trkpt>
      <trkpt lat="43.45384" lon="5.76518">
        <ele>586.6</ele>
        <time>2016-05-01T10:37:17Z</time>
      </trkpt>
      <trkpt lat="43.45387" lon="5.76538">
        <ele>587.1</ele>
        <time>2016-05-01T10:37:29Z</time>
      </trkpt>
      <trkpt lat="43.45389" lon="5.76547">
        <ele>587.9</ele>
        <time>2016-05-01T10:37:35Z</time>
      </trkpt>
      <trkpt lat="43.45392" lon="5.76556">
        <ele>589.1</ele>
        <time>2016-05-01T10:37:42Z</time>
      </trkpt>
      <trkpt lat="43.45392" lon="5.76568">
        <ele>588.6</ele>
        <time>2016-05-01T10:37:50Z</time>
      </trkpt>
      <trkpt lat="43.45392" lon="5.76578">
        <ele>588.9</ele>
        <time>2016-05-01T10:37:55Z</time>
      </trkpt>
      <trkpt lat="43.45395" lon="5.76589">
        <ele>589.1</ele>
        <time>2016-05-01T10:38:02Z</time>
      </trkpt>
      <trkpt lat="43.45398" lon="5.76599">
        <ele>588.7</ele>
        <time>2016-05-01T10:38:09Z</time>
      </trkpt>
      <trkpt lat="43.45395" lon="5.7661">
        <ele>588.6</ele>
        <time>2016-05-01T10:38:19Z</time>
      </trkpt>
      <trkpt lat="43.45394" lon="5.76612">
        <ele>588.6</ele>
        <time>2016-05-01T10:38:20Z</time>
      </trkpt>
      <trkpt lat="43.45393" lon="5.76633">
        <ele>588.2</ele>
        <time>2016-05-01T10:38:34Z</time>
      </trkpt>
      <trkpt lat="43.45389" lon="5.76644">
        <ele>587.6</ele>
        <time>2016-05-01T10:38:43Z</time>
      </trkpt>
      <trkpt lat="43.45386" lon="5.76654">
        <ele>587.7</ele>
        <time>2016-05-01T10:38:52Z</time>
      </trkpt>
      <trkpt lat="43.45384" lon="5.76665">
        <ele>588.4</ele>
        <time>2016-05-01T10:38:59Z</time>
      </trkpt>
      <trkpt lat="43.45383" lon="5.76677">
        <ele>585.7</ele>
        <time>2016-05-01T10:39:09Z</time>
      </trkpt>
      <trkpt lat="43.45382" lon="5.76689">
        <ele>585</ele>
        <time>2016-05-01T10:39:19Z</time>
      </trkpt>
      <trkpt lat="43.45384" lon="5.767">
        <ele>585.7</ele>
        <time>2016-05-01T10:39:26Z</time>
      </trkpt>
      <trkpt lat="43.45384" lon="5.76701">
        <ele>585.6</ele>
        <time>2016-05-01T10:39:27Z</time>
      </trkpt>
      <trkpt lat="43.45386" lon="5.76723">
        <ele>584.5</ele>
        <time>2016-05-01T10:39:44Z</time>
      </trkpt>
      <trkpt lat="43.4539" lon="5.76734">
        <ele>584.4</ele>
        <time>2016-05-01T10:39:53Z</time>
      </trkpt>
      <trkpt lat="43.45396" lon="5.76742">
        <ele>584.5</ele>
        <time>2016-05-01T10:40:00Z</time>
      </trkpt>
      <trkpt lat="43.45402" lon="5.76751">
        <ele>585.1</ele>
        <time>2016-05-01T10:40:11Z</time>
      </trkpt>
      <trkpt lat="43.45406" lon="5.76761">
        <ele>585.9</ele>
        <time>2016-05-01T10:40:33Z</time>
      </trkpt>
      <trkpt lat="43.45406" lon="5.76762">
        <ele>585.9</ele>
        <time>2016-05-01T10:40:34Z</time>
      </trkpt>
      <trkpt lat="43.45403" lon="5.76784">
        <ele>590.4</ele>
        <time>2016-05-01T10:41:17Z</time>
      </trkpt>
      <trkpt lat="43.45404" lon="5.76797">
        <ele>592.5</ele>
        <time>2016-05-01T10:41:34Z</time>
      </trkpt>
      <trkpt lat="43.45403" lon="5.76797">
        <ele>592.6</ele>
        <time>2016-05-01T10:41:35Z</time>
      </trkpt>
      <trkpt lat="43.45404" lon="5.7682">
        <ele>595.6</ele>
        <time>2016-05-01T10:42:03Z</time>
      </trkpt>
      <trkpt lat="43.45408" lon="5.7683">
        <ele>597.5</ele>
        <time>2016-05-01T10:42:16Z</time>
      </trkpt>
      <trkpt lat="43.45415" lon="5.76838">
        <ele>599.6</ele>
        <time>2016-05-01T10:42:33Z</time>
      </trkpt>
      <trkpt lat="43.4542" lon="5.76847">
        <ele>601.5</ele>
        <time>2016-05-01T10:42:47Z</time>
      </trkpt>
      <trkpt lat="43.45421" lon="5.76848">
        <ele>602.1</ele>
        <time>2016-05-01T10:42:48Z</time>
      </trkpt>
      <trkpt lat="43.45432" lon="5.76864">
        <ele>603.8</ele>
        <time>2016-05-01T10:43:16Z</time>
      </trkpt>
      <trkpt lat="43.45437" lon="5.76874">
        <ele>605.2</ele>
        <time>2016-05-01T10:43:32Z</time>
      </trkpt>
      <trkpt lat="43.45439" lon="5.76886">
        <ele>606.2</ele>
        <time>2016-05-01T10:43:48Z</time>
      </trkpt>
      <trkpt lat="43.45439" lon="5.76886">
        <ele>606.4</ele>
        <time>2016-05-01T10:43:49Z</time>
      </trkpt>
      <trkpt lat="43.45444" lon="5.76907">
        <ele>600.2</ele>
        <time>2016-05-01T10:44:34Z</time>
      </trkpt>
      <trkpt lat="43.4544" lon="5.76918">
        <ele>597.6</ele>
        <time>2016-05-01T10:44:52Z</time>
      </trkpt>
      <trkpt lat="43.4544" lon="5.76919">
        <ele>597.7</ele>
        <time>2016-05-01T10:44:53Z</time>
      </trkpt>
      <trkpt lat="43.45427" lon="5.76931">
        <ele>594.6</ele>
        <time>2016-05-01T10:45:16Z</time>
      </trkpt>
      <trkpt lat="43.4542" lon="5.76939">
        <ele>593.3</ele>
        <time>2016-05-01T10:45:27Z</time>
      </trkpt>
      <trkpt lat="43.45414" lon="5.76947">
        <ele>591.3</ele>
        <time>2016-05-01T10:45:36Z</time>
      </trkpt>
      <trkpt lat="43.45407" lon="5.76955">
        <ele>591</ele>
        <time>2016-05-01T10:45:45Z</time>
      </trkpt>
      <trkpt lat="43.45406" lon="5.76966">
        <ele>590.2</ele>
        <time>2016-05-01T10:45:53Z</time>
      </trkpt>
      <trkpt lat="43.45405" lon="5.76967">
        <ele>590</ele>
        <time>2016-05-01T10:45:54Z</time>
      </trkpt>
      <trkpt lat="43.45411" lon="5.76987">
        <ele>589.4</ele>
        <time>2016-05-01T10:46:06Z</time>
      </trkpt>
      <trkpt lat="43.45416" lon="5.76996">
        <ele>589.6</ele>
        <time>2016-05-01T10:46:12Z</time>
      </trkpt>
      <trkpt lat="43.45422" lon="5.77005">
        <ele>589.8</ele>
        <time>2016-05-01T10:46:18Z</time>
      </trkpt>
      <trkpt lat="43.45429" lon="5.77011">
        <ele>589.7</ele>
        <time>2016-05-01T10:46:23Z</time>
      </trkpt>
      <trkpt lat="43.45435" lon="5.77019">
        <ele>590.2</ele>
        <time>2016-05-01T10:46:34Z</time>
      </trkpt>
      <trkpt lat="43.45438" lon="5.7703">
        <ele>591.4</ele>
        <time>2016-05-01T10:46:44Z</time>
      </trkpt>
      <trkpt lat="43.45435" lon="5.7704">
        <ele>592.4</ele>
        <time>2016-05-01T10:46:53Z</time>
      </trkpt>
      <trkpt lat="43.45431" lon="5.77051">
        <ele>592.3</ele>
        <time>2016-05-01T10:47:02Z</time>
      </trkpt>
      <trkpt lat="43.45431" lon="5.77052">
        <ele>592.7</ele>
        <time>2016-05-01T10:47:03Z</time>
      </trkpt>
      <trkpt lat="43.45426" lon="5.7707">
        <ele>590.7</ele>
        <time>2016-05-01T10:47:18Z</time>
      </trkpt>
      <trkpt lat="43.45429" lon="5.77082">
        <ele>590.9</ele>
        <time>2016-05-01T10:47:25Z</time>
      </trkpt>
      <trkpt lat="43.45436" lon="5.77087">
        <ele>591.9</ele>
        <time>2016-05-01T10:47:34Z</time>
      </trkpt>
      <trkpt lat="43.45443" lon="5.77092">
        <ele>592.3</ele>
        <time>2016-05-01T10:47:40Z</time>
      </trkpt>
      <trkpt lat="43.4545" lon="5.771">
        <ele>593.4</ele>
        <time>2016-05-01T10:47:48Z</time>
      </trkpt>
      <trkpt lat="43.45457" lon="5.77107">
        <ele>594</ele>
        <time>2016-05-01T10:47:56Z</time>
      </trkpt>
      <trkpt lat="43.45456" lon="5.77119">
        <ele>598.4</ele>
        <time>2016-05-01T10:48:25Z</time>
      </trkpt>
      <trkpt lat="43.45457" lon="5.7712">
        <ele>598.4</ele>
        <time>2016-05-01T10:48:26Z</time>
      </trkpt>
      <trkpt lat="43.4545" lon="5.77141">
        <ele>604.8</ele>
        <time>2016-05-01T10:49:10Z</time>
      </trkpt>
      <trkpt lat="43.4545" lon="5.77154">
        <ele>606</ele>
        <time>2016-05-01T10:49:25Z</time>
      </trkpt>
      <trkpt lat="43.45453" lon="5.77165">
        <ele>608.8</ele>
        <time>2016-05-01T10:49:41Z</time>
      </trkpt>
      <trkpt lat="43.45453" lon="5.77166">
        <ele>608.6</ele>
        <time>2016-05-01T10:49:42Z</time>
      </trkpt>
      <trkpt lat="43.45466" lon="5.77181">
        <ele>613.1</ele>
        <time>2016-05-01T10:50:08Z</time>
      </trkpt>
      <trkpt lat="43.45474" lon="5.77185">
        <ele>612.8</ele>
        <time>2016-05-01T10:50:22Z</time>
      </trkpt>
      <trkpt lat="43.45482" lon="5.77191">
        <ele>615.3</ele>
        <time>2016-05-01T10:50:34Z</time>
      </trkpt>
      <trkpt lat="43.4549" lon="5.77196">
        <ele>615.9</ele>
        <time>2016-05-01T10:50:46Z</time>
      </trkpt>
      <trkpt lat="43.45491" lon="5.77197">
        <ele>616.3</ele>
        <time>2016-05-01T10:50:47Z</time>
      </trkpt>
      <trkpt lat="43.455" lon="5.77213">
        <ele>618.7</ele>
        <time>2016-05-01T10:51:12Z</time>
      </trkpt>
      <trkpt lat="43.45496" lon="5.77224">
        <ele>617.8</ele>
        <time>2016-05-01T10:52:07Z</time>
      </trkpt>
      <trkpt lat="43.45496" lon="5.77224">
        <ele>617.8</ele>
        <time>2016-05-01T10:52:08Z</time>
      </trkpt>
      <trkpt lat="43.4549" lon="5.77246">
        <ele>621.1</ele>
        <time>2016-05-01T10:52:31Z</time>
      </trkpt>
      <trkpt lat="43.45492" lon="5.77257">
        <ele>623</ele>
        <time>2016-05-01T10:52:40Z</time>
      </trkpt>
      <trkpt lat="43.45494" lon="5.77269">
        <ele>624.2</ele>
        <time>2016-05-01T10:52:51Z</time>
      </trkpt>
      <trkpt lat="43.45496" lon="5.77281">
        <ele>625.8</ele>
        <time>2016-05-01T10:53:01Z</time>
      </trkpt>
      <trkpt lat="43.45498" lon="5.77293">
        <ele>627.3</ele>
        <time>2016-05-01T10:53:13Z</time>
      </trkpt>
      <trkpt lat="43.45498" lon="5.77294">
        <ele>628</ele>
        <time>2016-05-01T10:53:14Z</time>
      </trkpt>
      <trkpt lat="43.45501" lon="5.77316">
        <ele>630.9</ele>
        <time>2016-05-01T10:53:32Z</time>
      </trkpt>
      <trkpt lat="43.45504" lon="5.77328">
        <ele>633</ele>
        <time>2016-05-01T10:53:46Z</time>
      </trkpt>
      <trkpt lat="43.45507" lon="5.77338">
        <ele>635.5</ele>
        <time>2016-05-01T10:53:57Z</time>
      </trkpt>
      <trkpt lat="43.4551" lon="5.77349">
        <ele>636.5</ele>
        <time>2016-05-01T10:54:06Z</time>
      </trkpt>
      <trkpt lat="43.45513" lon="5.77361">
        <ele>637.7</ele>
        <time>2016-05-01T10:54:16Z</time>
      </trkpt>
      <trkpt lat="43.45513" lon="5.77362">
        <ele>637.9</ele>
        <time>2016-05-01T10:54:17Z</time>
      </trkpt>
      <trkpt lat="43.45516" lon="5.77383">
        <ele>638</ele>
        <time>2016-05-01T10:56:55Z</time>
      </trkpt>
      <trkpt lat="43.45517" lon="5.77385">
        <ele>638.3</ele>
        <time>2016-05-01T10:56:56Z</time>
      </trkpt>
      <trkpt lat="43.45513" lon="5.77407">
        <ele>636.4</ele>
        <time>2016-05-01T10:57:14Z</time>
      </trkpt>
      <trkpt lat="43.45509" lon="5.77418">
        <ele>634.8</ele>
        <time>2016-05-01T10:57:22Z</time>
      </trkpt>
      <trkpt lat="43.45504" lon="5.77427">
        <ele>634.3</ele>
        <time>2016-05-01T10:57:31Z</time>
      </trkpt>
      <trkpt lat="43.45499" lon="5.77437">
        <ele>632.5</ele>
        <time>2016-05-01T10:57:40Z</time>
      </trkpt>
      <trkpt lat="43.45496" lon="5.77448">
        <ele>631.1</ele>
        <time>2016-05-01T10:57:50Z</time>
      </trkpt>
      <trkpt lat="43.45497" lon="5.7746">
        <ele>630.6</ele>
        <time>2016-05-01T10:57:59Z</time>
      </trkpt>
      <trkpt lat="43.45497" lon="5.77461">
        <ele>630.9</ele>
        <time>2016-05-01T10:58:00Z</time>
      </trkpt>
      <trkpt lat="43.455" lon="5.77482">
        <ele>629.8</ele>
        <time>2016-05-01T10:58:11Z</time>
      </trkpt>
      <trkpt lat="43.45503" lon="5.77493">
        <ele>629</ele>
        <time>2016-05-01T10:58:19Z</time>
      </trkpt>
      <trkpt lat="43.45506" lon="5.77503">
        <ele>629.8</ele>
        <time>2016-05-01T10:58:26Z</time>
      </trkpt>
      <trkpt lat="43.45503" lon="5.77514">
        <ele>629</ele>
        <time>2016-05-01T10:58:36Z</time>
      </trkpt>
      <trkpt lat="43.455" lon="5.77525">
        <ele>626.8</ele>
        <time>2016-05-01T10:58:45Z</time>
      </trkpt>
      <trkpt lat="43.45496" lon="5.77536">
        <ele>627.1</ele>
        <time>2016-05-01T10:58:54Z</time>
      </trkpt>
      <trkpt lat="43.45493" lon="5.77547">
        <ele>625.8</ele>
        <time>2016-05-01T10:59:02Z</time>
      </trkpt>
      <trkpt lat="43.45493" lon="5.77548">
        <ele>626.1</ele>
        <time>2016-05-01T10:59:03Z</time>
      </trkpt>
      <trkpt lat="43.45497" lon="5.77567">
        <ele>626</ele>
        <time>2016-05-01T10:59:18Z</time>
      </trkpt>
      <trkpt lat="43.455" lon="5.77579">
        <ele>626</ele>
        <time>2016-05-01T10:59:26Z</time>
      </trkpt>
      <trkpt lat="43.455" lon="5.7759">
        <ele>627.6</ele>
        <time>2016-05-01T10:59:36Z</time>
      </trkpt>
      <trkpt lat="43.45499" lon="5.77601">
        <ele>628.7</ele>
        <time>2016-05-01T10:59:47Z</time>
      </trkpt>
      <trkpt lat="43.45495" lon="5.77612">
        <ele>631.1</ele>
        <time>2016-05-01T10:59:59Z</time>
      </trkpt>
      <trkpt lat="43.45492" lon="5.77623">
        <ele>631.7</ele>
        <time>2016-05-01T11:00:10Z</time>
      </trkpt>
      <trkpt lat="43.45493" lon="5.77625">
        <ele>632.1</ele>
        <time>2016-05-01T11:00:11Z</time>
      </trkpt>
      <trkpt lat="43.4549" lon="5.77647">
        <ele>633.3</ele>
        <time>2016-05-01T11:00:30Z</time>
      </trkpt>
      <trkpt lat="43.45487" lon="5.77657">
        <ele>634.9</ele>
        <time>2016-05-01T11:00:39Z</time>
      </trkpt>
      <trkpt lat="43.45486" lon="5.77669">
        <ele>636.3</ele>
        <time>2016-05-01T11:00:49Z</time>
      </trkpt>
      <trkpt lat="43.45485" lon="5.77681">
        <ele>636.5</ele>
        <time>2016-05-01T11:00:59Z</time>
      </trkpt>
      <trkpt lat="43.45484" lon="5.77692">
        <ele>637.6</ele>
        <time>2016-05-01T11:01:09Z</time>
      </trkpt>
      <trkpt lat="43.45483" lon="5.77703">
        <ele>638.4</ele>
        <time>2016-05-01T11:01:20Z</time>
      </trkpt>
      <trkpt lat="43.45483" lon="5.77704">
        <ele>639</ele>
        <time>2016-05-01T11:01:21Z</time>
      </trkpt>
      <trkpt lat="43.45476" lon="5.77724">
        <ele>640.7</ele>
        <time>2016-05-01T11:01:41Z</time>
      </trkpt>
      <trkpt lat="43.45477" lon="5.77737">
        <ele>642.7</ele>
        <time>2016-05-01T11:01:53Z</time>
      </trkpt>
      <trkpt lat="43.4548" lon="5.77748">
        <ele>642.4</ele>
        <time>2016-05-01T11:02:04Z</time>
      </trkpt>
      <trkpt lat="43.45488" lon="5.77751">
        <ele>643.5</ele>
        <time>2016-05-01T11:02:23Z</time>
      </trkpt>
      <trkpt lat="43.45489" lon="5.77751">
        <ele>643.4</ele>
        <time>2016-05-01T11:02:24Z</time>
      </trkpt>
      <trkpt lat="43.45499" lon="5.77734">
        <ele>642.3</ele>
        <time>2016-05-01T11:03:00Z</time>
      </trkpt>
      <trkpt lat="43.45505" lon="5.77726">
        <ele>641.5</ele>
        <time>2016-05-01T11:03:10Z</time>
      </trkpt>
      <trkpt lat="43.45509" lon="5.77715">
        <ele>640.4</ele>
        <time>2016-05-01T11:03:22Z</time>
      </trkpt>
      <trkpt lat="43.45512" lon="5.77705">
        <ele>640.4</ele>
        <time>2016-05-01T11:03:32Z</time>
      </trkpt>
      <trkpt lat="43.45512" lon="5.77704">
        <ele>640.3</ele>
        <time>2016-05-01T11:03:33Z</time>
      </trkpt>
      <trkpt lat="43.45515" lon="5.77684">
        <ele>640.6</ele>
        <time>2016-05-01T11:03:48Z</time>
      </trkpt>
      <trkpt lat="43.45515" lon="5.77672">
        <ele>639.1</ele>
        <time>2016-05-01T11:03:58Z</time>
      </trkpt>
      <trkpt lat="43.45518" lon="5.77661">
        <ele>637.8</ele>
        <time>2016-05-01T11:04:08Z</time>
      </trkpt>
      <trkpt lat="43.45521" lon="5.7765">
        <ele>637.6</ele>
        <time>2016-05-01T11:04:19Z</time>
      </trkpt>
      <trkpt lat="43.45521" lon="5.77639">
        <ele>636.1</ele>
        <time>2016-05-01T11:04:28Z</time>
      </trkpt>
      <trkpt lat="43.45523" lon="5.77627">
        <ele>636</ele>
        <time>2016-05-01T11:04:37Z</time>
      </trkpt>
      <trkpt lat="43.45523" lon="5.77626">
        <ele>636</ele>
        <time>2016-05-01T11:04:38Z</time>
      </trkpt>
      <trkpt lat="43.45528" lon="5.77606">
        <ele>635.6</ele>
        <time>2016-05-01T11:04:54Z</time>
      </trkpt>
      <trkpt lat="43.45531" lon="5.77595">
        <ele>634.2</ele>
        <time>2016-05-01T11:05:05Z</time>
      </trkpt>
      <trkpt lat="43.45536" lon="5.77585">
        <ele>634.6</ele>
        <time>2016-05-01T11:05:14Z</time>
      </trkpt>
      <trkpt lat="43.45544" lon="5.7758">
        <ele>633.5</ele>
        <time>2016-05-01T11:05:21Z</time>
      </trkpt>
      <trkpt lat="43.45552" lon="5.77576">
        <ele>631.8</ele>
        <time>2016-05-01T11:05:38Z</time>
      </trkpt>
      <trkpt lat="43.45553" lon="5.77577">
        <ele>631.4</ele>
        <time>2016-05-01T11:05:39Z</time>
      </trkpt>
      <trkpt lat="43.45561" lon="5.77573">
        <ele>631.9</ele>
        <time>2016-05-01T11:07:23Z</time>
      </trkpt>
      <trkpt lat="43.45576" lon="5.77562">
        <ele>630</ele>
        <time>2016-05-01T11:07:45Z</time>
      </trkpt>
      <trkpt lat="43.45583" lon="5.77557">
        <ele>629</ele>
        <time>2016-05-01T11:07:54Z</time>
      </trkpt>
      <trkpt lat="43.45591" lon="5.77555">
        <ele>628.5</ele>
        <time>2016-05-01T11:08:02Z</time>
      </trkpt>
      <trkpt lat="43.456" lon="5.77553">
        <ele>626.9</ele>
        <time>2016-05-01T11:08:13Z</time>
      </trkpt>
      <trkpt lat="43.45608" lon="5.77549">
        <ele>625.4</ele>
        <time>2016-05-01T11:08:28Z</time>
      </trkpt>
      <trkpt lat="43.45609" lon="5.77549">
        <ele>625.4</ele>
        <time>2016-05-01T11:08:29Z</time>
      </trkpt>
      <trkpt lat="43.45625" lon="5.77546">
        <ele>623.6</ele>
        <time>2016-05-01T11:08:47Z</time>
      </trkpt>
      <trkpt lat="43.45633" lon="5.77544">
        <ele>622.2</ele>
        <time>2016-05-01T11:08:57Z</time>
      </trkpt>
      <trkpt lat="43.45641" lon="5.77541">
        <ele>622</ele>
        <time>2016-05-01T11:09:06Z</time>
      </trkpt>
      <trkpt lat="43.45649" lon="5.77538">
        <ele>621.3</ele>
        <time>2016-05-01T11:09:16Z</time>
      </trkpt>
      <trkpt lat="43.45658" lon="5.77537">
        <ele>619.6</ele>
        <time>2016-05-01T11:09:27Z</time>
      </trkpt>
      <trkpt lat="43.45666" lon="5.77542">
        <ele>618.8</ele>
        <time>2016-05-01T11:09:42Z</time>
      </trkpt>
      <trkpt lat="43.45667" lon="5.77542">
        <ele>618.6</ele>
        <time>2016-05-01T11:09:43Z</time>
      </trkpt>
      <trkpt lat="43.45681" lon="5.77552">
        <ele>617.5</ele>
        <time>2016-05-01T11:10:11Z</time>
      </trkpt>
      <trkpt lat="43.45689" lon="5.77555">
        <ele>617</ele>
        <time>2016-05-01T11:10:19Z</time>
      </trkpt>
      <trkpt lat="43.45697" lon="5.7756">
        <ele>616.6</ele>
        <time>2016-05-01T11:10:27Z</time>
      </trkpt>
      <trkpt lat="43.45703" lon="5.77568">
        <ele>615.5</ele>
        <time>2016-05-01T11:10:35Z</time>
      </trkpt>
      <trkpt lat="43.45708" lon="5.77578">
        <ele>615.7</ele>
        <time>2016-05-01T11:10:46Z</time>
      </trkpt>
      <trkpt lat="43.45708" lon="5.77579">
        <ele>615.5</ele>
        <time>2016-05-01T11:10:47Z</time>
      </trkpt>
      <trkpt lat="43.45718" lon="5.77597">
        <ele>615.9</ele>
        <time>2016-05-01T11:11:03Z</time>
      </trkpt>
      <trkpt lat="43.45722" lon="5.77608">
        <ele>616</ele>
        <time>2016-05-01T11:11:13Z</time>
      </trkpt>
      <trkpt lat="43.45726" lon="5.77618">
        <ele>615.6</ele>
        <time>2016-05-01T11:11:22Z</time>
      </trkpt>
      <trkpt lat="43.4573" lon="5.77629">
        <ele>614.3</ele>
        <time>2016-05-01T11:11:43Z</time>
      </trkpt>
      <trkpt lat="43.45736" lon="5.77638">
        <ele>613.2</ele>
        <time>2016-05-01T11:12:21Z</time>
      </trkpt>
      <trkpt lat="43.45736" lon="5.77638">
        <ele>613.2</ele>
        <time>2016-05-01T11:12:22Z</time>
      </trkpt>
      <trkpt lat="43.45747" lon="5.77656">
        <ele>613.1</ele>
        <time>2016-05-01T11:12:41Z</time>
      </trkpt>
      <trkpt lat="43.45755" lon="5.77657">
        <ele>612.4</ele>
        <time>2016-05-01T11:12:48Z</time>
      </trkpt>
      <trkpt lat="43.45761" lon="5.77648">
        <ele>612.3</ele>
        <time>2016-05-01T11:12:56Z</time>
      </trkpt>
      <trkpt lat="43.45767" lon="5.77639">
        <ele>612.3</ele>
        <time>2016-05-01T11:13:03Z</time>
      </trkpt>
      <trkpt lat="43.45771" lon="5.77628">
        <ele>612.1</ele>
        <time>2016-05-01T11:13:10Z</time>
      </trkpt>
      <trkpt lat="43.45774" lon="5.77618">
        <ele>610.3</ele>
        <time>2016-05-01T11:13:17Z</time>
      </trkpt>
      <trkpt lat="43.45777" lon="5.77607">
        <ele>609.8</ele>
        <time>2016-05-01T11:13:25Z</time>
      </trkpt>
      <trkpt lat="43.45777" lon="5.77605">
        <ele>609.7</ele>
        <time>2016-05-01T11:13:26Z</time>
      </trkpt>
      <trkpt lat="43.45781" lon="5.77584">
        <ele>608.2</ele>
        <time>2016-05-01T11:13:43Z</time>
      </trkpt>
      <trkpt lat="43.45785" lon="5.77573">
        <ele>607.6</ele>
        <time>2016-05-01T11:13:51Z</time>
      </trkpt>
      <trkpt lat="43.45788" lon="5.77562">
        <ele>607</ele>
        <time>2016-05-01T11:14:00Z</time>
      </trkpt>
      <trkpt lat="43.45792" lon="5.77551">
        <ele>606.4</ele>
        <time>2016-05-01T11:14:09Z</time>
      </trkpt>
      <trkpt lat="43.45796" lon="5.77541">
        <ele>606.3</ele>
        <time>2016-05-01T11:14:17Z</time>
      </trkpt>
      <trkpt lat="43.458" lon="5.77531">
        <ele>605.3</ele>
        <time>2016-05-01T11:14:26Z</time>
      </trkpt>
      <trkpt lat="43.458" lon="5.77529">
        <ele>605.6</ele>
        <time>2016-05-01T11:14:27Z</time>
      </trkpt>
      <trkpt lat="43.45811" lon="5.77513">
        <ele>602.8</ele>
        <time>2016-05-01T11:14:42Z</time>
      </trkpt>
      <trkpt lat="43.45816" lon="5.77504">
        <ele>602.5</ele>
        <time>2016-05-01T11:14:50Z</time>
      </trkpt>
      <trkpt lat="43.45822" lon="5.77495">
        <ele>601.6</ele>
        <time>2016-05-01T11:14:58Z</time>
      </trkpt>
      <trkpt lat="43.45827" lon="5.77487">
        <ele>601.1</ele>
        <time>2016-05-01T11:15:06Z</time>
      </trkpt>
      <trkpt lat="43.45833" lon="5.77478">
        <ele>600.5</ele>
        <time>2016-05-01T11:15:14Z</time>
      </trkpt>
      <trkpt lat="43.45837" lon="5.77468">
        <ele>599.8</ele>
        <time>2016-05-01T11:15:23Z</time>
      </trkpt>
      <trkpt lat="43.45842" lon="5.77458">
        <ele>598.3</ele>
        <time>2016-05-01T11:15:33Z</time>
      </trkpt>
      <trkpt lat="43.45843" lon="5.77457">
        <ele>598.4</ele>
        <time>2016-05-01T11:15:34Z</time>
      </trkpt>
      <trkpt lat="43.45851" lon="5.77438">
        <ele>597.1</ele>
        <time>2016-05-01T11:15:50Z</time>
      </trkpt>
      <trkpt lat="43.45854" lon="5.77427">
        <ele>595.8</ele>
        <time>2016-05-01T11:16:34Z</time>
      </trkpt>
      <trkpt lat="43.45855" lon="5.77426">
        <ele>595.7</ele>
        <time>2016-05-01T11:16:35Z</time>
      </trkpt>
      <trkpt lat="43.45863" lon="5.77407">
        <ele>594.9</ele>
        <time>2016-05-01T11:16:49Z</time>
      </trkpt>
      <trkpt lat="43.45864" lon="5.77396">
        <ele>593.9</ele>
        <time>2016-05-01T11:16:56Z</time>
      </trkpt>
      <trkpt lat="43.45867" lon="5.77385">
        <ele>594.1</ele>
        <time>2016-05-01T11:17:03Z</time>
      </trkpt>
      <trkpt lat="43.45868" lon="5.77373">
        <ele>593.8</ele>
        <time>2016-05-01T11:17:10Z</time>
      </trkpt>
      <trkpt lat="43.4587" lon="5.77362">
        <ele>593</ele>
        <time>2016-05-01T11:17:16Z</time>
      </trkpt>
      <trkpt lat="43.45872" lon="5.77351">
        <ele>592.7</ele>
        <time>2016-05-01T11:17:23Z</time>
      </trkpt>
      <trkpt lat="43.45869" lon="5.7734">
        <ele>591.4</ele>
        <time>2016-05-01T11:17:29Z</time>
      </trkpt>
      <trkpt lat="43.45866" lon="5.77328">
        <ele>590.7</ele>
        <time>2016-05-01T11:17:42Z</time>
      </trkpt>
      <trkpt lat="43.45866" lon="5.77327">
        <ele>590.5</ele>
        <time>2016-05-01T11:17:43Z</time>
      </trkpt>
      <trkpt lat="43.45867" lon="5.77305">
        <ele>589.7</ele>
        <time>2016-05-01T11:17:59Z</time>
      </trkpt>
      <trkpt lat="43.45867" lon="5.77294">
        <ele>588.8</ele>
        <time>2016-05-01T11:18:08Z</time>
      </trkpt>
      <trkpt lat="43.45868" lon="5.77282">
        <ele>588.4</ele>
        <time>2016-05-01T11:18:16Z</time>
      </trkpt>
      <trkpt lat="43.45868" lon="5.7727">
        <ele>588.9</ele>
        <time>2016-05-01T11:18:25Z</time>
      </trkpt>
      <trkpt lat="43.45868" lon="5.77257">
        <ele>588.1</ele>
        <time>2016-05-01T11:18:33Z</time>
      </trkpt>
      <trkpt lat="43.45865" lon="5.77247">
        <ele>586.7</ele>
        <time>2016-05-01T11:18:41Z</time>
      </trkpt>
      <trkpt lat="43.45866" lon="5.77235">
        <ele>585.2</ele>
        <time>2016-05-01T11:19:14Z</time>
      </trkpt>
      <trkpt lat="43.45866" lon="5.77234">
        <ele>585.3</ele>
        <time>2016-05-01T11:19:15Z</time>
      </trkpt>
      <trkpt lat="43.45865" lon="5.77212">
        <ele>583.9</ele>
        <time>2016-05-01T11:19:42Z</time>
      </trkpt>
      <trkpt lat="43.45866" lon="5.772">
        <ele>583.8</ele>
        <time>2016-05-01T11:19:50Z</time>
      </trkpt>
      <trkpt lat="43.45868" lon="5.77189">
        <ele>582.6</ele>
        <time>2016-05-01T11:20:02Z</time>
      </trkpt>
      <trkpt lat="43.45872" lon="5.77179">
        <ele>582.1</ele>
        <time>2016-05-01T11:20:11Z</time>
      </trkpt>
      <trkpt lat="43.45875" lon="5.77167">
        <ele>580.7</ele>
        <time>2016-05-01T11:20:46Z</time>
      </trkpt>
      <trkpt lat="43.45875" lon="5.77166">
        <ele>581</ele>
        <time>2016-05-01T11:20:47Z</time>
      </trkpt>
      <trkpt lat="43.45888" lon="5.77154">
        <ele>579.4</ele>
        <time>2016-05-01T11:21:04Z</time>
      </trkpt>
      <trkpt lat="43.45893" lon="5.77145">
        <ele>578.4</ele>
        <time>2016-05-01T11:21:12Z</time>
      </trkpt>
      <trkpt lat="43.45898" lon="5.77137">
        <ele>577.3</ele>
        <time>2016-05-01T11:21:19Z</time>
      </trkpt>
      <trkpt lat="43.45905" lon="5.7713">
        <ele>576.5</ele>
        <time>2016-05-01T11:21:25Z</time>
      </trkpt>
      <trkpt lat="43.45912" lon="5.77124">
        <ele>574.9</ele>
        <time>2016-05-01T11:21:34Z</time>
      </trkpt>
      <trkpt lat="43.45918" lon="5.77133">
        <ele>574.6</ele>
        <time>2016-05-01T11:21:46Z</time>
      </trkpt>
      <trkpt lat="43.45921" lon="5.77142">
        <ele>573.8</ele>
        <time>2016-05-01T11:21:55Z</time>
      </trkpt>
      <trkpt lat="43.45922" lon="5.77144">
        <ele>573.3</ele>
        <time>2016-05-01T11:21:56Z</time>
      </trkpt>
      <trkpt lat="43.45927" lon="5.77164">
        <ele>571.6</ele>
        <time>2016-05-01T11:22:13Z</time>
      </trkpt>
      <trkpt lat="43.45929" lon="5.77176">
        <ele>570.5</ele>
        <time>2016-05-01T11:22:22Z</time>
      </trkpt>
      <trkpt lat="43.45932" lon="5.77188">
        <ele>570.2</ele>
        <time>2016-05-01T11:22:31Z</time>
      </trkpt>
      <trkpt lat="43.45934" lon="5.77199">
        <ele>569.2</ele>
        <time>2016-05-01T11:22:40Z</time>
      </trkpt>
      <trkpt lat="43.45939" lon="5.77209">
        <ele>568.4</ele>
        <time>2016-05-01T11:22:48Z</time>
      </trkpt>
      <trkpt lat="43.45943" lon="5.77219">
        <ele>567.9</ele>
        <time>2016-05-01T11:22:56Z</time>
      </trkpt>
      <trkpt lat="43.45943" lon="5.77221">
        <ele>567.8</ele>
        <time>2016-05-01T11:22:57Z</time>
      </trkpt>
      <trkpt lat="43.45948" lon="5.77241">
        <ele>567.1</ele>
        <time>2016-05-01T11:23:13Z</time>
      </trkpt>
      <trkpt lat="43.45954" lon="5.7725">
        <ele>566.9</ele>
        <time>2016-05-01T11:23:21Z</time>
      </trkpt>
      <trkpt lat="43.45959" lon="5.77259">
        <ele>565.7</ele>
        <time>2016-05-01T11:23:28Z</time>
      </trkpt>
      <trkpt lat="43.45964" lon="5.77269">
        <ele>565</ele>
        <time>2016-05-01T11:23:36Z</time>
      </trkpt>
      <trkpt lat="43.45968" lon="5.7728">
        <ele>564.2</ele>
        <time>2016-05-01T11:23:45Z</time>
      </trkpt>
      <trkpt lat="43.45972" lon="5.77291">
        <ele>563.4</ele>
        <time>2016-05-01T11:23:54Z</time>
      </trkpt>
      <trkpt lat="43.45977" lon="5.773">
        <ele>562.6</ele>
        <time>2016-05-01T11:24:03Z</time>
      </trkpt>
      <trkpt lat="43.45978" lon="5.77302">
        <ele>562.7</ele>
        <time>2016-05-01T11:24:04Z</time>
      </trkpt>
      <trkpt lat="43.45987" lon="5.77319">
        <ele>561.7</ele>
        <time>2016-05-01T11:24:21Z</time>
      </trkpt>
      <trkpt lat="43.45993" lon="5.77329">
        <ele>561.6</ele>
        <time>2016-05-01T11:24:28Z</time>
      </trkpt>
      <trkpt lat="43.45993" lon="5.77341">
        <ele>560.7</ele>
        <time>2016-05-01T11:24:36Z</time>
      </trkpt>
      <trkpt lat="43.45997" lon="5.7735">
        <ele>560.4</ele>
        <time>2016-05-01T11:24:43Z</time>
      </trkpt>
      <trkpt lat="43.45999" lon="5.77362">
        <ele>561.6</ele>
        <time>2016-05-01T11:24:53Z</time>
      </trkpt>
      <trkpt lat="43.46004" lon="5.77372">
        <ele>561.3</ele>
        <time>2016-05-01T11:25:01Z</time>
      </trkpt>
      <trkpt lat="43.46008" lon="5.77383">
        <ele>560.6</ele>
        <time>2016-05-01T11:25:08Z</time>
      </trkpt>
      <trkpt lat="43.46009" lon="5.77385">
        <ele>560.4</ele>
        <time>2016-05-01T11:25:09Z</time>
      </trkpt>
      <trkpt lat="43.46017" lon="5.77402">
        <ele>559</ele>
        <time>2016-05-01T11:25:23Z</time>
      </trkpt>
      <trkpt lat="43.46022" lon="5.77412">
        <ele>558.4</ele>
        <time>2016-05-01T11:25:31Z</time>
      </trkpt>
      <trkpt lat="43.46027" lon="5.77423">
        <ele>557.5</ele>
        <time>2016-05-01T11:25:44Z</time>
      </trkpt>
      <trkpt lat="43.46034" lon="5.77428">
        <ele>556</ele>
        <time>2016-05-01T11:25:54Z</time>
      </trkpt>
      <trkpt lat="43.4604" lon="5.77433">
        <ele>555.9</ele>
        <time>2016-05-01T11:25:59Z</time>
      </trkpt>
      <trkpt lat="43.46048" lon="5.7744">
        <ele>554.8</ele>
        <time>2016-05-01T11:26:05Z</time>
      </trkpt>
      <trkpt lat="43.46055" lon="5.77447">
        <ele>554.7</ele>
        <time>2016-05-01T11:26:12Z</time>
      </trkpt>
      <trkpt lat="43.46056" lon="5.77448">
        <ele>554.8</ele>
        <time>2016-05-01T11:26:13Z</time>
      </trkpt>
      <trkpt lat="43.46067" lon="5.77464">
        <ele>554</ele>
        <time>2016-05-01T11:26:29Z</time>
      </trkpt>
      <trkpt lat="43.46072" lon="5.77473">
        <ele>553</ele>
        <time>2016-05-01T11:26:37Z</time>
      </trkpt>
      <trkpt lat="43.46076" lon="5.77483">
        <ele>552.1</ele>
        <time>2016-05-01T11:26:48Z</time>
      </trkpt>
      <trkpt lat="43.46083" lon="5.77489">
        <ele>551.8</ele>
        <time>2016-05-01T11:26:56Z</time>
      </trkpt>
      <trkpt lat="43.46091" lon="5.77493">
        <ele>551.1</ele>
        <time>2016-05-01T11:27:03Z</time>
      </trkpt>
      <trkpt lat="43.46099" lon="5.77493">
        <ele>549.9</ele>
        <time>2016-05-01T11:27:10Z</time>
      </trkpt>
      <trkpt lat="43.46107" lon="5.77492">
        <ele>549.6</ele>
        <time>2016-05-01T11:27:16Z</time>
      </trkpt>
      <trkpt lat="43.46108" lon="5.77492">
        <ele>549.2</ele>
        <time>2016-05-01T11:27:17Z</time>
      </trkpt>
      <trkpt lat="43.46122" lon="5.77493">
        <ele>547.9</ele>
        <time>2016-05-01T11:27:31Z</time>
      </trkpt>
      <trkpt lat="43.46131" lon="5.77494">
        <ele>547.2</ele>
        <time>2016-05-01T11:27:38Z</time>
      </trkpt>
      <trkpt lat="43.46139" lon="5.77499">
        <ele>547</ele>
        <time>2016-05-01T11:27:47Z</time>
      </trkpt>
      <trkpt lat="43.46145" lon="5.77506">
        <ele>545.4</ele>
        <time>2016-05-01T11:27:56Z</time>
      </trkpt>
      <trkpt lat="43.46148" lon="5.77517">
        <ele>544.7</ele>
        <time>2016-05-01T11:28:06Z</time>
      </trkpt>
      <trkpt lat="43.4615" lon="5.77528">
        <ele>543.3</ele>
        <time>2016-05-01T11:28:14Z</time>
      </trkpt>
      <trkpt lat="43.46154" lon="5.77538">
        <ele>542.4</ele>
        <time>2016-05-01T11:28:22Z</time>
      </trkpt>
      <trkpt lat="43.46155" lon="5.7754">
        <ele>542.5</ele>
        <time>2016-05-01T11:28:23Z</time>
      </trkpt>
      <trkpt lat="43.46157" lon="5.77561">
        <ele>540.2</ele>
        <time>2016-05-01T11:28:40Z</time>
      </trkpt>
      <trkpt lat="43.46153" lon="5.7757">
        <ele>540.6</ele>
        <time>2016-05-01T11:28:48Z</time>
      </trkpt>
      <trkpt lat="43.46148" lon="5.7758">
        <ele>539.8</ele>
        <time>2016-05-01T11:28:55Z</time>
      </trkpt>
      <trkpt lat="43.46144" lon="5.77592">
        <ele>538.3</ele>
        <time>2016-05-01T11:29:04Z</time>
      </trkpt>
      <trkpt lat="43.46141" lon="5.77603">
        <ele>537</ele>
        <time>2016-05-01T11:29:12Z</time>
      </trkpt>
      <trkpt lat="43.46139" lon="5.77613">
        <ele>536.8</ele>
        <time>2016-05-01T11:29:19Z</time>
      </trkpt>
      <trkpt lat="43.46142" lon="5.77624">
        <ele>536.5</ele>
        <time>2016-05-01T11:29:29Z</time>
      </trkpt>
      <trkpt lat="43.46142" lon="5.77625">
        <ele>536.6</ele>
        <time>2016-05-01T11:29:30Z</time>
      </trkpt>
      <trkpt lat="43.46155" lon="5.77626">
        <ele>534.2</ele>
        <time>2016-05-01T11:30:13Z</time>
      </trkpt>
      <trkpt lat="43.46157" lon="5.77615">
        <ele>534.6</ele>
        <time>2016-05-01T11:30:21Z</time>
      </trkpt>
      <trkpt lat="43.46162" lon="5.77605">
        <ele>534.1</ele>
        <time>2016-05-01T11:30:29Z</time>
      </trkpt>
      <trkpt lat="43.4617" lon="5.776">
        <ele>534</ele>
        <time>2016-05-01T11:30:54Z</time>
      </trkpt>
      <trkpt lat="43.46171" lon="5.77599">
        <ele>534.1</ele>
        <time>2016-05-01T11:30:55Z</time>
      </trkpt>
      <trkpt lat="43.46177" lon="5.77579">
        <ele>534.3</ele>
        <time>2016-05-01T11:31:13Z</time>
      </trkpt>
      <trkpt lat="43.46181" lon="5.77568">
        <ele>533.6</ele>
        <time>2016-05-01T11:31:21Z</time>
      </trkpt>
      <trkpt lat="43.46183" lon="5.77557">
        <ele>533.4</ele>
        <time>2016-05-01T11:31:28Z</time>
      </trkpt>
      <trkpt lat="43.46186" lon="5.77547">
        <ele>532.6</ele>
        <time>2016-05-01T11:31:35Z</time>
      </trkpt>
      <trkpt lat="43.4619" lon="5.77537">
        <ele>532.1</ele>
        <time>2016-05-01T11:31:41Z</time>
      </trkpt>
      <trkpt lat="43.46188" lon="5.77526">
        <ele>531.6</ele>
        <time>2016-05-01T11:31:47Z</time>
      </trkpt>
      <trkpt lat="43.46187" lon="5.77514">
        <ele>531</ele>
        <time>2016-05-01T11:31:53Z</time>
      </trkpt>
      <trkpt lat="43.46184" lon="5.77504">
        <ele>530.5</ele>
        <time>2016-05-01T11:31:59Z</time>
      </trkpt>
      <trkpt lat="43.46183" lon="5.77503">
        <ele>530.4</ele>
        <time>2016-05-01T11:32:00Z</time>
      </trkpt>
      <trkpt lat="43.4618" lon="5.77482">
        <ele>529</ele>
        <time>2016-05-01T11:32:14Z</time>
      </trkpt>
      <trkpt lat="43.46178" lon="5.77472">
        <ele>528.4</ele>
        <time>2016-05-01T11:32:20Z</time>
      </trkpt>
      <trkpt lat="43.46176" lon="5.7746">
        <ele>528</ele>
        <time>2016-05-01T11:32:27Z</time>
      </trkpt>
      <trkpt lat="43.46177" lon="5.77448">
        <ele>527.4</ele>
        <time>2016-05-01T11:32:34Z</time>
      </trkpt>
      <trkpt lat="43.46175" lon="5.77438">
        <ele>526</ele>
        <time>2016-05-01T11:32:42Z</time>
      </trkpt>
      <trkpt lat="43.46172" lon="5.77427">
        <ele>525.6</ele>
        <time>2016-05-01T11:32:49Z</time>
      </trkpt>
      <trkpt lat="43.46167" lon="5.77419">
        <ele>525.1</ele>
        <time>2016-05-01T11:32:56Z</time>
      </trkpt>
      <trkpt lat="43.46161" lon="5.7741">
        <ele>524.4</ele>
        <time>2016-05-01T11:33:04Z</time>
      </trkpt>
      <trkpt lat="43.4616" lon="5.77409">
        <ele>524.5</ele>
        <time>2016-05-01T11:33:05Z</time>
      </trkpt>
      <trkpt lat="43.46152" lon="5.7739">
        <ele>522.7</ele>
        <time>2016-05-01T11:33:21Z</time>
      </trkpt>
      <trkpt lat="43.46148" lon="5.7738">
        <ele>522.7</ele>
        <time>2016-05-01T11:33:28Z</time>
      </trkpt>
      <trkpt lat="43.46143" lon="5.77371">
        <ele>522</ele>
        <time>2016-05-01T11:33:36Z</time>
      </trkpt>
      <trkpt lat="43.46145" lon="5.77359">
        <ele>520.8</ele>
        <time>2016-05-01T11:33:58Z</time>
      </trkpt>
      <trkpt lat="43.46137" lon="5.77353">
        <ele>520.3</ele>
        <time>2016-05-01T11:34:16Z</time>
      </trkpt>
      <trkpt lat="43.46136" lon="5.77352">
        <ele>520.3</ele>
        <time>2016-05-01T11:34:17Z</time>
      </trkpt>
      <trkpt lat="43.46125" lon="5.7734">
        <ele>519.9</ele>
        <time>2016-05-01T11:34:41Z</time>
      </trkpt>
      <trkpt lat="43.46119" lon="5.77333">
        <ele>519.4</ele>
        <time>2016-05-01T11:34:50Z</time>
      </trkpt>
      <trkpt lat="43.46116" lon="5.77322">
        <ele>519.3</ele>
        <time>2016-05-01T11:36:08Z</time>
      </trkpt>
      <trkpt lat="43.46115" lon="5.77321">
        <ele>519.1</ele>
        <time>2016-05-01T11:36:09Z</time>
      </trkpt>
      <trkpt lat="43.46109" lon="5.773">
        <ele>516.6</ele>
        <time>2016-05-01T11:36:24Z</time>
      </trkpt>
      <trkpt lat="43.46106" lon="5.7729">
        <ele>516.4</ele>
        <time>2016-05-01T11:36:34Z</time>
      </trkpt>
      <trkpt lat="43.46104" lon="5.77278">
        <ele>515.7</ele>
        <time>2016-05-01T11:36:45Z</time>
      </trkpt>
      <trkpt lat="43.46104" lon="5.77267">
        <ele>514.8</ele>
        <time>2016-05-01T11:36:52Z</time>
      </trkpt>
      <trkpt lat="43.46105" lon="5.77256">
        <ele>514.4</ele>
        <time>2016-05-01T11:36:59Z</time>
      </trkpt>
      <trkpt lat="43.46106" lon="5.77244">
        <ele>513.7</ele>
        <time>2016-05-01T11:37:06Z</time>
      </trkpt>
      <trkpt lat="43.46107" lon="5.77233">
        <ele>513.8</ele>
        <time>2016-05-01T11:37:14Z</time>
      </trkpt>
      <trkpt lat="43.46107" lon="5.77231">
        <ele>513.8</ele>
        <time>2016-05-01T11:37:15Z</time>
      </trkpt>
      <trkpt lat="43.46107" lon="5.7721">
        <ele>513.5</ele>
        <time>2016-05-01T11:37:31Z</time>
      </trkpt>
      <trkpt lat="43.46108" lon="5.77199">
        <ele>513.1</ele>
        <time>2016-05-01T11:37:40Z</time>
      </trkpt>
      <trkpt lat="43.4611" lon="5.77187">
        <ele>513.1</ele>
        <time>2016-05-01T11:37:47Z</time>
      </trkpt>
      <trkpt lat="43.4611" lon="5.77175">
        <ele>512.7</ele>
        <time>2016-05-01T11:37:55Z</time>
      </trkpt>
      <trkpt lat="43.46107" lon="5.77164">
        <ele>511.8</ele>
        <time>2016-05-01T11:38:02Z</time>
      </trkpt>
      <trkpt lat="43.46105" lon="5.77153">
        <ele>511.6</ele>
        <time>2016-05-01T11:38:09Z</time>
      </trkpt>
      <trkpt lat="43.46103" lon="5.77142">
        <ele>511.5</ele>
        <time>2016-05-01T11:38:16Z</time>
      </trkpt>
      <trkpt lat="43.46103" lon="5.77141">
        <ele>511.4</ele>
        <time>2016-05-01T11:38:17Z</time>
      </trkpt>
      <trkpt lat="43.46102" lon="5.7712">
        <ele>509.6</ele>
        <time>2016-05-01T11:38:33Z</time>
      </trkpt>
      <trkpt lat="43.46105" lon="5.7713">
        <ele>507.9</ele>
        <time>2016-05-01T11:38:52Z</time>
      </trkpt>
      <trkpt lat="43.46112" lon="5.77139">
        <ele>506.1</ele>
        <time>2016-05-01T11:39:01Z</time>
      </trkpt>
      <trkpt lat="43.46119" lon="5.77142">
        <ele>505.6</ele>
        <time>2016-05-01T11:39:10Z</time>
      </trkpt>
      <trkpt lat="43.46127" lon="5.77148">
        <ele>503.2</ele>
        <time>2016-05-01T11:39:20Z</time>
      </trkpt>
      <trkpt lat="43.46127" lon="5.77149">
        <ele>503.4</ele>
        <time>2016-05-01T11:39:21Z</time>
      </trkpt>
      <trkpt lat="43.4614" lon="5.77162">
        <ele>501.4</ele>
        <time>2016-05-01T11:39:39Z</time>
      </trkpt>
      <trkpt lat="43.46147" lon="5.77169">
        <ele>500.1</ele>
        <time>2016-05-01T11:39:48Z</time>
      </trkpt>
      <trkpt lat="43.46155" lon="5.77173">
        <ele>498.7</ele>
        <time>2016-05-01T11:39:57Z</time>
      </trkpt>
      <trkpt lat="43.4616" lon="5.77163">
        <ele>497.2</ele>
        <time>2016-05-01T11:40:05Z</time>
      </trkpt>
      <trkpt lat="43.46161" lon="5.77152">
        <ele>495.7</ele>
        <time>2016-05-01T11:40:13Z</time>
      </trkpt>
      <trkpt lat="43.46163" lon="5.7714">
        <ele>494.8</ele>
        <time>2016-05-01T11:40:21Z</time>
      </trkpt>
      <trkpt lat="43.46163" lon="5.77138">
        <ele>494.6</ele>
        <time>2016-05-01T11:40:22Z</time>
      </trkpt>
      <trkpt lat="43.4616" lon="5.77117">
        <ele>491.8</ele>
        <time>2016-05-01T11:40:38Z</time>
      </trkpt>
      <trkpt lat="43.46158" lon="5.77106">
        <ele>490</ele>
        <time>2016-05-01T11:40:47Z</time>
      </trkpt>
      <trkpt lat="43.46158" lon="5.77094">
        <ele>488.5</ele>
        <time>2016-05-01T11:40:55Z</time>
      </trkpt>
      <trkpt lat="43.46157" lon="5.77082">
        <ele>487.2</ele>
        <time>2016-05-01T11:41:04Z</time>
      </trkpt>
      <trkpt lat="43.46155" lon="5.77071">
        <ele>485.6</ele>
        <time>2016-05-01T11:41:14Z</time>
      </trkpt>
      <trkpt lat="43.46155" lon="5.77059">
        <ele>483.3</ele>
        <time>2016-05-01T11:41:25Z</time>
      </trkpt>
      <trkpt lat="43.46156" lon="5.77058">
        <ele>483.3</ele>
        <time>2016-05-01T11:41:26Z</time>
      </trkpt>
      <trkpt lat="43.46156" lon="5.77036">
        <ele>480.8</ele>
        <time>2016-05-01T11:41:43Z</time>
      </trkpt>
      <trkpt lat="43.46157" lon="5.77025">
        <ele>479.4</ele>
        <time>2016-05-01T11:41:51Z</time>
      </trkpt>
      <trkpt lat="43.46153" lon="5.77014">
        <ele>478.3</ele>
        <time>2016-05-01T11:42:02Z</time>
      </trkpt>
      <trkpt lat="43.46149" lon="5.77004">
        <ele>476.8</ele>
        <time>2016-05-01T11:42:10Z</time>
      </trkpt>
      <trkpt lat="43.46145" lon="5.76994">
        <ele>475.2</ele>
        <time>2016-05-01T11:42:20Z</time>
      </trkpt>
      <trkpt lat="43.4614" lon="5.76984">
        <ele>473.7</ele>
        <time>2016-05-01T11:42:29Z</time>
      </trkpt>
      <trkpt lat="43.46139" lon="5.76983">
        <ele>473.7</ele>
        <time>2016-05-01T11:42:30Z</time>
      </trkpt>
      <trkpt lat="43.46132" lon="5.76963">
        <ele>470.2</ele>
        <time>2016-05-01T11:42:48Z</time>
      </trkpt>
      <trkpt lat="43.4613" lon="5.76952">
        <ele>467.9</ele>
        <time>2016-05-01T11:42:57Z</time>
      </trkpt>
      <trkpt lat="43.46128" lon="5.76941">
        <ele>467.3</ele>
        <time>2016-05-01T11:43:05Z</time>
      </trkpt>
      <trkpt lat="43.46124" lon="5.76931">
        <ele>465.7</ele>
        <time>2016-05-01T11:43:14Z</time>
      </trkpt>
      <trkpt lat="43.46118" lon="5.76922">
        <ele>463.2</ele>
        <time>2016-05-01T11:43:23Z</time>
      </trkpt>
      <trkpt lat="43.46114" lon="5.76911">
        <ele>461.8</ele>
        <time>2016-05-01T11:43:32Z</time>
      </trkpt>
      <trkpt lat="43.46113" lon="5.7691">
        <ele>461.7</ele>
        <time>2016-05-01T11:43:33Z</time>
      </trkpt>
      <trkpt lat="43.46101" lon="5.76896">
        <ele>460.1</ele>
        <time>2016-05-01T11:43:48Z</time>
      </trkpt>
      <trkpt lat="43.46094" lon="5.76889">
        <ele>459.8</ele>
        <time>2016-05-01T11:43:54Z</time>
      </trkpt>
      <trkpt lat="43.46088" lon="5.76882">
        <ele>458.5</ele>
        <time>2016-05-01T11:44:01Z</time>
      </trkpt>
      <trkpt lat="43.46081" lon="5.76873">
        <ele>458.3</ele>
        <time>2016-05-01T11:44:09Z</time>
      </trkpt>
      <trkpt lat="43.46075" lon="5.76866">
        <ele>458.3</ele>
        <time>2016-05-01T11:44:17Z</time>
      </trkpt>
      <trkpt lat="43.46068" lon="5.7686">
        <ele>458.5</ele>
        <time>2016-05-01T11:44:24Z</time>
      </trkpt>
      <trkpt lat="43.46061" lon="5.76853">
        <ele>457.2</ele>
        <time>2016-05-01T11:44:34Z</time>
      </trkpt>
      <trkpt lat="43.4606" lon="5.76852">
        <ele>457.2</ele>
        <time>2016-05-01T11:44:35Z</time>
      </trkpt>
      <trkpt lat="43.46048" lon="5.76839">
        <ele>456.8</ele>
        <time>2016-05-01T11:44:48Z</time>
      </trkpt>
      <trkpt lat="43.46042" lon="5.76831">
        <ele>456</ele>
        <time>2016-05-01T11:44:55Z</time>
      </trkpt>
      <trkpt lat="43.46035" lon="5.76825">
        <ele>455.9</ele>
        <time>2016-05-01T11:45:02Z</time>
      </trkpt>
      <trkpt lat="43.46027" lon="5.76819">
        <ele>455</ele>
        <time>2016-05-01T11:45:09Z</time>
      </trkpt>
      <trkpt lat="43.46019" lon="5.76814">
        <ele>453.4</ele>
        <time>2016-05-01T11:45:16Z</time>
      </trkpt>
      <trkpt lat="43.46011" lon="5.76809">
        <ele>452.1</ele>
        <time>2016-05-01T11:45:23Z</time>
      </trkpt>
      <trkpt lat="43.46003" lon="5.76805">
        <ele>451.7</ele>
        <time>2016-05-01T11:45:31Z</time>
      </trkpt>
      <trkpt lat="43.45996" lon="5.76799">
        <ele>451.8</ele>
        <time>2016-05-01T11:45:38Z</time>
      </trkpt>
      <trkpt lat="43.45995" lon="5.76799">
        <ele>451.5</ele>
        <time>2016-05-01T11:45:39Z</time>
      </trkpt>
      <trkpt lat="43.45983" lon="5.76784">
        <ele>450.8</ele>
        <time>2016-05-01T11:45:56Z</time>
      </trkpt>
      <trkpt lat="43.45979" lon="5.76774">
        <ele>450.5</ele>
        <time>2016-05-01T11:46:03Z</time>
      </trkpt>
      <trkpt lat="43.45974" lon="5.76765">
        <ele>449</ele>
        <time>2016-05-01T11:46:54Z</time>
      </trkpt>
      <trkpt lat="43.45974" lon="5.76763">
        <ele>449</ele>
        <time>2016-05-01T11:46:55Z</time>
      </trkpt>
      <trkpt lat="43.45986" lon="5.7675">
        <ele>445.5</ele>
        <time>2016-05-01T11:47:17Z</time>
      </trkpt>
      <trkpt lat="43.45995" lon="5.76751">
        <ele>443.4</ele>
        <time>2016-05-01T11:47:26Z</time>
      </trkpt>
      <trkpt lat="43.46003" lon="5.76754">
        <ele>440.6</ele>
        <time>2016-05-01T11:47:37Z</time>
      </trkpt>
      <trkpt lat="43.4601" lon="5.76759">
        <ele>439</ele>
        <time>2016-05-01T11:47:45Z</time>
      </trkpt>
      <trkpt lat="43.46018" lon="5.76763">
        <ele>437.5</ele>
        <time>2016-05-01T11:47:53Z</time>
      </trkpt>
      <trkpt lat="43.46025" lon="5.76766">
        <ele>435.4</ele>
        <time>2016-05-01T11:48:00Z</time>
      </trkpt>
      <trkpt lat="43.46027" lon="5.76765">
        <ele>435.6</ele>
        <time>2016-05-01T11:48:01Z</time>
      </trkpt>
      <trkpt lat="43.46041" lon="5.7676">
        <ele>432</ele>
        <time>2016-05-01T11:48:15Z</time>
      </trkpt>
      <trkpt lat="43.46046" lon="5.76751">
        <ele>430.3</ele>
        <time>2016-05-01T11:48:24Z</time>
      </trkpt>
      <trkpt lat="43.4605" lon="5.76741">
        <ele>428.5</ele>
        <time>2016-05-01T11:48:31Z</time>
      </trkpt>
      <trkpt lat="43.46057" lon="5.76733">
        <ele>427.9</ele>
        <time>2016-05-01T11:48:37Z</time>
      </trkpt>
      <trkpt lat="43.46064" lon="5.76726">
        <ele>426.2</ele>
        <time>2016-05-01T11:48:44Z</time>
      </trkpt>
      <trkpt lat="43.4607" lon="5.76717">
        <ele>425.9</ele>
        <time>2016-05-01T11:48:51Z</time>
      </trkpt>
      <trkpt lat="43.46076" lon="5.76709">
        <ele>425.7</ele>
        <time>2016-05-01T11:48:58Z</time>
      </trkpt>
      <trkpt lat="43.46082" lon="5.76701">
        <ele>424.6</ele>
        <time>2016-05-01T11:49:04Z</time>
      </trkpt>
      <trkpt lat="43.46083" lon="5.767">
        <ele>424.4</ele>
        <time>2016-05-01T11:49:05Z</time>
      </trkpt>
      <trkpt lat="43.46094" lon="5.76685">
        <ele>422.6</ele>
        <time>2016-05-01T11:49:18Z</time>
      </trkpt>
      <trkpt lat="43.461" lon="5.76677">
        <ele>421.5</ele>
        <time>2016-05-01T11:49:25Z</time>
      </trkpt>
      <trkpt lat="43.461" lon="5.76666">
        <ele>420.1</ele>
        <time>2016-05-01T11:49:32Z</time>
      </trkpt>
      <trkpt lat="43.46097" lon="5.76655">
        <ele>419.5</ele>
        <time>2016-05-01T11:49:40Z</time>
      </trkpt>
      <trkpt lat="43.46089" lon="5.7665">
        <ele>418.5</ele>
        <time>2016-05-01T11:49:47Z</time>
      </trkpt>
      <trkpt lat="43.46081" lon="5.76647">
        <ele>418.4</ele>
        <time>2016-05-01T11:49:59Z</time>
      </trkpt>
      <trkpt lat="43.46072" lon="5.76644">
        <ele>418</ele>
        <time>2016-05-01T11:53:05Z</time>
      </trkpt>
      <trkpt lat="43.46072" lon="5.76644">
        <ele>417.8</ele>
        <time>2016-05-01T11:53:06Z</time>
      </trkpt>
      <trkpt lat="43.46055" lon="5.76643">
        <ele>416.8</ele>
        <time>2016-05-01T11:53:26Z</time>
      </trkpt>
      <trkpt lat="43.46046" lon="5.76643">
        <ele>417.5</ele>
        <time>2016-05-01T11:53:36Z</time>
      </trkpt>
      <trkpt lat="43.46038" lon="5.76642">
        <ele>416.7</ele>
        <time>2016-05-01T11:53:44Z</time>
      </trkpt>
      <trkpt lat="43.4603" lon="5.7664">
        <ele>417.1</ele>
        <time>2016-05-01T11:53:53Z</time>
      </trkpt>
      <trkpt lat="43.46022" lon="5.76636">
        <ele>417</ele>
        <time>2016-05-01T11:54:01Z</time>
      </trkpt>
      <trkpt lat="43.46014" lon="5.76633">
        <ele>416.4</ele>
        <time>2016-05-01T11:54:09Z</time>
      </trkpt>
      <trkpt lat="43.46012" lon="5.76633">
        <ele>416.2</ele>
        <time>2016-05-01T11:54:10Z</time>
      </trkpt>
      <trkpt lat="43.45996" lon="5.76632">
        <ele>416.6</ele>
        <time>2016-05-01T11:54:24Z</time>
      </trkpt>
      <trkpt lat="43.45987" lon="5.76633">
        <ele>416.8</ele>
        <time>2016-05-01T11:54:32Z</time>
      </trkpt>
      <trkpt lat="43.45979" lon="5.76634">
        <ele>417.1</ele>
        <time>2016-05-01T11:54:41Z</time>
      </trkpt>
      <trkpt lat="43.4597" lon="5.76631">
        <ele>417.3</ele>
        <time>2016-05-01T11:55:01Z</time>
      </trkpt>
      <trkpt lat="43.45962" lon="5.7663">
        <ele>416.9</ele>
        <time>2016-05-01T11:55:07Z</time>
      </trkpt>
      <trkpt lat="43.45954" lon="5.76628">
        <ele>417.5</ele>
        <time>2016-05-01T11:55:13Z</time>
      </trkpt>
      <trkpt lat="43.45953" lon="5.76627">
        <ele>417.3</ele>
        <time>2016-05-01T11:55:14Z</time>
      </trkpt>
      <trkpt lat="43.45937" lon="5.76631">
        <ele>417.7</ele>
        <time>2016-05-01T11:55:27Z</time>
      </trkpt>
      <trkpt lat="43.45929" lon="5.76634">
        <ele>418.3</ele>
        <time>2016-05-01T11:55:34Z</time>
      </trkpt>
      <trkpt lat="43.45921" lon="5.76639">
        <ele>418.7</ele>
        <time>2016-05-01T11:55:42Z</time>
      </trkpt>
      <trkpt lat="43.45914" lon="5.76645">
        <ele>418.5</ele>
        <time>2016-05-01T11:55:52Z</time>
      </trkpt>
      <trkpt lat="43.45907" lon="5.76649">
        <ele>419.5</ele>
        <time>2016-05-01T11:56:00Z</time>
      </trkpt>
      <trkpt lat="43.45898" lon="5.76653">
        <ele>419.6</ele>
        <time>2016-05-01T11:56:12Z</time>
      </trkpt>
      <trkpt lat="43.45891" lon="5.76659">
        <ele>419.7</ele>
        <time>2016-05-01T11:56:20Z</time>
      </trkpt>
      <trkpt lat="43.4589" lon="5.7666">
        <ele>419.5</ele>
        <time>2016-05-01T11:56:21Z</time>
      </trkpt>
      <trkpt lat="43.45877" lon="5.76673">
        <ele>420.8</ele>
        <time>2016-05-01T11:56:38Z</time>
      </trkpt>
      <trkpt lat="43.45871" lon="5.76681">
        <ele>420.7</ele>
        <time>2016-05-01T11:56:56Z</time>
      </trkpt>
      <trkpt lat="43.45865" lon="5.76689">
        <ele>420.8</ele>
        <time>2016-05-01T11:57:05Z</time>
      </trkpt>
      <trkpt lat="43.45858" lon="5.76697">
        <ele>421.6</ele>
        <time>2016-05-01T11:57:13Z</time>
      </trkpt>
      <trkpt lat="43.45852" lon="5.76704">
        <ele>421.9</ele>
        <time>2016-05-01T11:57:20Z</time>
      </trkpt>
      <trkpt lat="43.45845" lon="5.7671">
        <ele>421.6</ele>
        <time>2016-05-01T11:57:26Z</time>
      </trkpt>
      <trkpt lat="43.45844" lon="5.76711">
        <ele>421.6</ele>
        <time>2016-05-01T11:57:27Z</time>
      </trkpt>
      <trkpt lat="43.45836" lon="5.76729">
        <ele>421.2</ele>
        <time>2016-05-01T11:57:41Z</time>
      </trkpt>
      <trkpt lat="43.4583" lon="5.76738">
        <ele>421.2</ele>
        <time>2016-05-01T11:57:49Z</time>
      </trkpt>
      <trkpt lat="43.45826" lon="5.76748">
        <ele>421.5</ele>
        <time>2016-05-01T11:58:00Z</time>
      </trkpt>
      <trkpt lat="43.4582" lon="5.76757">
        <ele>421.8</ele>
        <time>2016-05-01T11:59:04Z</time>
      </trkpt>
      <trkpt lat="43.45819" lon="5.76758">
        <ele>421.8</ele>
        <time>2016-05-01T11:59:05Z</time>
      </trkpt>
      <trkpt lat="43.45804" lon="5.76759">
        <ele>420.9</ele>
        <time>2016-05-01T11:59:21Z</time>
      </trkpt>
      <trkpt lat="43.45803" lon="5.76747">
        <ele>420.9</ele>
        <time>2016-05-01T11:59:38Z</time>
      </trkpt>
      <trkpt lat="43.45799" lon="5.76736">
        <ele>421.7</ele>
        <time>2016-05-01T11:59:50Z</time>
      </trkpt>
      <trkpt lat="43.45798" lon="5.76725">
        <ele>422.2</ele>
        <time>2016-05-01T12:00:02Z</time>
      </trkpt>
      <trkpt lat="43.458" lon="5.76713">
        <ele>422.5</ele>
        <time>2016-05-01T12:00:13Z</time>
      </trkpt>
      <trkpt lat="43.458" lon="5.76711">
        <ele>422.5</ele>
        <time>2016-05-01T12:00:14Z</time>
      </trkpt>
      <trkpt lat="43.45803" lon="5.7669">
        <ele>423.4</ele>
        <time>2016-05-01T12:00:35Z</time>
      </trkpt>
      <trkpt lat="43.45805" lon="5.76678">
        <ele>424</ele>
        <time>2016-05-01T12:00:44Z</time>
      </trkpt>
      <trkpt lat="43.45807" lon="5.76667">
        <ele>424.2</ele>
        <time>2016-05-01T12:00:52Z</time>
      </trkpt>
      <trkpt lat="43.45807" lon="5.76655">
        <ele>424.6</ele>
        <time>2016-05-01T12:01:01Z</time>
      </trkpt>
      <trkpt lat="43.45805" lon="5.76643">
        <ele>425.1</ele>
        <time>2016-05-01T12:01:10Z</time>
      </trkpt>
      <trkpt lat="43.45803" lon="5.76632">
        <ele>425.2</ele>
        <time>2016-05-01T12:01:19Z</time>
      </trkpt>
      <trkpt lat="43.45803" lon="5.7663">
        <ele>425.4</ele>
        <time>2016-05-01T12:01:20Z</time>
      </trkpt>
      <trkpt lat="43.45798" lon="5.76608">
        <ele>426.2</ele>
        <time>2016-05-01T12:01:38Z</time>
      </trkpt>
      <trkpt lat="43.458" lon="5.76597">
        <ele>426.7</ele>
        <time>2016-05-01T12:01:45Z</time>
      </trkpt>
      <trkpt lat="43.45796" lon="5.76587">
        <ele>426</ele>
        <time>2016-05-01T12:01:54Z</time>
      </trkpt>
      <trkpt lat="43.45795" lon="5.76575">
        <ele>426.9</ele>
        <time>2016-05-01T12:02:04Z</time>
      </trkpt>
      <trkpt lat="43.45796" lon="5.76563">
        <ele>427</ele>
        <time>2016-05-01T12:02:13Z</time>
      </trkpt>
      <trkpt lat="43.45796" lon="5.76551">
        <ele>426.8</ele>
        <time>2016-05-01T12:02:21Z</time>
      </trkpt>
      <trkpt lat="43.45796" lon="5.7655">
        <ele>426.7</ele>
        <time>2016-05-01T12:02:22Z</time>
      </trkpt>
      <trkpt lat="43.45794" lon="5.76528">
        <ele>426.4</ele>
        <time>2016-05-01T12:02:37Z</time>
      </trkpt>
      <trkpt lat="43.4579" lon="5.76518">
        <ele>426</ele>
        <time>2016-05-01T12:02:45Z</time>
      </trkpt>
      <trkpt lat="43.45787" lon="5.76508">
        <ele>426.3</ele>
        <time>2016-05-01T12:02:53Z</time>
      </trkpt>
      <trkpt lat="43.45785" lon="5.76497">
        <ele>426.4</ele>
        <time>2016-05-01T12:03:01Z</time>
      </trkpt>
      <trkpt lat="43.4578" lon="5.76487">
        <ele>426.4</ele>
        <time>2016-05-01T12:03:09Z</time>
      </trkpt>
      <trkpt lat="43.45773" lon="5.76479">
        <ele>426.5</ele>
        <time>2016-05-01T12:03:17Z</time>
      </trkpt>
      <trkpt lat="43.45768" lon="5.76468">
        <ele>426.5</ele>
        <time>2016-05-01T12:03:26Z</time>
      </trkpt>
      <trkpt lat="43.45768" lon="5.76467">
        <ele>426.5</ele>
        <time>2016-05-01T12:03:27Z</time>
      </trkpt>
      <trkpt lat="43.4576" lon="5.76449">
        <ele>426.3</ele>
        <time>2016-05-01T12:03:46Z</time>
      </trkpt>
      <trkpt lat="43.45764" lon="5.76438">
        <ele>425.4</ele>
        <time>2016-05-01T12:04:09Z</time>
      </trkpt>
      <trkpt lat="43.45772" lon="5.76436">
        <ele>424.6</ele>
        <time>2016-05-01T12:04:17Z</time>
      </trkpt>
      <trkpt lat="43.4578" lon="5.76434">
        <ele>424.5</ele>
        <time>2016-05-01T12:04:24Z</time>
      </trkpt>
      <trkpt lat="43.45788" lon="5.76431">
        <ele>423.7</ele>
        <time>2016-05-01T12:04:34Z</time>
      </trkpt>
      <trkpt lat="43.4579" lon="5.76431">
        <ele>423.8</ele>
        <time>2016-05-01T12:04:35Z</time>
      </trkpt>
      <trkpt lat="43.45805" lon="5.76424">
        <ele>423.6</ele>
        <time>2016-05-01T12:04:50Z</time>
      </trkpt>
      <trkpt lat="43.45812" lon="5.7642">
        <ele>422.9</ele>
        <time>2016-05-01T12:04:57Z</time>
      </trkpt>
      <trkpt lat="43.45819" lon="5.76414">
        <ele>422</ele>
        <time>2016-05-01T12:05:03Z</time>
      </trkpt>
      <trkpt lat="43.45826" lon="5.76409">
        <ele>421.2</ele>
        <time>2016-05-01T12:05:09Z</time>
      </trkpt>
      <trkpt lat="43.45833" lon="5.76403">
        <ele>419.9</ele>
        <time>2016-05-01T12:05:16Z</time>
      </trkpt>
      <trkpt lat="43.45839" lon="5.76397">
        <ele>419.1</ele>
        <time>2016-05-01T12:05:22Z</time>
      </trkpt>
      <trkpt lat="43.45846" lon="5.7639">
        <ele>418.3</ele>
        <time>2016-05-01T12:05:27Z</time>
      </trkpt>
      <trkpt lat="43.45849" lon="5.76379">
        <ele>418.7</ele>
        <time>2016-05-01T12:05:37Z</time>
      </trkpt>
      <trkpt lat="43.4585" lon="5.76377">
        <ele>418.4</ele>
        <time>2016-05-01T12:05:38Z</time>
      </trkpt>
      <trkpt lat="43.45853" lon="5.76358">
        <ele>418.8</ele>
        <time>2016-05-01T12:05:52Z</time>
      </trkpt>
      <trkpt lat="43.45853" lon="5.76346">
        <ele>418.9</ele>
        <time>2016-05-01T12:05:59Z</time>
      </trkpt>
      <trkpt lat="43.4585" lon="5.76335">
        <ele>418.9</ele>
        <time>2016-05-01T12:06:08Z</time>
      </trkpt>
      <trkpt lat="43.45847" lon="5.76324">
        <ele>420.2</ele>
        <time>2016-05-01T12:06:16Z</time>
      </trkpt>
      <trkpt lat="43.45845" lon="5.76313">
        <ele>421.1</ele>
        <time>2016-05-01T12:06:25Z</time>
      </trkpt>
      <trkpt lat="43.45843" lon="5.76302">
        <ele>421.7</ele>
        <time>2016-05-01T12:06:34Z</time>
      </trkpt>
      <trkpt lat="43.45839" lon="5.76292">
        <ele>422.9</ele>
        <time>2016-05-01T12:06:43Z</time>
      </trkpt>
      <trkpt lat="43.45838" lon="5.76291">
        <ele>422.9</ele>
        <time>2016-05-01T12:06:44Z</time>
      </trkpt>
      <trkpt lat="43.45835" lon="5.76269">
        <ele>424.1</ele>
        <time>2016-05-01T12:07:02Z</time>
      </trkpt>
      <trkpt lat="43.45831" lon="5.76258">
        <ele>424.9</ele>
        <time>2016-05-01T12:07:12Z</time>
      </trkpt>
      <trkpt lat="43.45833" lon="5.76246">
        <ele>426.7</ele>
        <time>2016-05-01T12:07:23Z</time>
      </trkpt>
      <trkpt lat="43.45831" lon="5.76235">
        <ele>427.4</ele>
        <time>2016-05-01T12:07:31Z</time>
      </trkpt>
      <trkpt lat="43.45829" lon="5.76223">
        <ele>428.1</ele>
        <time>2016-05-01T12:07:39Z</time>
      </trkpt>
      <trkpt lat="43.45826" lon="5.76212">
        <ele>428</ele>
        <time>2016-05-01T12:07:47Z</time>
      </trkpt>
      <trkpt lat="43.45826" lon="5.76211">
        <ele>428.1</ele>
        <time>2016-05-01T12:07:48Z</time>
      </trkpt>
      <trkpt lat="43.45812" lon="5.76205">
        <ele>429.1</ele>
        <time>2016-05-01T12:08:25Z</time>
      </trkpt>
      <trkpt lat="43.45811" lon="5.76193">
        <ele>428.4</ele>
        <time>2016-05-01T12:09:03Z</time>
      </trkpt>
      <trkpt lat="43.45811" lon="5.76192">
        <ele>428.2</ele>
        <time>2016-05-01T12:09:04Z</time>
      </trkpt>
      <trkpt lat="43.45809" lon="5.76171">
        <ele>426.9</ele>
        <time>2016-05-01T12:09:26Z</time>
      </trkpt>
      <trkpt lat="43.45806" lon="5.76161">
        <ele>426.5</ele>
        <time>2016-05-01T12:09:32Z</time>
      </trkpt>
      <trkpt lat="43.45801" lon="5.76153">
        <ele>425.4</ele>
        <time>2016-05-01T12:09:39Z</time>
      </trkpt>
      <trkpt lat="43.45797" lon="5.76143">
        <ele>424.7</ele>
        <time>2016-05-01T12:09:46Z</time>
      </trkpt>
      <trkpt lat="43.45791" lon="5.76134">
        <ele>424.5</ele>
        <time>2016-05-01T12:09:54Z</time>
      </trkpt>
      <trkpt lat="43.45786" lon="5.76124">
        <ele>423.8</ele>
        <time>2016-05-01T12:10:03Z</time>
      </trkpt>
      <trkpt lat="43.45781" lon="5.76115">
        <ele>423.4</ele>
        <time>2016-05-01T12:10:12Z</time>
      </trkpt>
      <trkpt lat="43.45781" lon="5.76114">
        <ele>423.5</ele>
        <time>2016-05-01T12:10:13Z</time>
      </trkpt>
      <trkpt lat="43.45774" lon="5.76095">
        <ele>422.8</ele>
        <time>2016-05-01T12:10:29Z</time>
      </trkpt>
      <trkpt lat="43.45772" lon="5.76083">
        <ele>422.2</ele>
        <time>2016-05-01T12:10:37Z</time>
      </trkpt>
      <trkpt lat="43.45771" lon="5.76071">
        <ele>421.8</ele>
        <time>2016-05-01T12:10:45Z</time>
      </trkpt>
      <trkpt lat="43.45774" lon="5.76059">
        <ele>421.3</ele>
        <time>2016-05-01T12:10:53Z</time>
      </trkpt>
      <trkpt lat="43.45774" lon="5.76048">
        <ele>421.5</ele>
        <time>2016-05-01T12:11:02Z</time>
      </trkpt>
      <trkpt lat="43.45771" lon="5.76036">
        <ele>421.7</ele>
        <time>2016-05-01T12:11:10Z</time>
      </trkpt>
      <trkpt lat="43.45768" lon="5.76026">
        <ele>421.6</ele>
        <time>2016-05-01T12:11:17Z</time>
      </trkpt>
      <trkpt lat="43.45768" lon="5.76025">
        <ele>421.5</ele>
        <time>2016-05-01T12:11:18Z</time>
      </trkpt>
      <trkpt lat="43.45761" lon="5.76004">
        <ele>421</ele>
        <time>2016-05-01T12:11:31Z</time>
      </trkpt>
      <trkpt lat="43.45756" lon="5.75995">
        <ele>420.5</ele>
        <time>2016-05-01T12:11:38Z</time>
      </trkpt>
      <trkpt lat="43.45753" lon="5.75984">
        <ele>420.3</ele>
        <time>2016-05-01T12:11:45Z</time>
      </trkpt>
      <trkpt lat="43.45748" lon="5.75974">
        <ele>419.2</ele>
        <time>2016-05-01T12:11:53Z</time>
      </trkpt>
      <trkpt lat="43.45743" lon="5.75965">
        <ele>418.4</ele>
        <time>2016-05-01T12:12:00Z</time>
      </trkpt>
      <trkpt lat="43.45739" lon="5.75955">
        <ele>418.4</ele>
        <time>2016-05-01T12:12:11Z</time>
      </trkpt>
      <trkpt lat="43.45739" lon="5.75943">
        <ele>418.4</ele>
        <time>2016-05-01T12:12:20Z</time>
      </trkpt>
      <trkpt lat="43.45738" lon="5.75942">
        <ele>418.5</ele>
        <time>2016-05-01T12:12:21Z</time>
      </trkpt>
      <trkpt lat="43.45741" lon="5.75922">
        <ele>419.6</ele>
        <time>2016-05-01T12:12:42Z</time>
      </trkpt>
      <trkpt lat="43.45747" lon="5.75914">
        <ele>419.9</ele>
        <time>2016-05-01T12:12:49Z</time>
      </trkpt>
      <trkpt lat="43.45751" lon="5.75903">
        <ele>419.8</ele>
        <time>2016-05-01T12:12:57Z</time>
      </trkpt>
      <trkpt lat="43.45752" lon="5.75891">
        <ele>420.5</ele>
        <time>2016-05-01T12:13:06Z</time>
      </trkpt>
      <trkpt lat="43.45756" lon="5.7588">
        <ele>421.8</ele>
        <time>2016-05-01T12:13:14Z</time>
      </trkpt>
      <trkpt lat="43.45762" lon="5.75871">
        <ele>420.7</ele>
        <time>2016-05-01T12:13:33Z</time>
      </trkpt>
      <trkpt lat="43.45763" lon="5.75871">
        <ele>420.7</ele>
        <time>2016-05-01T12:13:34Z</time>
      </trkpt>
      <trkpt lat="43.45777" lon="5.75857">
        <ele>419.2</ele>
        <time>2016-05-01T12:13:56Z</time>
      </trkpt>
      <trkpt lat="43.45783" lon="5.7585">
        <ele>417.9</ele>
        <time>2016-05-01T12:14:05Z</time>
      </trkpt>
      <trkpt lat="43.45789" lon="5.75841">
        <ele>416.9</ele>
        <time>2016-05-01T12:14:13Z</time>
      </trkpt>
      <trkpt lat="43.45793" lon="5.7583">
        <ele>415</ele>
        <time>2016-05-01T12:14:21Z</time>
      </trkpt>
      <trkpt lat="43.45799" lon="5.75821">
        <ele>414.3</ele>
        <time>2016-05-01T12:14:29Z</time>
      </trkpt>
      <trkpt lat="43.45808" lon="5.7582">
        <ele>414</ele>
        <time>2016-05-01T12:14:37Z</time>
      </trkpt>
      <trkpt lat="43.45809" lon="5.7582">
        <ele>414.3</ele>
        <time>2016-05-01T12:14:38Z</time>
      </trkpt>
      <trkpt lat="43.45825" lon="5.75821">
        <ele>416.5</ele>
        <time>2016-05-01T12:14:59Z</time>
      </trkpt>
      <trkpt lat="43.45833" lon="5.75817">
        <ele>416.2</ele>
        <time>2016-05-01T12:15:08Z</time>
      </trkpt>
      <trkpt lat="43.4584" lon="5.75811">
        <ele>415.3</ele>
        <time>2016-05-01T12:15:17Z</time>
      </trkpt>
      <trkpt lat="43.45849" lon="5.75808">
        <ele>414.3</ele>
        <time>2016-05-01T12:15:24Z</time>
      </trkpt>
      <trkpt lat="43.45856" lon="5.75802">
        <ele>413.7</ele>
        <time>2016-05-01T12:15:34Z</time>
      </trkpt>
      <trkpt lat="43.45864" lon="5.75796">
        <ele>411.8</ele>
        <time>2016-05-01T12:15:43Z</time>
      </trkpt>
      <trkpt lat="43.45865" lon="5.75796">
        <ele>411.8</ele>
        <time>2016-05-01T12:15:44Z</time>
      </trkpt>
      <trkpt lat="43.45879" lon="5.75784">
        <ele>410.5</ele>
        <time>2016-05-01T12:15:59Z</time>
      </trkpt>
      <trkpt lat="43.45886" lon="5.75779">
        <ele>409.2</ele>
        <time>2016-05-01T12:16:08Z</time>
      </trkpt>
      <trkpt lat="43.45893" lon="5.75773">
        <ele>407.8</ele>
        <time>2016-05-01T12:16:15Z</time>
      </trkpt>
      <trkpt lat="43.459" lon="5.75768">
        <ele>407.8</ele>
        <time>2016-05-01T12:16:21Z</time>
      </trkpt>
      <trkpt lat="43.45908" lon="5.75762">
        <ele>405.8</ele>
        <time>2016-05-01T12:16:31Z</time>
      </trkpt>
      <trkpt lat="43.45915" lon="5.75757">
        <ele>405.3</ele>
        <time>2016-05-01T12:16:44Z</time>
      </trkpt>
      <trkpt lat="43.45917" lon="5.75756">
        <ele>405.2</ele>
        <time>2016-05-01T12:16:45Z</time>
      </trkpt>
      <trkpt lat="43.45929" lon="5.75745">
        <ele>403.1</ele>
        <time>2016-05-01T12:16:59Z</time>
      </trkpt>
      <trkpt lat="43.45935" lon="5.75736">
        <ele>400.9</ele>
        <time>2016-05-01T12:17:11Z</time>
      </trkpt>
      <trkpt lat="43.45942" lon="5.7573">
        <ele>401.4</ele>
        <time>2016-05-01T12:17:18Z</time>
      </trkpt>
      <trkpt lat="43.45947" lon="5.75721">
        <ele>400.8</ele>
        <time>2016-05-01T12:17:25Z</time>
      </trkpt>
      <trkpt lat="43.45954" lon="5.75716">
        <ele>400.7</ele>
        <time>2016-05-01T12:17:33Z</time>
      </trkpt>
      <trkpt lat="43.45961" lon="5.75708">
        <ele>398.5</ele>
        <time>2016-05-01T12:18:07Z</time>
      </trkpt>
      <trkpt lat="43.45962" lon="5.75707">
        <ele>398.4</ele>
        <time>2016-05-01T12:18:08Z</time>
      </trkpt>
      <trkpt lat="43.45973" lon="5.75692">
        <ele>396.5</ele>
        <time>2016-05-01T12:18:26Z</time>
      </trkpt>
      <trkpt lat="43.45981" lon="5.75689">
        <ele>395.2</ele>
        <time>2016-05-01T12:18:36Z</time>
      </trkpt>
      <trkpt lat="43.45989" lon="5.75683">
        <ele>393.7</ele>
        <time>2016-05-01T12:18:47Z</time>
      </trkpt>
      <trkpt lat="43.45997" lon="5.75679">
        <ele>392.6</ele>
        <time>2016-05-01T12:18:55Z</time>
      </trkpt>
      <trkpt lat="43.46006" lon="5.75678">
        <ele>391.7</ele>
        <time>2016-05-01T12:19:05Z</time>
      </trkpt>
      <trkpt lat="43.46014" lon="5.75676">
        <ele>391</ele>
        <time>2016-05-01T12:19:14Z</time>
      </trkpt>
      <trkpt lat="43.46015" lon="5.75676">
        <ele>390.8</ele>
        <time>2016-05-01T12:19:15Z</time>
      </trkpt>
      <trkpt lat="43.4603" lon="5.75673">
        <ele>389.7</ele>
        <time>2016-05-01T12:19:32Z</time>
      </trkpt>
      <trkpt lat="43.46038" lon="5.75672">
        <ele>390.1</ele>
        <time>2016-05-01T12:19:39Z</time>
      </trkpt>
      <trkpt lat="43.46047" lon="5.75671">
        <ele>389.7</ele>
        <time>2016-05-01T12:19:45Z</time>
      </trkpt>
      <trkpt lat="43.46055" lon="5.75672">
        <ele>388.9</ele>
        <time>2016-05-01T12:19:53Z</time>
      </trkpt>
      <trkpt lat="43.46064" lon="5.75673">
        <ele>389.3</ele>
        <time>2016-05-01T12:20:04Z</time>
      </trkpt>
      <trkpt lat="43.46072" lon="5.75671">
        <ele>389</ele>
        <time>2016-05-01T12:20:11Z</time>
      </trkpt>
      <trkpt lat="43.4608" lon="5.75673">
        <ele>388.6</ele>
        <time>2016-05-01T12:20:19Z</time>
      </trkpt>
      <trkpt lat="43.46082" lon="5.75672">
        <ele>388.6</ele>
        <time>2016-05-01T12:20:20Z</time>
      </trkpt>
      <trkpt lat="43.46097" lon="5.75675">
        <ele>387.4</ele>
        <time>2016-05-01T12:20:35Z</time>
      </trkpt>
      <trkpt lat="43.46106" lon="5.75677">
        <ele>386.7</ele>
        <time>2016-05-01T12:20:44Z</time>
      </trkpt>
      <trkpt lat="43.46114" lon="5.75679">
        <ele>386</ele>
        <time>2016-05-01T12:20:53Z</time>
      </trkpt>
      <trkpt lat="43.46123" lon="5.75681">
        <ele>385.2</ele>
        <time>2016-05-01T12:21:01Z</time>
      </trkpt>
      <trkpt lat="43.46131" lon="5.75681">
        <ele>384.6</ele>
        <time>2016-05-01T12:21:10Z</time>
      </trkpt>
      <trkpt lat="43.46139" lon="5.75682">
        <ele>383.5</ele>
        <time>2016-05-01T12:21:18Z</time>
      </trkpt>
      <trkpt lat="43.46147" lon="5.75686">
        <ele>383.4</ele>
        <time>2016-05-01T12:21:28Z</time>
      </trkpt>
      <trkpt lat="43.46148" lon="5.75686">
        <ele>383.3</ele>
        <time>2016-05-01T12:21:29Z</time>
      </trkpt>
      <trkpt lat="43.46163" lon="5.75695">
        <ele>380.8</ele>
        <time>2016-05-01T12:21:44Z</time>
      </trkpt>
      <trkpt lat="43.46171" lon="5.757">
        <ele>379.8</ele>
        <time>2016-05-01T12:21:53Z</time>
      </trkpt>
      <trkpt lat="43.46179" lon="5.75699">
        <ele>379.3</ele>
        <time>2016-05-01T12:22:00Z</time>
      </trkpt>
      <trkpt lat="43.46187" lon="5.75696">
        <ele>378.5</ele>
        <time>2016-05-01T12:22:07Z</time>
      </trkpt>
      <trkpt lat="43.46194" lon="5.7569">
        <ele>378.2</ele>
        <time>2016-05-01T12:22:13Z</time>
      </trkpt>
      <trkpt lat="43.46203" lon="5.75688">
        <ele>377.4</ele>
        <time>2016-05-01T12:22:21Z</time>
      </trkpt>
      <trkpt lat="43.46211" lon="5.75687">
        <ele>376.8</ele>
        <time>2016-05-01T12:22:30Z</time>
      </trkpt>
      <trkpt lat="43.46212" lon="5.75686">
        <ele>376.6</ele>
        <time>2016-05-01T12:22:31Z</time>
      </trkpt>
      <trkpt lat="43.46217" lon="5.75668">
        <ele>374.5</ele>
        <time>2016-05-01T12:23:31Z</time>
      </trkpt>
      <trkpt lat="43.46217" lon="5.75668">
        <ele>374.3</ele>
        <time>2016-05-01T12:23:32Z</time>
      </trkpt>
      <trkpt lat="43.46221" lon="5.7568">
        <ele>374.5</ele>
        <time>2016-05-01T12:25:05Z</time>
      </trkpt>
      <trkpt lat="43.46229" lon="5.75674">
        <ele>374.8</ele>
        <time>2016-05-01T12:26:15Z</time>
      </trkpt>
      <trkpt lat="43.46238" lon="5.75673">
        <ele>373.5</ele>
        <time>2016-05-01T12:28:16Z</time>
      </trkpt>
      <trkpt lat="43.46255" lon="5.75673">
        <ele>371</ele>
        <time>2016-05-01T12:29:38Z</time>
      </trkpt>
      <trkpt lat="43.46255" lon="5.75672">
        <ele>371</ele>
        <time>2016-05-01T12:29:39Z</time>
      </trkpt>
      <trkpt lat="43.46263" lon="5.75653">
        <ele>371.4</ele>
        <time>2016-05-01T12:29:56Z</time>
      </trkpt>
      <trkpt lat="43.46263" lon="5.75641">
        <ele>369.3</ele>
        <time>2016-05-01T12:30:07Z</time>
      </trkpt>
      <trkpt lat="43.46257" lon="5.75634">
        <ele>369.2</ele>
        <time>2016-05-01T12:30:28Z</time>
      </trkpt>
      <trkpt lat="43.46257" lon="5.75622">
        <ele>370.2</ele>
        <time>2016-05-01T12:30:39Z</time>
      </trkpt>
      <trkpt lat="43.46257" lon="5.75621">
        <ele>370.2</ele>
        <time>2016-05-01T12:30:40Z</time>
      </trkpt>
      <trkpt lat="43.46258" lon="5.75598">
        <ele>370.8</ele>
        <time>2016-05-01T12:30:58Z</time>
      </trkpt>
      <trkpt lat="43.46258" lon="5.75586">
        <ele>371.3</ele>
        <time>2016-05-01T12:31:09Z</time>
      </trkpt>
      <trkpt lat="43.46259" lon="5.75574">
        <ele>370.8</ele>
        <time>2016-05-01T12:31:22Z</time>
      </trkpt>
      <trkpt lat="43.46258" lon="5.75562">
        <ele>371.4</ele>
        <time>2016-05-01T12:31:34Z</time>
      </trkpt>
      <trkpt lat="43.46259" lon="5.7555">
        <ele>371.2</ele>
        <time>2016-05-01T12:31:46Z</time>
      </trkpt>
      <trkpt lat="43.46259" lon="5.7555">
        <ele>371.2</ele>
        <time>2016-05-01T12:31:47Z</time>
      </trkpt>
      <trkpt lat="43.46254" lon="5.75527">
        <ele>372.7</ele>
        <time>2016-05-01T12:32:11Z</time>
      </trkpt>
      <trkpt lat="43.46256" lon="5.75515">
        <ele>372.3</ele>
        <time>2016-05-01T12:32:24Z</time>
      </trkpt>
      <trkpt lat="43.46258" lon="5.75503">
        <ele>370.9</ele>
        <time>2016-05-01T12:32:47Z</time>
      </trkpt>
      <trkpt lat="43.46258" lon="5.75503">
        <ele>370.9</ele>
        <time>2016-05-01T12:32:48Z</time>
      </trkpt>
      <trkpt lat="43.46275" lon="5.75504">
        <ele>368.7</ele>
        <time>2016-05-01T12:33:17Z</time>
      </trkpt>
      <trkpt lat="43.46283" lon="5.75507">
        <ele>366.8</ele>
        <time>2016-05-01T12:33:32Z</time>
      </trkpt>
      <trkpt lat="43.46291" lon="5.75506">
        <ele>366.8</ele>
        <time>2016-05-01T12:33:41Z</time>
      </trkpt>
      <trkpt lat="43.46299" lon="5.75509">
        <ele>365.5</ele>
        <time>2016-05-01T12:33:52Z</time>
      </trkpt>
      <trkpt lat="43.463" lon="5.75509">
        <ele>365.6</ele>
        <time>2016-05-01T12:33:53Z</time>
      </trkpt>
      <trkpt lat="43.46317" lon="5.75505">
        <ele>365.3</ele>
        <time>2016-05-01T12:34:20Z</time>
      </trkpt>
      <trkpt lat="43.46325" lon="5.75504">
        <ele>363</ele>
        <time>2016-05-01T12:34:30Z</time>
      </trkpt>
      <trkpt lat="43.46333" lon="5.75497">
        <ele>361.7</ele>
        <time>2016-05-01T12:34:53Z</time>
      </trkpt>
      <trkpt lat="43.46333" lon="5.75497">
        <ele>361.7</ele>
        <time>2016-05-01T12:34:54Z</time>
      </trkpt>
      <trkpt lat="43.46349" lon="5.75487">
        <ele>359.9</ele>
        <time>2016-05-01T12:35:23Z</time>
      </trkpt>
      <trkpt lat="43.46354" lon="5.75478">
        <ele>358.7</ele>
        <time>2016-05-01T12:35:36Z</time>
      </trkpt>
      <trkpt lat="43.4636" lon="5.75469">
        <ele>357.7</ele>
        <time>2016-05-01T12:35:50Z</time>
      </trkpt>
      <trkpt lat="43.46364" lon="5.75459">
        <ele>356.2</ele>
        <time>2016-05-01T12:36:04Z</time>
      </trkpt>
      <trkpt lat="43.46364" lon="5.75458">
        <ele>356</ele>
        <time>2016-05-01T12:36:05Z</time>
      </trkpt>
      <trkpt lat="43.46375" lon="5.75442">
        <ele>355.7</ele>
        <time>2016-05-01T12:36:25Z</time>
      </trkpt>
      <trkpt lat="43.46375" lon="5.75431">
        <ele>354.5</ele>
        <time>2016-05-01T12:36:43Z</time>
      </trkpt>
      <trkpt lat="43.46379" lon="5.75421">
        <ele>354.4</ele>
        <time>2016-05-01T12:37:07Z</time>
      </trkpt>
      <trkpt lat="43.4638" lon="5.7542">
        <ele>354.1</ele>
        <time>2016-05-01T12:37:08Z</time>
      </trkpt>
      <trkpt lat="43.46391" lon="5.75406">
        <ele>352.9</ele>
        <time>2016-05-01T12:37:34Z</time>
      </trkpt>
      <trkpt lat="43.46398" lon="5.75398">
        <ele>352.9</ele>
        <time>2016-05-01T12:37:55Z</time>
      </trkpt>
      <trkpt lat="43.464" lon="5.75386">
        <ele>352.5</ele>
        <time>2016-05-01T12:38:15Z</time>
      </trkpt>
      <trkpt lat="43.464" lon="5.75386">
        <ele>352.6</ele>
        <time>2016-05-01T12:38:16Z</time>
      </trkpt>
      <trkpt lat="43.46403" lon="5.75398">
        <ele>353.2</ele>
        <time>2016-05-01T12:39:39Z</time>
      </trkpt>
      <trkpt lat="43.46413" lon="5.75415">
        <ele>353.4</ele>
        <time>2016-05-01T12:40:06Z</time>
      </trkpt>
      <trkpt lat="43.46418" lon="5.75425">
        <ele>353.2</ele>
        <time>2016-05-01T12:40:19Z</time>
      </trkpt>
      <trkpt lat="43.46424" lon="5.75433">
        <ele>352.8</ele>
        <time>2016-05-01T12:40:33Z</time>
      </trkpt>
      <trkpt lat="43.46425" lon="5.75445">
        <ele>353.7</ele>
        <time>2016-05-01T12:40:59Z</time>
      </trkpt>
      <trkpt lat="43.46425" lon="5.75446">
        <ele>353.6</ele>
        <time>2016-05-01T12:41:00Z</time>
      </trkpt>
      <trkpt lat="43.46432" lon="5.75465">
        <ele>354.5</ele>
        <time>2016-05-01T12:41:24Z</time>
      </trkpt>
      <trkpt lat="43.46438" lon="5.75474">
        <ele>355.6</ele>
        <time>2016-05-01T12:41:36Z</time>
      </trkpt>
      <trkpt lat="43.46445" lon="5.7548">
        <ele>356.5</ele>
        <time>2016-05-01T12:42:12Z</time>
      </trkpt>
      <trkpt lat="43.46445" lon="5.75481">
        <ele>356.7</ele>
        <time>2016-05-01T12:42:13Z</time>
      </trkpt>
      <trkpt lat="43.46453" lon="5.75499">
        <ele>357</ele>
        <time>2016-05-01T12:42:29Z</time>
      </trkpt>
      <trkpt lat="43.4646" lon="5.75506">
        <ele>356.2</ele>
        <time>2016-05-01T12:42:36Z</time>
      </trkpt>
      <trkpt lat="43.46469" lon="5.75505">
        <ele>356.2</ele>
        <time>2016-05-01T12:42:44Z</time>
      </trkpt>
      <trkpt lat="43.46476" lon="5.75499">
        <ele>355.8</ele>
        <time>2016-05-01T12:42:51Z</time>
      </trkpt>
      <trkpt lat="43.46484" lon="5.75494">
        <ele>355.8</ele>
        <time>2016-05-01T12:42:56Z</time>
      </trkpt>
      <trkpt lat="43.46491" lon="5.75487">
        <ele>355.3</ele>
        <time>2016-05-01T12:43:03Z</time>
      </trkpt>
      <trkpt lat="43.46499" lon="5.75485">
        <ele>354.8</ele>
        <time>2016-05-01T12:43:11Z</time>
      </trkpt>
      <trkpt lat="43.46507" lon="5.75485">
        <ele>354.3</ele>
        <time>2016-05-01T12:43:19Z</time>
      </trkpt>
      <trkpt lat="43.46508" lon="5.75485">
        <ele>354.5</ele>
        <time>2016-05-01T12:43:20Z</time>
      </trkpt>
      <trkpt lat="43.46523" lon="5.75484">
        <ele>353.8</ele>
        <time>2016-05-01T12:43:38Z</time>
      </trkpt>
      <trkpt lat="43.46531" lon="5.75481">
        <ele>354</ele>
        <time>2016-05-01T12:43:45Z</time>
      </trkpt>
      <trkpt lat="43.46538" lon="5.75475">
        <ele>353.1</ele>
        <time>2016-05-01T12:43:52Z</time>
      </trkpt>
      <trkpt lat="43.46547" lon="5.75472">
        <ele>352.7</ele>
        <time>2016-05-01T12:44:02Z</time>
      </trkpt>
      <trkpt lat="43.46555" lon="5.75466">
        <ele>351.8</ele>
        <time>2016-05-01T12:44:12Z</time>
      </trkpt>
      <trkpt lat="43.4656" lon="5.75458">
        <ele>351.5</ele>
        <time>2016-05-01T12:44:20Z</time>
      </trkpt>
      <trkpt lat="43.46561" lon="5.75457">
        <ele>351.3</ele>
        <time>2016-05-01T12:44:21Z</time>
      </trkpt>
      <trkpt lat="43.46572" lon="5.75443">
        <ele>351.1</ele>
        <time>2016-05-01T12:44:33Z</time>
      </trkpt>
      <trkpt lat="43.46578" lon="5.75435">
        <ele>351.1</ele>
        <time>2016-05-01T12:44:40Z</time>
      </trkpt>
      <trkpt lat="43.46585" lon="5.75428">
        <ele>350.3</ele>
        <time>2016-05-01T12:44:48Z</time>
      </trkpt>
      <trkpt lat="43.46592" lon="5.75421">
        <ele>350.2</ele>
        <time>2016-05-01T12:44:54Z</time>
      </trkpt>
      <trkpt lat="43.46597" lon="5.75414">
        <ele>349.7</ele>
        <time>2016-05-01T12:45:00Z</time>
      </trkpt>
      <trkpt lat="43.46603" lon="5.75406">
        <ele>349.3</ele>
        <time>2016-05-01T12:45:06Z</time>
      </trkpt>
      <trkpt lat="43.46609" lon="5.75398">
        <ele>348.5</ele>
        <time>2016-05-01T12:45:13Z</time>
      </trkpt>
      <trkpt lat="43.46614" lon="5.7539">
        <ele>348.2</ele>
        <time>2016-05-01T12:45:20Z</time>
      </trkpt>
      <trkpt lat="43.46621" lon="5.75383">
        <ele>347.7</ele>
        <time>2016-05-01T12:45:28Z</time>
      </trkpt>
      <trkpt lat="43.46622" lon="5.75382">
        <ele>347.7</ele>
        <time>2016-05-01T12:45:29Z</time>
      </trkpt>
      <trkpt lat="43.46634" lon="5.75368">
        <ele>347.2</ele>
        <time>2016-05-01T12:45:42Z</time>
      </trkpt>
      <trkpt lat="43.46641" lon="5.75361">
        <ele>347</ele>
        <time>2016-05-01T12:45:49Z</time>
      </trkpt>
      <trkpt lat="43.46647" lon="5.75353">
        <ele>347.4</ele>
        <time>2016-05-01T12:45:57Z</time>
      </trkpt>
      <trkpt lat="43.46653" lon="5.75346">
        <ele>346.2</ele>
        <time>2016-05-01T12:46:05Z</time>
      </trkpt>
      <trkpt lat="43.4666" lon="5.75339">
        <ele>346.6</ele>
        <time>2016-05-01T12:46:12Z</time>
      </trkpt>
      <trkpt lat="43.46666" lon="5.75332">
        <ele>346.4</ele>
        <time>2016-05-01T12:46:18Z</time>
      </trkpt>
      <trkpt lat="43.46671" lon="5.75324">
        <ele>346.4</ele>
        <time>2016-05-01T12:46:26Z</time>
      </trkpt>
      <trkpt lat="43.46678" lon="5.75317">
        <ele>346.5</ele>
        <time>2016-05-01T12:46:34Z</time>
      </trkpt>
      <trkpt lat="43.46678" lon="5.75316">
        <ele>346.6</ele>
        <time>2016-05-01T12:46:35Z</time>
      </trkpt>
      <trkpt lat="43.46681" lon="5.75296">
        <ele>345.5</ele>
        <time>2016-05-01T12:46:48Z</time>
      </trkpt>
      <trkpt lat="43.46684" lon="5.75285">
        <ele>344.5</ele>
        <time>2016-05-01T12:46:55Z</time>
      </trkpt>
      <trkpt lat="43.46685" lon="5.75274">
        <ele>343.1</ele>
        <time>2016-05-01T12:47:04Z</time>
      </trkpt>
      <trkpt lat="43.46687" lon="5.75262">
        <ele>342.1</ele>
        <time>2016-05-01T12:47:13Z</time>
      </trkpt>
      <trkpt lat="43.46687" lon="5.75251">
        <ele>341.6</ele>
        <time>2016-05-01T12:47:23Z</time>
      </trkpt>
      <trkpt lat="43.4669" lon="5.7524">
        <ele>340.4</ele>
        <time>2016-05-01T12:47:32Z</time>
      </trkpt>
      <trkpt lat="43.4669" lon="5.75229">
        <ele>338.6</ele>
        <time>2016-05-01T12:47:40Z</time>
      </trkpt>
      <trkpt lat="43.4669" lon="5.75228">
        <ele>338.9</ele>
        <time>2016-05-01T12:47:41Z</time>
      </trkpt>
      <trkpt lat="43.46694" lon="5.75208">
        <ele>336.7</ele>
        <time>2016-05-01T12:47:57Z</time>
      </trkpt>
      <trkpt lat="43.46697" lon="5.75198">
        <ele>335.7</ele>
        <time>2016-05-01T12:48:04Z</time>
      </trkpt>
      <trkpt lat="43.46701" lon="5.75188">
        <ele>334.9</ele>
        <time>2016-05-01T12:48:12Z</time>
      </trkpt>
      <trkpt lat="43.46705" lon="5.75178">
        <ele>334.4</ele>
        <time>2016-05-01T12:48:20Z</time>
      </trkpt>
      <trkpt lat="43.46708" lon="5.75168">
        <ele>333.6</ele>
        <time>2016-05-01T12:48:28Z</time>
      </trkpt>
      <trkpt lat="43.46712" lon="5.75157">
        <ele>332.7</ele>
        <time>2016-05-01T12:48:38Z</time>
      </trkpt>
      <trkpt lat="43.46713" lon="5.75145">
        <ele>332</ele>
        <time>2016-05-01T12:48:47Z</time>
      </trkpt>
      <trkpt lat="43.46714" lon="5.75145">
        <ele>332.1</ele>
        <time>2016-05-01T12:48:48Z</time>
      </trkpt>
      <trkpt lat="43.46718" lon="5.75123">
        <ele>330</ele>
        <time>2016-05-01T12:49:03Z</time>
      </trkpt>
      <trkpt lat="43.46719" lon="5.75111">
        <ele>327.6</ele>
        <time>2016-05-01T12:49:13Z</time>
      </trkpt>
      <trkpt lat="43.4672" lon="5.75101">
        <ele>327.1</ele>
        <time>2016-05-01T12:49:20Z</time>
      </trkpt>
      <trkpt lat="43.46723" lon="5.75089">
        <ele>326.6</ele>
        <time>2016-05-01T12:49:29Z</time>
      </trkpt>
      <trkpt lat="43.46721" lon="5.75077">
        <ele>325.5</ele>
        <time>2016-05-01T12:49:35Z</time>
      </trkpt>
      <trkpt lat="43.46719" lon="5.75067">
        <ele>324</ele>
        <time>2016-05-01T12:49:43Z</time>
      </trkpt>
      <trkpt lat="43.46716" lon="5.75055">
        <ele>322.8</ele>
        <time>2016-05-01T12:49:53Z</time>
      </trkpt>
      <trkpt lat="43.46716" lon="5.75054">
        <ele>322.6</ele>
        <time>2016-05-01T12:49:54Z</time>
      </trkpt>
      <trkpt lat="43.46711" lon="5.75034">
        <ele>319.7</ele>
        <time>2016-05-01T12:50:09Z</time>
      </trkpt>
      <trkpt lat="43.46709" lon="5.75023">
        <ele>318.4</ele>
        <time>2016-05-01T12:50:18Z</time>
      </trkpt>
      <trkpt lat="43.46707" lon="5.75011">
        <ele>317.7</ele>
        <time>2016-05-01T12:50:27Z</time>
      </trkpt>
      <trkpt lat="43.46706" lon="5.75">
        <ele>316.2</ele>
        <time>2016-05-01T12:50:36Z</time>
      </trkpt>
      <trkpt lat="43.46703" lon="5.74989">
        <ele>315.2</ele>
        <time>2016-05-01T12:50:44Z</time>
      </trkpt>
      <trkpt lat="43.467" lon="5.74978">
        <ele>314.4</ele>
        <time>2016-05-01T12:50:52Z</time>
      </trkpt>
      <trkpt lat="43.46699" lon="5.74966">
        <ele>313.7</ele>
        <time>2016-05-01T12:51:00Z</time>
      </trkpt>
      <trkpt lat="43.46699" lon="5.74965">
        <ele>313.7</ele>
        <time>2016-05-01T12:51:01Z</time>
      </trkpt>
      <trkpt lat="43.46693" lon="5.74944">
        <ele>311.1</ele>
        <time>2016-05-01T12:51:18Z</time>
      </trkpt>
      <trkpt lat="43.46691" lon="5.74932">
        <ele>309.9</ele>
        <time>2016-05-01T12:51:29Z</time>
      </trkpt>
      <trkpt lat="43.46687" lon="5.74922">
        <ele>308.5</ele>
        <time>2016-05-01T12:51:38Z</time>
      </trkpt>
      <trkpt lat="43.46687" lon="5.74909">
        <ele>307.4</ele>
        <time>2016-05-01T12:51:48Z</time>
      </trkpt>
      <trkpt lat="43.46688" lon="5.74899">
        <ele>307.4</ele>
        <time>2016-05-01T12:51:56Z</time>
      </trkpt>
      <trkpt lat="43.4669" lon="5.74889">
        <ele>307.2</ele>
        <time>2016-05-01T12:52:03Z</time>
      </trkpt>
      <trkpt lat="43.46691" lon="5.74887">
        <ele>307.2</ele>
        <time>2016-05-01T12:52:04Z</time>
      </trkpt>
      <trkpt lat="43.46698" lon="5.7487">
        <ele>306.1</ele>
        <time>2016-05-01T12:52:16Z</time>
      </trkpt>
      <trkpt lat="43.46702" lon="5.74858">
        <ele>306.3</ele>
        <time>2016-05-01T12:52:23Z</time>
      </trkpt>
      <trkpt lat="43.46702" lon="5.74847">
        <ele>306.2</ele>
        <time>2016-05-01T12:52:31Z</time>
      </trkpt>
      <trkpt lat="43.46704" lon="5.74835">
        <ele>306</ele>
        <time>2016-05-01T12:52:41Z</time>
      </trkpt>
      <trkpt lat="43.46706" lon="5.74823">
        <ele>304.8</ele>
        <time>2016-05-01T12:52:51Z</time>
      </trkpt>
      <trkpt lat="43.46708" lon="5.74811">
        <ele>304.3</ele>
        <time>2016-05-01T12:53:09Z</time>
      </trkpt>
      <trkpt lat="43.46708" lon="5.74811">
        <ele>304.3</ele>
        <time>2016-05-01T12:53:10Z</time>
      </trkpt>
      <trkpt lat="43.467" lon="5.74793">
        <ele>303.4</ele>
        <time>2016-05-01T12:53:26Z</time>
      </trkpt>
      <trkpt lat="43.46693" lon="5.74785">
        <ele>303.3</ele>
        <time>2016-05-01T12:53:32Z</time>
      </trkpt>
      <trkpt lat="43.46687" lon="5.74776">
        <ele>303.1</ele>
        <time>2016-05-01T12:53:40Z</time>
      </trkpt>
      <trkpt lat="43.4668" lon="5.74769">
        <ele>302.5</ele>
        <time>2016-05-01T12:53:47Z</time>
      </trkpt>
      <trkpt lat="43.46678" lon="5.74757">
        <ele>302.2</ele>
        <time>2016-05-01T12:54:07Z</time>
      </trkpt>
      <trkpt lat="43.4667" lon="5.74761">
        <ele>301.9</ele>
        <time>2016-05-01T12:54:43Z</time>
      </trkpt>
      <trkpt lat="43.46669" lon="5.74761">
        <ele>302.1</ele>
        <time>2016-05-01T12:54:44Z</time>
      </trkpt>
      <trkpt lat="43.4667" lon="5.74748">
        <ele>301.2</ele>
        <time>2016-05-01T12:56:35Z</time>
      </trkpt>
      <trkpt lat="43.46662" lon="5.7473">
        <ele>302.5</ele>
        <time>2016-05-01T12:57:05Z</time>
      </trkpt>
      <trkpt lat="43.4666" lon="5.74718">
        <ele>303.4</ele>
        <time>2016-05-01T12:57:13Z</time>
      </trkpt>
      <trkpt lat="43.46662" lon="5.74706">
        <ele>302.8</ele>
        <time>2016-05-01T12:57:22Z</time>
      </trkpt>
      <trkpt lat="43.46665" lon="5.74696">
        <ele>302.2</ele>
        <time>2016-05-01T12:57:30Z</time>
      </trkpt>
      <trkpt lat="43.46667" lon="5.74685">
        <ele>302.1</ele>
        <time>2016-05-01T12:57:38Z</time>
      </trkpt>
      <trkpt lat="43.46668" lon="5.74684">
        <ele>301.7</ele>
        <time>2016-05-01T12:57:39Z</time>
      </trkpt>
      <trkpt lat="43.46675" lon="5.74664">
        <ele>302</ele>
        <time>2016-05-01T12:57:53Z</time>
      </trkpt>
      <trkpt lat="43.4668" lon="5.74655">
        <ele>301.1</ele>
        <time>2016-05-01T12:58:02Z</time>
      </trkpt>
      <trkpt lat="43.46686" lon="5.74646">
        <ele>301</ele>
        <time>2016-05-01T12:58:12Z</time>
      </trkpt>
      <trkpt lat="43.46686" lon="5.74634">
        <ele>299.3</ele>
        <time>2016-05-01T12:58:20Z</time>
      </trkpt>
      <trkpt lat="43.46684" lon="5.74624">
        <ele>299.1</ele>
        <time>2016-05-01T12:58:26Z</time>
      </trkpt>
      <trkpt lat="43.46686" lon="5.74612">
        <ele>298.2</ele>
        <time>2016-05-01T12:58:36Z</time>
      </trkpt>
      <trkpt lat="43.46691" lon="5.74601">
        <ele>297.9</ele>
        <time>2016-05-01T12:58:48Z</time>
      </trkpt>
      <trkpt lat="43.46692" lon="5.74601">
        <ele>298</ele>
        <time>2016-05-01T12:58:49Z</time>
      </trkpt>
    </trkseg>
  </trk>
</gpx>